<?xml version="1.0" encoding="UTF-8" standalone="no" ?>
<gpx xmlns="http://www.topografix.com/GPX/1/1" xmlns:xsi="http://www.w3.org/2001/XMLSchema-instance" xsi:schemaLocation="http://www.topografix.com/GPX/1/1 http://www.topografix.com/GPX/1/1/gpx.xsd" version="1.1" creator="VisuGPX - https://www.visugpx.com">
  <metadata>
    <name>la gardiole 2621 m le roux</name>
    <desc><![CDATA[rando raquettes 1/04/2013]]></desc>
  </metadata>
  <trk>
    <name><![CDATA[01-AVR-13 13:50:09]]></name>
    <trkseg>
      <trkpt lat="44.82006" lon="6.94434">
        <ele>1823.28</ele>
        <time>2013-04-01T06:46:02Z</time>
      </trkpt>
      <trkpt lat="44.82007" lon="6.94436">
        <ele>1822.8</ele>
        <time>2013-04-01T06:46:03Z</time>
      </trkpt>
      <trkpt lat="44.8201" lon="6.94437">
        <ele>1822.8</ele>
        <time>2013-04-01T06:46:05Z</time>
      </trkpt>
      <trkpt lat="44.82014" lon="6.94441">
        <ele>1819.91</ele>
        <time>2013-04-01T06:46:11Z</time>
      </trkpt>
      <trkpt lat="44.82016" lon="6.94441">
        <ele>1816.55</ele>
        <time>2013-04-01T06:46:13Z</time>
      </trkpt>
      <trkpt lat="44.82019" lon="6.94441">
        <ele>1811.74</ele>
        <time>2013-04-01T06:46:16Z</time>
      </trkpt>
      <trkpt lat="44.82023" lon="6.9444">
        <ele>1807.42</ele>
        <time>2013-04-01T06:46:19Z</time>
      </trkpt>
      <trkpt lat="44.82026" lon="6.94439">
        <ele>1804.05</ele>
        <time>2013-04-01T06:46:22Z</time>
      </trkpt>
      <trkpt lat="44.82028" lon="6.94439">
        <ele>1802.13</ele>
        <time>2013-04-01T06:46:24Z</time>
      </trkpt>
      <trkpt lat="44.82031" lon="6.94438">
        <ele>1799.24</ele>
        <time>2013-04-01T06:46:26Z</time>
      </trkpt>
      <trkpt lat="44.82032" lon="6.94438">
        <ele>1798.76</ele>
        <time>2013-04-01T06:46:27Z</time>
      </trkpt>
      <trkpt lat="44.82035" lon="6.94436">
        <ele>1794.92</ele>
        <time>2013-04-01T06:46:30Z</time>
      </trkpt>
      <trkpt lat="44.82035" lon="6.94436">
        <ele>1794.92</ele>
        <time>2013-04-01T06:46:31Z</time>
      </trkpt>
      <trkpt lat="44.82042" lon="6.94439">
        <ele>1792.03</ele>
        <time>2013-04-01T06:46:34Z</time>
      </trkpt>
      <trkpt lat="44.82044" lon="6.94438">
        <ele>1791.55</ele>
        <time>2013-04-01T06:46:35Z</time>
      </trkpt>
      <trkpt lat="44.82048" lon="6.94436">
        <ele>1790.11</ele>
        <time>2013-04-01T06:46:38Z</time>
      </trkpt>
      <trkpt lat="44.82055" lon="6.94414">
        <ele>1789.63</ele>
        <time>2013-04-01T06:46:52Z</time>
      </trkpt>
      <trkpt lat="44.82072" lon="6.94415">
        <ele>1789.15</ele>
        <time>2013-04-01T06:47:08Z</time>
      </trkpt>
      <trkpt lat="44.82094" lon="6.94415">
        <ele>1789.15</ele>
        <time>2013-04-01T06:47:26Z</time>
      </trkpt>
      <trkpt lat="44.82119" lon="6.94414">
        <ele>1789.15</ele>
        <time>2013-04-01T06:47:43Z</time>
      </trkpt>
      <trkpt lat="44.82132" lon="6.94413">
        <ele>1792.52</ele>
        <time>2013-04-01T06:47:58Z</time>
      </trkpt>
      <trkpt lat="44.82142" lon="6.94407">
        <ele>1794.44</ele>
        <time>2013-04-01T06:48:11Z</time>
      </trkpt>
      <trkpt lat="44.82151" lon="6.94395">
        <ele>1795.88</ele>
        <time>2013-04-01T06:48:28Z</time>
      </trkpt>
      <trkpt lat="44.82157" lon="6.94403">
        <ele>1797.32</ele>
        <time>2013-04-01T06:48:43Z</time>
      </trkpt>
      <trkpt lat="44.8216" lon="6.94409">
        <ele>1799.73</ele>
        <time>2013-04-01T06:48:58Z</time>
      </trkpt>
      <trkpt lat="44.82166" lon="6.94405">
        <ele>1801.17</ele>
        <time>2013-04-01T06:49:14Z</time>
      </trkpt>
      <trkpt lat="44.82167" lon="6.94409">
        <ele>1801.65</ele>
        <time>2013-04-01T06:49:31Z</time>
      </trkpt>
      <trkpt lat="44.82171" lon="6.94418">
        <ele>1803.09</ele>
        <time>2013-04-01T06:49:46Z</time>
      </trkpt>
      <trkpt lat="44.82172" lon="6.94426">
        <ele>1804.53</ele>
        <time>2013-04-01T06:50:03Z</time>
      </trkpt>
      <trkpt lat="44.82171" lon="6.94435">
        <ele>1806.94</ele>
        <time>2013-04-01T06:50:19Z</time>
      </trkpt>
      <trkpt lat="44.82173" lon="6.94435">
        <ele>1808.38</ele>
        <time>2013-04-01T06:50:31Z</time>
      </trkpt>
      <trkpt lat="44.82177" lon="6.94435">
        <ele>1809.34</ele>
        <time>2013-04-01T06:50:47Z</time>
      </trkpt>
      <trkpt lat="44.82177" lon="6.94435">
        <ele>1809.82</ele>
        <time>2013-04-01T06:51:03Z</time>
      </trkpt>
      <trkpt lat="44.82182" lon="6.94436">
        <ele>1811.26</ele>
        <time>2013-04-01T06:51:18Z</time>
      </trkpt>
      <trkpt lat="44.82183" lon="6.94437">
        <ele>1813.18</ele>
        <time>2013-04-01T06:51:32Z</time>
      </trkpt>
      <trkpt lat="44.82186" lon="6.94438">
        <ele>1815.11</ele>
        <time>2013-04-01T06:51:48Z</time>
      </trkpt>
      <trkpt lat="44.82192" lon="6.9444">
        <ele>1816.07</ele>
        <time>2013-04-01T06:52:05Z</time>
      </trkpt>
      <trkpt lat="44.822" lon="6.94442">
        <ele>1817.51</ele>
        <time>2013-04-01T06:52:23Z</time>
      </trkpt>
      <trkpt lat="44.82209" lon="6.94449">
        <ele>1819.91</ele>
        <time>2013-04-01T06:52:40Z</time>
      </trkpt>
      <trkpt lat="44.82214" lon="6.94453">
        <ele>1822.32</ele>
        <time>2013-04-01T06:52:56Z</time>
      </trkpt>
      <trkpt lat="44.82219" lon="6.94456">
        <ele>1824.24</ele>
        <time>2013-04-01T06:53:19Z</time>
      </trkpt>
      <trkpt lat="44.82225" lon="6.94459">
        <ele>1825.68</ele>
        <time>2013-04-01T06:53:34Z</time>
      </trkpt>
      <trkpt lat="44.82225" lon="6.94463">
        <ele>1826.64</ele>
        <time>2013-04-01T06:53:58Z</time>
      </trkpt>
      <trkpt lat="44.82225" lon="6.94472">
        <ele>1828.56</ele>
        <time>2013-04-01T06:54:13Z</time>
      </trkpt>
      <trkpt lat="44.8223" lon="6.94478">
        <ele>1830.97</ele>
        <time>2013-04-01T06:54:28Z</time>
      </trkpt>
      <trkpt lat="44.82236" lon="6.94478">
        <ele>1832.41</ele>
        <time>2013-04-01T06:54:45Z</time>
      </trkpt>
      <trkpt lat="44.82241" lon="6.94477">
        <ele>1834.81</ele>
        <time>2013-04-01T06:54:58Z</time>
      </trkpt>
      <trkpt lat="44.82241" lon="6.94485">
        <ele>1836.74</ele>
        <time>2013-04-01T06:55:16Z</time>
      </trkpt>
      <trkpt lat="44.82243" lon="6.94488">
        <ele>1838.66</ele>
        <time>2013-04-01T06:55:31Z</time>
      </trkpt>
      <trkpt lat="44.82244" lon="6.94488">
        <ele>1838.66</ele>
        <time>2013-04-01T06:55:47Z</time>
      </trkpt>
      <trkpt lat="44.82251" lon="6.94488">
        <ele>1840.1</ele>
        <time>2013-04-01T06:56:02Z</time>
      </trkpt>
      <trkpt lat="44.82259" lon="6.94492">
        <ele>1842.02</ele>
        <time>2013-04-01T06:56:19Z</time>
      </trkpt>
      <trkpt lat="44.82264" lon="6.94494">
        <ele>1843.95</ele>
        <time>2013-04-01T06:56:35Z</time>
      </trkpt>
      <trkpt lat="44.82266" lon="6.94496">
        <ele>1845.87</ele>
        <time>2013-04-01T06:56:53Z</time>
      </trkpt>
      <trkpt lat="44.82271" lon="6.94501">
        <ele>1846.83</ele>
        <time>2013-04-01T06:57:08Z</time>
      </trkpt>
      <trkpt lat="44.82275" lon="6.94503">
        <ele>1847.79</ele>
        <time>2013-04-01T06:57:26Z</time>
      </trkpt>
      <trkpt lat="44.82283" lon="6.94502">
        <ele>1849.71</ele>
        <time>2013-04-01T06:57:40Z</time>
      </trkpt>
      <trkpt lat="44.82291" lon="6.94498">
        <ele>1851.16</ele>
        <time>2013-04-01T06:57:57Z</time>
      </trkpt>
      <trkpt lat="44.82295" lon="6.94499">
        <ele>1852.6</ele>
        <time>2013-04-01T06:58:11Z</time>
      </trkpt>
      <trkpt lat="44.82298" lon="6.94499">
        <ele>1853.08</ele>
        <time>2013-04-01T06:58:33Z</time>
      </trkpt>
      <trkpt lat="44.82307" lon="6.94503">
        <ele>1855</ele>
        <time>2013-04-01T06:58:51Z</time>
      </trkpt>
      <trkpt lat="44.82313" lon="6.94501">
        <ele>1855.96</ele>
        <time>2013-04-01T06:59:09Z</time>
      </trkpt>
      <trkpt lat="44.82319" lon="6.94502">
        <ele>1857.4</ele>
        <time>2013-04-01T06:59:25Z</time>
      </trkpt>
      <trkpt lat="44.82319" lon="6.94502">
        <ele>1857.89</ele>
        <time>2013-04-01T06:59:41Z</time>
      </trkpt>
      <trkpt lat="44.82328" lon="6.94501">
        <ele>1858.85</ele>
        <time>2013-04-01T06:59:54Z</time>
      </trkpt>
      <trkpt lat="44.82337" lon="6.94502">
        <ele>1861.25</ele>
        <time>2013-04-01T07:00:08Z</time>
      </trkpt>
      <trkpt lat="44.82347" lon="6.94503">
        <ele>1863.17</ele>
        <time>2013-04-01T07:00:24Z</time>
      </trkpt>
      <trkpt lat="44.82351" lon="6.94503">
        <ele>1863.17</ele>
        <time>2013-04-01T07:00:41Z</time>
      </trkpt>
      <trkpt lat="44.82361" lon="6.94503">
        <ele>1866.06</ele>
        <time>2013-04-01T07:00:57Z</time>
      </trkpt>
      <trkpt lat="44.82369" lon="6.94504">
        <ele>1867.5</ele>
        <time>2013-04-01T07:01:12Z</time>
      </trkpt>
      <trkpt lat="44.82373" lon="6.94505">
        <ele>1868.46</ele>
        <time>2013-04-01T07:01:27Z</time>
      </trkpt>
      <trkpt lat="44.82376" lon="6.94505">
        <ele>1869.9</ele>
        <time>2013-04-01T07:01:45Z</time>
      </trkpt>
      <trkpt lat="44.82379" lon="6.94506">
        <ele>1871.82</ele>
        <time>2013-04-01T07:02:00Z</time>
      </trkpt>
      <trkpt lat="44.82379" lon="6.94509">
        <ele>1872.3</ele>
        <time>2013-04-01T07:02:04Z</time>
      </trkpt>
      <trkpt lat="44.82382" lon="6.94512">
        <ele>1874.23</ele>
        <time>2013-04-01T07:02:21Z</time>
      </trkpt>
      <trkpt lat="44.82389" lon="6.94513">
        <ele>1877.11</ele>
        <time>2013-04-01T07:02:36Z</time>
      </trkpt>
      <trkpt lat="44.82393" lon="6.94515">
        <ele>1878.07</ele>
        <time>2013-04-01T07:02:50Z</time>
      </trkpt>
      <trkpt lat="44.82397" lon="6.94511">
        <ele>1879.51</ele>
        <time>2013-04-01T07:03:05Z</time>
      </trkpt>
      <trkpt lat="44.82398" lon="6.94511">
        <ele>1879.51</ele>
        <time>2013-04-01T07:03:06Z</time>
      </trkpt>
      <trkpt lat="44.82404" lon="6.94511">
        <ele>1880.48</ele>
        <time>2013-04-01T07:03:21Z</time>
      </trkpt>
      <trkpt lat="44.8241" lon="6.94511">
        <ele>1881.92</ele>
        <time>2013-04-01T07:03:34Z</time>
      </trkpt>
      <trkpt lat="44.82413" lon="6.94516">
        <ele>1884.32</ele>
        <time>2013-04-01T07:03:50Z</time>
      </trkpt>
      <trkpt lat="44.82418" lon="6.94518">
        <ele>1885.76</ele>
        <time>2013-04-01T07:04:05Z</time>
      </trkpt>
      <trkpt lat="44.82418" lon="6.94518">
        <ele>1884.8</ele>
        <time>2013-04-01T07:04:18Z</time>
      </trkpt>
      <trkpt lat="44.82418" lon="6.94519">
        <ele>1885.28</ele>
        <time>2013-04-01T07:04:43Z</time>
      </trkpt>
      <trkpt lat="44.82418" lon="6.94519">
        <ele>1884.8</ele>
        <time>2013-04-01T07:05:10Z</time>
      </trkpt>
      <trkpt lat="44.82418" lon="6.94519">
        <ele>1884.8</ele>
        <time>2013-04-01T07:05:38Z</time>
      </trkpt>
      <trkpt lat="44.82418" lon="6.94519">
        <ele>1884.32</ele>
        <time>2013-04-01T07:05:58Z</time>
      </trkpt>
      <trkpt lat="44.82418" lon="6.94519">
        <ele>1884.32</ele>
        <time>2013-04-01T07:06:28Z</time>
      </trkpt>
      <trkpt lat="44.82417" lon="6.9452">
        <ele>1883.84</ele>
        <time>2013-04-01T07:06:52Z</time>
      </trkpt>
      <trkpt lat="44.82417" lon="6.9452">
        <ele>1884.8</ele>
        <time>2013-04-01T07:07:17Z</time>
      </trkpt>
      <trkpt lat="44.82417" lon="6.9452">
        <ele>1883.36</ele>
        <time>2013-04-01T07:07:43Z</time>
      </trkpt>
      <trkpt lat="44.82417" lon="6.9452">
        <ele>1883.84</ele>
        <time>2013-04-01T07:08:07Z</time>
      </trkpt>
      <trkpt lat="44.82418" lon="6.9452">
        <ele>1883.36</ele>
        <time>2013-04-01T07:08:41Z</time>
      </trkpt>
      <trkpt lat="44.82418" lon="6.9452">
        <ele>1883.36</ele>
        <time>2013-04-01T07:09:14Z</time>
      </trkpt>
      <trkpt lat="44.82418" lon="6.9452">
        <ele>1882.88</ele>
        <time>2013-04-01T07:09:48Z</time>
      </trkpt>
      <trkpt lat="44.82418" lon="6.9452">
        <ele>1882.88</ele>
        <time>2013-04-01T07:10:14Z</time>
      </trkpt>
      <trkpt lat="44.82418" lon="6.94519">
        <ele>1882.88</ele>
        <time>2013-04-01T07:10:44Z</time>
      </trkpt>
      <trkpt lat="44.82418" lon="6.94518">
        <ele>1882.4</ele>
        <time>2013-04-01T07:11:16Z</time>
      </trkpt>
      <trkpt lat="44.82418" lon="6.94519">
        <ele>1882.88</ele>
        <time>2013-04-01T07:11:52Z</time>
      </trkpt>
      <trkpt lat="44.82418" lon="6.94519">
        <ele>1882.88</ele>
        <time>2013-04-01T07:12:10Z</time>
      </trkpt>
      <trkpt lat="44.82418" lon="6.94519">
        <ele>1882.4</ele>
        <time>2013-04-01T07:12:31Z</time>
      </trkpt>
      <trkpt lat="44.82418" lon="6.94519">
        <ele>1882.88</ele>
        <time>2013-04-01T07:12:51Z</time>
      </trkpt>
      <trkpt lat="44.82418" lon="6.94519">
        <ele>1881.92</ele>
        <time>2013-04-01T07:13:10Z</time>
      </trkpt>
      <trkpt lat="44.82418" lon="6.94518">
        <ele>1881.92</ele>
        <time>2013-04-01T07:13:37Z</time>
      </trkpt>
      <trkpt lat="44.82419" lon="6.94517">
        <ele>1881.92</ele>
        <time>2013-04-01T07:14:00Z</time>
      </trkpt>
      <trkpt lat="44.8242" lon="6.94516">
        <ele>1882.88</ele>
        <time>2013-04-01T07:14:22Z</time>
      </trkpt>
      <trkpt lat="44.8242" lon="6.94517">
        <ele>1882.88</ele>
        <time>2013-04-01T07:14:39Z</time>
      </trkpt>
      <trkpt lat="44.82425" lon="6.94519">
        <ele>1884.32</ele>
        <time>2013-04-01T07:14:54Z</time>
      </trkpt>
      <trkpt lat="44.82432" lon="6.94523">
        <ele>1887.21</ele>
        <time>2013-04-01T07:15:11Z</time>
      </trkpt>
      <trkpt lat="44.8244" lon="6.94526">
        <ele>1890.09</ele>
        <time>2013-04-01T07:15:27Z</time>
      </trkpt>
      <trkpt lat="44.82444" lon="6.94528">
        <ele>1891.05</ele>
        <time>2013-04-01T07:15:43Z</time>
      </trkpt>
      <trkpt lat="44.82443" lon="6.94533">
        <ele>1892.49</ele>
        <time>2013-04-01T07:16:00Z</time>
      </trkpt>
      <trkpt lat="44.82442" lon="6.94537">
        <ele>1892.49</ele>
        <time>2013-04-01T07:16:24Z</time>
      </trkpt>
      <trkpt lat="44.82438" lon="6.94549">
        <ele>1894.42</ele>
        <time>2013-04-01T07:16:37Z</time>
      </trkpt>
      <trkpt lat="44.82433" lon="6.94562">
        <ele>1896.34</ele>
        <time>2013-04-01T07:16:53Z</time>
      </trkpt>
      <trkpt lat="44.82432" lon="6.94565">
        <ele>1897.3</ele>
        <time>2013-04-01T07:17:06Z</time>
      </trkpt>
      <trkpt lat="44.82433" lon="6.9457">
        <ele>1897.78</ele>
        <time>2013-04-01T07:17:29Z</time>
      </trkpt>
      <trkpt lat="44.82431" lon="6.94581">
        <ele>1900.18</ele>
        <time>2013-04-01T07:17:43Z</time>
      </trkpt>
      <trkpt lat="44.82428" lon="6.94588">
        <ele>1903.55</ele>
        <time>2013-04-01T07:17:57Z</time>
      </trkpt>
      <trkpt lat="44.82425" lon="6.94594">
        <ele>1904.99</ele>
        <time>2013-04-01T07:18:11Z</time>
      </trkpt>
      <trkpt lat="44.82424" lon="6.94596">
        <ele>1905.95</ele>
        <time>2013-04-01T07:18:31Z</time>
      </trkpt>
      <trkpt lat="44.82424" lon="6.94601">
        <ele>1908.35</ele>
        <time>2013-04-01T07:18:45Z</time>
      </trkpt>
      <trkpt lat="44.82428" lon="6.94604">
        <ele>1908.83</ele>
        <time>2013-04-01T07:19:02Z</time>
      </trkpt>
      <trkpt lat="44.82429" lon="6.94605">
        <ele>1909.8</ele>
        <time>2013-04-01T07:19:05Z</time>
      </trkpt>
      <trkpt lat="44.82435" lon="6.94613">
        <ele>1912.68</ele>
        <time>2013-04-01T07:19:20Z</time>
      </trkpt>
      <trkpt lat="44.82439" lon="6.94617">
        <ele>1912.68</ele>
        <time>2013-04-01T07:19:35Z</time>
      </trkpt>
      <trkpt lat="44.82444" lon="6.94623">
        <ele>1915.08</ele>
        <time>2013-04-01T07:19:56Z</time>
      </trkpt>
      <trkpt lat="44.82444" lon="6.94629">
        <ele>1916.53</ele>
        <time>2013-04-01T07:20:12Z</time>
      </trkpt>
      <trkpt lat="44.82443" lon="6.94634">
        <ele>1917.01</ele>
        <time>2013-04-01T07:20:30Z</time>
      </trkpt>
      <trkpt lat="44.8244" lon="6.94642">
        <ele>1919.41</ele>
        <time>2013-04-01T07:20:44Z</time>
      </trkpt>
      <trkpt lat="44.8244" lon="6.94643">
        <ele>1920.37</ele>
        <time>2013-04-01T07:21:02Z</time>
      </trkpt>
      <trkpt lat="44.82442" lon="6.94645">
        <ele>1920.85</ele>
        <time>2013-04-01T07:21:22Z</time>
      </trkpt>
      <trkpt lat="44.82442" lon="6.94645">
        <ele>1926.62</ele>
        <time>2013-04-01T07:21:27Z</time>
      </trkpt>
      <trkpt lat="44.82442" lon="6.94645">
        <ele>1921.81</ele>
        <time>2013-04-01T07:21:29Z</time>
      </trkpt>
      <trkpt lat="44.82448" lon="6.9465">
        <ele>1923.25</ele>
        <time>2013-04-01T07:21:47Z</time>
      </trkpt>
      <trkpt lat="44.82453" lon="6.94654">
        <ele>1925.18</ele>
        <time>2013-04-01T07:22:03Z</time>
      </trkpt>
      <trkpt lat="44.82457" lon="6.94654">
        <ele>1927.58</ele>
        <time>2013-04-01T07:22:23Z</time>
      </trkpt>
      <trkpt lat="44.82458" lon="6.94653">
        <ele>1928.54</ele>
        <time>2013-04-01T07:22:32Z</time>
      </trkpt>
      <trkpt lat="44.82467" lon="6.94654">
        <ele>1930.95</ele>
        <time>2013-04-01T07:22:50Z</time>
      </trkpt>
      <trkpt lat="44.82467" lon="6.94654">
        <ele>1930.95</ele>
        <time>2013-04-01T07:23:11Z</time>
      </trkpt>
      <trkpt lat="44.82467" lon="6.94654">
        <ele>1930.95</ele>
        <time>2013-04-01T07:23:34Z</time>
      </trkpt>
      <trkpt lat="44.82467" lon="6.94654">
        <ele>1930.46</ele>
        <time>2013-04-01T07:23:59Z</time>
      </trkpt>
      <trkpt lat="44.82467" lon="6.94654">
        <ele>1931.43</ele>
        <time>2013-04-01T07:24:22Z</time>
      </trkpt>
      <trkpt lat="44.82467" lon="6.94653">
        <ele>1930.46</ele>
        <time>2013-04-01T07:24:50Z</time>
      </trkpt>
      <trkpt lat="44.82467" lon="6.94653">
        <ele>1930.95</ele>
        <time>2013-04-01T07:25:14Z</time>
      </trkpt>
      <trkpt lat="44.82466" lon="6.94653">
        <ele>1930.95</ele>
        <time>2013-04-01T07:25:41Z</time>
      </trkpt>
      <trkpt lat="44.82467" lon="6.94653">
        <ele>1930.95</ele>
        <time>2013-04-01T07:26:09Z</time>
      </trkpt>
      <trkpt lat="44.82468" lon="6.94654">
        <ele>1930.95</ele>
        <time>2013-04-01T07:26:29Z</time>
      </trkpt>
      <trkpt lat="44.82476" lon="6.94662">
        <ele>1933.83</ele>
        <time>2013-04-01T07:26:46Z</time>
      </trkpt>
      <trkpt lat="44.82478" lon="6.94666">
        <ele>1934.79</ele>
        <time>2013-04-01T07:27:00Z</time>
      </trkpt>
      <trkpt lat="44.82482" lon="6.94668">
        <ele>1937.67</ele>
        <time>2013-04-01T07:27:15Z</time>
      </trkpt>
      <trkpt lat="44.82486" lon="6.94667">
        <ele>1939.12</ele>
        <time>2013-04-01T07:27:28Z</time>
      </trkpt>
      <trkpt lat="44.82489" lon="6.94667">
        <ele>1940.08</ele>
        <time>2013-04-01T07:27:44Z</time>
      </trkpt>
      <trkpt lat="44.82494" lon="6.94668">
        <ele>1941.52</ele>
        <time>2013-04-01T07:28:05Z</time>
      </trkpt>
      <trkpt lat="44.82501" lon="6.94666">
        <ele>1944.88</ele>
        <time>2013-04-01T07:28:20Z</time>
      </trkpt>
      <trkpt lat="44.82506" lon="6.9466">
        <ele>1946.33</ele>
        <time>2013-04-01T07:28:34Z</time>
      </trkpt>
      <trkpt lat="44.8251" lon="6.9466">
        <ele>1947.77</ele>
        <time>2013-04-01T07:28:45Z</time>
      </trkpt>
      <trkpt lat="44.82512" lon="6.94661">
        <ele>1948.25</ele>
        <time>2013-04-01T07:29:05Z</time>
      </trkpt>
      <trkpt lat="44.82512" lon="6.94662">
        <ele>1948.25</ele>
        <time>2013-04-01T07:29:30Z</time>
      </trkpt>
      <trkpt lat="44.82512" lon="6.94662">
        <ele>1948.25</ele>
        <time>2013-04-01T07:29:58Z</time>
      </trkpt>
      <trkpt lat="44.82513" lon="6.94665">
        <ele>1948.73</ele>
        <time>2013-04-01T07:30:23Z</time>
      </trkpt>
      <trkpt lat="44.82515" lon="6.94676">
        <ele>1949.21</ele>
        <time>2013-04-01T07:30:36Z</time>
      </trkpt>
      <trkpt lat="44.82517" lon="6.9469">
        <ele>1951.61</ele>
        <time>2013-04-01T07:30:53Z</time>
      </trkpt>
      <trkpt lat="44.82517" lon="6.947">
        <ele>1953.54</ele>
        <time>2013-04-01T07:31:10Z</time>
      </trkpt>
      <trkpt lat="44.82516" lon="6.94706">
        <ele>1954.98</ele>
        <time>2013-04-01T07:31:29Z</time>
      </trkpt>
      <trkpt lat="44.82513" lon="6.94716">
        <ele>1957.38</ele>
        <time>2013-04-01T07:31:46Z</time>
      </trkpt>
      <trkpt lat="44.8251" lon="6.94724">
        <ele>1958.82</ele>
        <time>2013-04-01T07:32:00Z</time>
      </trkpt>
      <trkpt lat="44.8251" lon="6.94726">
        <ele>1959.78</ele>
        <time>2013-04-01T07:32:20Z</time>
      </trkpt>
      <trkpt lat="44.8251" lon="6.94738">
        <ele>1961.23</ele>
        <time>2013-04-01T07:32:39Z</time>
      </trkpt>
      <trkpt lat="44.8251" lon="6.94741">
        <ele>1962.67</ele>
        <time>2013-04-01T07:32:54Z</time>
      </trkpt>
      <trkpt lat="44.82513" lon="6.94747">
        <ele>1963.63</ele>
        <time>2013-04-01T07:32:59Z</time>
      </trkpt>
      <trkpt lat="44.82512" lon="6.94753">
        <ele>1966.03</ele>
        <time>2013-04-01T07:33:21Z</time>
      </trkpt>
      <trkpt lat="44.82505" lon="6.94753">
        <ele>1967.48</ele>
        <time>2013-04-01T07:33:36Z</time>
      </trkpt>
      <trkpt lat="44.82505" lon="6.94755">
        <ele>1967.96</ele>
        <time>2013-04-01T07:33:56Z</time>
      </trkpt>
      <trkpt lat="44.82505" lon="6.94763">
        <ele>1969.4</ele>
        <time>2013-04-01T07:34:10Z</time>
      </trkpt>
      <trkpt lat="44.82505" lon="6.94776">
        <ele>1972.28</ele>
        <time>2013-04-01T07:34:26Z</time>
      </trkpt>
      <trkpt lat="44.82505" lon="6.94778">
        <ele>1972.76</ele>
        <time>2013-04-01T07:34:47Z</time>
      </trkpt>
      <trkpt lat="44.82507" lon="6.94791">
        <ele>1975.17</ele>
        <time>2013-04-01T07:35:05Z</time>
      </trkpt>
      <trkpt lat="44.82507" lon="6.94796">
        <ele>1977.09</ele>
        <time>2013-04-01T07:35:20Z</time>
      </trkpt>
      <trkpt lat="44.82506" lon="6.94801">
        <ele>1978.05</ele>
        <time>2013-04-01T07:35:35Z</time>
      </trkpt>
      <trkpt lat="44.82504" lon="6.94811">
        <ele>1980.45</ele>
        <time>2013-04-01T07:35:49Z</time>
      </trkpt>
      <trkpt lat="44.82503" lon="6.94818">
        <ele>1982.86</ele>
        <time>2013-04-01T07:36:04Z</time>
      </trkpt>
      <trkpt lat="44.82502" lon="6.94819">
        <ele>1982.38</ele>
        <time>2013-04-01T07:36:22Z</time>
      </trkpt>
      <trkpt lat="44.82502" lon="6.94826">
        <ele>1984.3</ele>
        <time>2013-04-01T07:36:40Z</time>
      </trkpt>
      <trkpt lat="44.82502" lon="6.94838">
        <ele>1986.7</ele>
        <time>2013-04-01T07:36:55Z</time>
      </trkpt>
      <trkpt lat="44.82501" lon="6.94848">
        <ele>1987.66</ele>
        <time>2013-04-01T07:37:10Z</time>
      </trkpt>
      <trkpt lat="44.825" lon="6.94857">
        <ele>1990.07</ele>
        <time>2013-04-01T07:37:25Z</time>
      </trkpt>
      <trkpt lat="44.82499" lon="6.94858">
        <ele>1990.55</ele>
        <time>2013-04-01T07:37:43Z</time>
      </trkpt>
      <trkpt lat="44.82499" lon="6.94868">
        <ele>1992.95</ele>
        <time>2013-04-01T07:37:59Z</time>
      </trkpt>
      <trkpt lat="44.82497" lon="6.94877">
        <ele>1994.87</ele>
        <time>2013-04-01T07:38:14Z</time>
      </trkpt>
      <trkpt lat="44.82494" lon="6.94882">
        <ele>1995.83</ele>
        <time>2013-04-01T07:38:32Z</time>
      </trkpt>
      <trkpt lat="44.8249" lon="6.94888">
        <ele>1997.28</ele>
        <time>2013-04-01T07:38:43Z</time>
      </trkpt>
      <trkpt lat="44.82485" lon="6.94896">
        <ele>1998.72</ele>
        <time>2013-04-01T07:38:56Z</time>
      </trkpt>
      <trkpt lat="44.82483" lon="6.94904">
        <ele>2000.64</ele>
        <time>2013-04-01T07:39:10Z</time>
      </trkpt>
      <trkpt lat="44.82482" lon="6.94911">
        <ele>2002.56</ele>
        <time>2013-04-01T07:39:25Z</time>
      </trkpt>
      <trkpt lat="44.82482" lon="6.94911">
        <ele>2002.56</ele>
        <time>2013-04-01T07:39:48Z</time>
      </trkpt>
      <trkpt lat="44.82481" lon="6.94914">
        <ele>2002.08</ele>
        <time>2013-04-01T07:40:17Z</time>
      </trkpt>
      <trkpt lat="44.82481" lon="6.94924">
        <ele>2004.01</ele>
        <time>2013-04-01T07:40:30Z</time>
      </trkpt>
      <trkpt lat="44.82481" lon="6.94936">
        <ele>2007.37</ele>
        <time>2013-04-01T07:40:46Z</time>
      </trkpt>
      <trkpt lat="44.8248" lon="6.94944">
        <ele>2008.33</ele>
        <time>2013-04-01T07:41:02Z</time>
      </trkpt>
      <trkpt lat="44.8248" lon="6.94953">
        <ele>2008.81</ele>
        <time>2013-04-01T07:41:18Z</time>
      </trkpt>
      <trkpt lat="44.82479" lon="6.94964">
        <ele>2011.22</ele>
        <time>2013-04-01T07:41:32Z</time>
      </trkpt>
      <trkpt lat="44.82478" lon="6.94969">
        <ele>2012.18</ele>
        <time>2013-04-01T07:41:46Z</time>
      </trkpt>
      <trkpt lat="44.82477" lon="6.94977">
        <ele>2014.1</ele>
        <time>2013-04-01T07:42:01Z</time>
      </trkpt>
      <trkpt lat="44.82477" lon="6.94983">
        <ele>2014.58</ele>
        <time>2013-04-01T07:42:17Z</time>
      </trkpt>
      <trkpt lat="44.82475" lon="6.94989">
        <ele>2015.54</ele>
        <time>2013-04-01T07:42:32Z</time>
      </trkpt>
      <trkpt lat="44.82475" lon="6.95001">
        <ele>2017.46</ele>
        <time>2013-04-01T07:42:45Z</time>
      </trkpt>
      <trkpt lat="44.82472" lon="6.95014">
        <ele>2019.39</ele>
        <time>2013-04-01T07:43:00Z</time>
      </trkpt>
      <trkpt lat="44.82475" lon="6.95024">
        <ele>2020.35</ele>
        <time>2013-04-01T07:43:14Z</time>
      </trkpt>
      <trkpt lat="44.82478" lon="6.95038">
        <ele>2022.27</ele>
        <time>2013-04-01T07:43:31Z</time>
      </trkpt>
      <trkpt lat="44.82483" lon="6.95048">
        <ele>2023.71</ele>
        <time>2013-04-01T07:43:46Z</time>
      </trkpt>
      <trkpt lat="44.82488" lon="6.9505">
        <ele>2025.64</ele>
        <time>2013-04-01T07:44:00Z</time>
      </trkpt>
      <trkpt lat="44.82496" lon="6.95053">
        <ele>2028.04</ele>
        <time>2013-04-01T07:44:16Z</time>
      </trkpt>
      <trkpt lat="44.825" lon="6.95054">
        <ele>2028.52</ele>
        <time>2013-04-01T07:44:31Z</time>
      </trkpt>
      <trkpt lat="44.825" lon="6.95054">
        <ele>2029</ele>
        <time>2013-04-01T07:45:00Z</time>
      </trkpt>
      <trkpt lat="44.82501" lon="6.95056">
        <ele>2029.48</ele>
        <time>2013-04-01T07:45:16Z</time>
      </trkpt>
      <trkpt lat="44.82502" lon="6.95056">
        <ele>2029.48</ele>
        <time>2013-04-01T07:45:32Z</time>
      </trkpt>
      <trkpt lat="44.82507" lon="6.95062">
        <ele>2030.92</ele>
        <time>2013-04-01T07:45:49Z</time>
      </trkpt>
      <trkpt lat="44.82513" lon="6.95068">
        <ele>2033.33</ele>
        <time>2013-04-01T07:46:04Z</time>
      </trkpt>
      <trkpt lat="44.82517" lon="6.95071">
        <ele>2035.73</ele>
        <time>2013-04-01T07:46:18Z</time>
      </trkpt>
      <trkpt lat="44.82518" lon="6.95071">
        <ele>2035.73</ele>
        <time>2013-04-01T07:46:37Z</time>
      </trkpt>
      <trkpt lat="44.82524" lon="6.95075">
        <ele>2037.65</ele>
        <time>2013-04-01T07:46:53Z</time>
      </trkpt>
      <trkpt lat="44.8253" lon="6.95087">
        <ele>2039.57</ele>
        <time>2013-04-01T07:47:10Z</time>
      </trkpt>
      <trkpt lat="44.82534" lon="6.95093">
        <ele>2041.98</ele>
        <time>2013-04-01T07:47:24Z</time>
      </trkpt>
      <trkpt lat="44.82535" lon="6.95094">
        <ele>2042.46</ele>
        <time>2013-04-01T07:47:45Z</time>
      </trkpt>
      <trkpt lat="44.82538" lon="6.95103">
        <ele>2044.38</ele>
        <time>2013-04-01T07:47:58Z</time>
      </trkpt>
      <trkpt lat="44.82543" lon="6.95109">
        <ele>2046.3</ele>
        <time>2013-04-01T07:48:12Z</time>
      </trkpt>
      <trkpt lat="44.82543" lon="6.95109">
        <ele>2047.75</ele>
        <time>2013-04-01T07:48:32Z</time>
      </trkpt>
      <trkpt lat="44.82552" lon="6.9512">
        <ele>2050.15</ele>
        <time>2013-04-01T07:48:48Z</time>
      </trkpt>
      <trkpt lat="44.82559" lon="6.95126">
        <ele>2052.55</ele>
        <time>2013-04-01T07:49:03Z</time>
      </trkpt>
      <trkpt lat="44.82563" lon="6.95131">
        <ele>2053.99</ele>
        <time>2013-04-01T07:49:20Z</time>
      </trkpt>
      <trkpt lat="44.82563" lon="6.95131">
        <ele>2053.99</ele>
        <time>2013-04-01T07:49:47Z</time>
      </trkpt>
      <trkpt lat="44.82565" lon="6.95136">
        <ele>2054.96</ele>
        <time>2013-04-01T07:50:11Z</time>
      </trkpt>
      <trkpt lat="44.82571" lon="6.95144">
        <ele>2057.36</ele>
        <time>2013-04-01T07:50:25Z</time>
      </trkpt>
      <trkpt lat="44.8257" lon="6.95149">
        <ele>2059.76</ele>
        <time>2013-04-01T07:50:39Z</time>
      </trkpt>
      <trkpt lat="44.82563" lon="6.95152">
        <ele>2061.2</ele>
        <time>2013-04-01T07:50:55Z</time>
      </trkpt>
      <trkpt lat="44.8256" lon="6.95154">
        <ele>2062.17</ele>
        <time>2013-04-01T07:51:06Z</time>
      </trkpt>
      <trkpt lat="44.82555" lon="6.95156">
        <ele>2062.65</ele>
        <time>2013-04-01T07:51:27Z</time>
      </trkpt>
      <trkpt lat="44.82552" lon="6.95158">
        <ele>2064.09</ele>
        <time>2013-04-01T07:51:43Z</time>
      </trkpt>
      <trkpt lat="44.82541" lon="6.95165">
        <ele>2066.01</ele>
        <time>2013-04-01T07:51:57Z</time>
      </trkpt>
      <trkpt lat="44.8254" lon="6.95166">
        <ele>2066.01</ele>
        <time>2013-04-01T07:52:01Z</time>
      </trkpt>
      <trkpt lat="44.82538" lon="6.9517">
        <ele>2068.41</ele>
        <time>2013-04-01T07:52:19Z</time>
      </trkpt>
      <trkpt lat="44.82538" lon="6.9517">
        <ele>2068.89</ele>
        <time>2013-04-01T07:52:37Z</time>
      </trkpt>
      <trkpt lat="44.82526" lon="6.95176">
        <ele>2070.82</ele>
        <time>2013-04-01T07:52:52Z</time>
      </trkpt>
      <trkpt lat="44.82524" lon="6.95182">
        <ele>2071.78</ele>
        <time>2013-04-01T07:53:07Z</time>
      </trkpt>
      <trkpt lat="44.82518" lon="6.95187">
        <ele>2072.74</ele>
        <time>2013-04-01T07:53:25Z</time>
      </trkpt>
      <trkpt lat="44.82509" lon="6.95189">
        <ele>2074.66</ele>
        <time>2013-04-01T07:53:39Z</time>
      </trkpt>
      <trkpt lat="44.82507" lon="6.9519">
        <ele>2075.14</ele>
        <time>2013-04-01T07:53:54Z</time>
      </trkpt>
      <trkpt lat="44.82503" lon="6.95196">
        <ele>2077.55</ele>
        <time>2013-04-01T07:54:12Z</time>
      </trkpt>
      <trkpt lat="44.82502" lon="6.95197">
        <ele>2078.03</ele>
        <time>2013-04-01T07:54:32Z</time>
      </trkpt>
      <trkpt lat="44.82499" lon="6.952">
        <ele>2078.99</ele>
        <time>2013-04-01T07:54:52Z</time>
      </trkpt>
      <trkpt lat="44.82489" lon="6.95208">
        <ele>2080.43</ele>
        <time>2013-04-01T07:55:06Z</time>
      </trkpt>
      <trkpt lat="44.82487" lon="6.9521">
        <ele>2082.35</ele>
        <time>2013-04-01T07:55:22Z</time>
      </trkpt>
      <trkpt lat="44.82485" lon="6.95213">
        <ele>2083.79</ele>
        <time>2013-04-01T07:55:40Z</time>
      </trkpt>
      <trkpt lat="44.82484" lon="6.95217">
        <ele>2085.24</ele>
        <time>2013-04-01T07:55:48Z</time>
      </trkpt>
      <trkpt lat="44.82485" lon="6.95221">
        <ele>2086.2</ele>
        <time>2013-04-01T07:55:55Z</time>
      </trkpt>
      <trkpt lat="44.82495" lon="6.95222">
        <ele>2088.6</ele>
        <time>2013-04-01T07:56:11Z</time>
      </trkpt>
      <trkpt lat="44.82497" lon="6.95225">
        <ele>2091</ele>
        <time>2013-04-01T07:56:25Z</time>
      </trkpt>
      <trkpt lat="44.82497" lon="6.95227">
        <ele>2090.52</ele>
        <time>2013-04-01T07:56:40Z</time>
      </trkpt>
      <trkpt lat="44.82499" lon="6.95231">
        <ele>2091.97</ele>
        <time>2013-04-01T07:57:02Z</time>
      </trkpt>
      <trkpt lat="44.82496" lon="6.9523">
        <ele>2091.49</ele>
        <time>2013-04-01T07:57:17Z</time>
      </trkpt>
      <trkpt lat="44.82494" lon="6.95229">
        <ele>2092.93</ele>
        <time>2013-04-01T07:57:33Z</time>
      </trkpt>
      <trkpt lat="44.82494" lon="6.95229">
        <ele>2092.45</ele>
        <time>2013-04-01T07:57:57Z</time>
      </trkpt>
      <trkpt lat="44.82494" lon="6.95229">
        <ele>2092.93</ele>
        <time>2013-04-01T07:58:25Z</time>
      </trkpt>
      <trkpt lat="44.82493" lon="6.95229">
        <ele>2092.45</ele>
        <time>2013-04-01T07:58:53Z</time>
      </trkpt>
      <trkpt lat="44.82493" lon="6.95229">
        <ele>2087.64</ele>
        <time>2013-04-01T07:59:06Z</time>
      </trkpt>
      <trkpt lat="44.82493" lon="6.95229">
        <ele>2095.81</ele>
        <time>2013-04-01T07:59:07Z</time>
      </trkpt>
      <trkpt lat="44.82493" lon="6.95229">
        <ele>2092.45</ele>
        <time>2013-04-01T07:59:10Z</time>
      </trkpt>
      <trkpt lat="44.82493" lon="6.95229">
        <ele>2098.7</ele>
        <time>2013-04-01T07:59:12Z</time>
      </trkpt>
      <trkpt lat="44.82493" lon="6.95229">
        <ele>2092.93</ele>
        <time>2013-04-01T07:59:13Z</time>
      </trkpt>
      <trkpt lat="44.82493" lon="6.95229">
        <ele>2092.93</ele>
        <time>2013-04-01T07:59:14Z</time>
      </trkpt>
      <trkpt lat="44.82493" lon="6.95229">
        <ele>2093.41</ele>
        <time>2013-04-01T07:59:19Z</time>
      </trkpt>
      <trkpt lat="44.82493" lon="6.9523">
        <ele>2086.68</ele>
        <time>2013-04-01T07:59:35Z</time>
      </trkpt>
      <trkpt lat="44.82493" lon="6.9523">
        <ele>2097.73</ele>
        <time>2013-04-01T07:59:36Z</time>
      </trkpt>
      <trkpt lat="44.82493" lon="6.9523">
        <ele>2094.37</ele>
        <time>2013-04-01T07:59:37Z</time>
      </trkpt>
      <trkpt lat="44.82493" lon="6.95231">
        <ele>2092.45</ele>
        <time>2013-04-01T07:59:39Z</time>
      </trkpt>
      <trkpt lat="44.82493" lon="6.95231">
        <ele>2092.45</ele>
        <time>2013-04-01T08:00:02Z</time>
      </trkpt>
      <trkpt lat="44.82493" lon="6.95231">
        <ele>2092.93</ele>
        <time>2013-04-01T08:00:17Z</time>
      </trkpt>
      <trkpt lat="44.82494" lon="6.9523">
        <ele>2092.93</ele>
        <time>2013-04-01T08:00:42Z</time>
      </trkpt>
      <trkpt lat="44.82494" lon="6.95231">
        <ele>2091.49</ele>
        <time>2013-04-01T08:01:02Z</time>
      </trkpt>
      <trkpt lat="44.82494" lon="6.95231">
        <ele>2092.93</ele>
        <time>2013-04-01T08:01:04Z</time>
      </trkpt>
      <trkpt lat="44.82495" lon="6.95231">
        <ele>2097.25</ele>
        <time>2013-04-01T08:01:23Z</time>
      </trkpt>
      <trkpt lat="44.82495" lon="6.95231">
        <ele>2092.93</ele>
        <time>2013-04-01T08:01:24Z</time>
      </trkpt>
      <trkpt lat="44.82495" lon="6.95231">
        <ele>2092.93</ele>
        <time>2013-04-01T08:01:25Z</time>
      </trkpt>
      <trkpt lat="44.82495" lon="6.95231">
        <ele>2097.73</ele>
        <time>2013-04-01T08:01:29Z</time>
      </trkpt>
      <trkpt lat="44.82495" lon="6.95231">
        <ele>2094.37</ele>
        <time>2013-04-01T08:01:30Z</time>
      </trkpt>
      <trkpt lat="44.82495" lon="6.95231">
        <ele>2093.41</ele>
        <time>2013-04-01T08:01:57Z</time>
      </trkpt>
      <trkpt lat="44.82495" lon="6.95233">
        <ele>2093.89</ele>
        <time>2013-04-01T08:02:19Z</time>
      </trkpt>
      <trkpt lat="44.82493" lon="6.9524">
        <ele>2094.85</ele>
        <time>2013-04-01T08:02:39Z</time>
      </trkpt>
      <trkpt lat="44.8249" lon="6.95247">
        <ele>2097.25</ele>
        <time>2013-04-01T08:02:54Z</time>
      </trkpt>
      <trkpt lat="44.82486" lon="6.9525">
        <ele>2099.66</ele>
        <time>2013-04-01T08:03:08Z</time>
      </trkpt>
      <trkpt lat="44.82483" lon="6.95254">
        <ele>2101.1</ele>
        <time>2013-04-01T08:03:23Z</time>
      </trkpt>
      <trkpt lat="44.82467" lon="6.95263">
        <ele>2103.02</ele>
        <time>2013-04-01T08:03:42Z</time>
      </trkpt>
      <trkpt lat="44.82467" lon="6.95264">
        <ele>2103.98</ele>
        <time>2013-04-01T08:03:53Z</time>
      </trkpt>
      <trkpt lat="44.82464" lon="6.95269">
        <ele>2106.39</ele>
        <time>2013-04-01T08:04:13Z</time>
      </trkpt>
      <trkpt lat="44.82464" lon="6.95269">
        <ele>2107.83</ele>
        <time>2013-04-01T08:04:31Z</time>
      </trkpt>
      <trkpt lat="44.82463" lon="6.95271">
        <ele>2108.79</ele>
        <time>2013-04-01T08:04:39Z</time>
      </trkpt>
      <trkpt lat="44.82465" lon="6.95277">
        <ele>2110.23</ele>
        <time>2013-04-01T08:04:51Z</time>
      </trkpt>
      <trkpt lat="44.82469" lon="6.9528">
        <ele>2111.67</ele>
        <time>2013-04-01T08:05:03Z</time>
      </trkpt>
      <trkpt lat="44.82472" lon="6.95283">
        <ele>2117.92</ele>
        <time>2013-04-01T08:05:15Z</time>
      </trkpt>
      <trkpt lat="44.82472" lon="6.95283">
        <ele>2114.56</ele>
        <time>2013-04-01T08:05:16Z</time>
      </trkpt>
      <trkpt lat="44.82472" lon="6.95283">
        <ele>2106.87</ele>
        <time>2013-04-01T08:05:40Z</time>
      </trkpt>
      <trkpt lat="44.82472" lon="6.95283">
        <ele>2115.04</ele>
        <time>2013-04-01T08:05:41Z</time>
      </trkpt>
      <trkpt lat="44.82473" lon="6.95286">
        <ele>2114.08</ele>
        <time>2013-04-01T08:05:58Z</time>
      </trkpt>
      <trkpt lat="44.8248" lon="6.95295">
        <ele>2116.96</ele>
        <time>2013-04-01T08:06:15Z</time>
      </trkpt>
      <trkpt lat="44.8248" lon="6.95304">
        <ele>2118.88</ele>
        <time>2013-04-01T08:06:28Z</time>
      </trkpt>
      <trkpt lat="44.8248" lon="6.95306">
        <ele>2118.88</ele>
        <time>2013-04-01T08:06:53Z</time>
      </trkpt>
      <trkpt lat="44.82475" lon="6.95313">
        <ele>2121.29</ele>
        <time>2013-04-01T08:07:09Z</time>
      </trkpt>
      <trkpt lat="44.82475" lon="6.95314">
        <ele>2123.69</ele>
        <time>2013-04-01T08:07:26Z</time>
      </trkpt>
      <trkpt lat="44.82472" lon="6.95317">
        <ele>2125.13</ele>
        <time>2013-04-01T08:07:43Z</time>
      </trkpt>
      <trkpt lat="44.82474" lon="6.95322">
        <ele>2126.09</ele>
        <time>2013-04-01T08:08:03Z</time>
      </trkpt>
      <trkpt lat="44.82482" lon="6.9533">
        <ele>2128.02</ele>
        <time>2013-04-01T08:08:19Z</time>
      </trkpt>
      <trkpt lat="44.82484" lon="6.95331">
        <ele>2128.5</ele>
        <time>2013-04-01T08:08:35Z</time>
      </trkpt>
      <trkpt lat="44.82489" lon="6.95338">
        <ele>2129.94</ele>
        <time>2013-04-01T08:08:50Z</time>
      </trkpt>
      <trkpt lat="44.82493" lon="6.95341">
        <ele>2131.86</ele>
        <time>2013-04-01T08:09:06Z</time>
      </trkpt>
      <trkpt lat="44.82493" lon="6.95341">
        <ele>2131.86</ele>
        <time>2013-04-01T08:09:07Z</time>
      </trkpt>
      <trkpt lat="44.82494" lon="6.95344">
        <ele>2133.3</ele>
        <time>2013-04-01T08:09:24Z</time>
      </trkpt>
      <trkpt lat="44.82493" lon="6.95345">
        <ele>2134.26</ele>
        <time>2013-04-01T08:09:53Z</time>
      </trkpt>
      <trkpt lat="44.82484" lon="6.95362">
        <ele>2136.67</ele>
        <time>2013-04-01T08:10:10Z</time>
      </trkpt>
      <trkpt lat="44.82482" lon="6.95365">
        <ele>2137.63</ele>
        <time>2013-04-01T08:10:27Z</time>
      </trkpt>
      <trkpt lat="44.82478" lon="6.95371">
        <ele>2140.03</ele>
        <time>2013-04-01T08:10:46Z</time>
      </trkpt>
      <trkpt lat="44.82479" lon="6.95374">
        <ele>2140.99</ele>
        <time>2013-04-01T08:10:50Z</time>
      </trkpt>
      <trkpt lat="44.82484" lon="6.95378">
        <ele>2141.95</ele>
        <time>2013-04-01T08:11:01Z</time>
      </trkpt>
      <trkpt lat="44.82486" lon="6.95383">
        <ele>2142.92</ele>
        <time>2013-04-01T08:11:20Z</time>
      </trkpt>
      <trkpt lat="44.82487" lon="6.95385">
        <ele>2143.4</ele>
        <time>2013-04-01T08:11:34Z</time>
      </trkpt>
      <trkpt lat="44.82484" lon="6.95407">
        <ele>2146.76</ele>
        <time>2013-04-01T08:11:55Z</time>
      </trkpt>
      <trkpt lat="44.82485" lon="6.95414">
        <ele>2148.2</ele>
        <time>2013-04-01T08:12:11Z</time>
      </trkpt>
      <trkpt lat="44.82486" lon="6.95416">
        <ele>2148.2</ele>
        <time>2013-04-01T08:12:29Z</time>
      </trkpt>
      <trkpt lat="44.82486" lon="6.95429">
        <ele>2150.13</ele>
        <time>2013-04-01T08:12:47Z</time>
      </trkpt>
      <trkpt lat="44.82483" lon="6.95437">
        <ele>2151.57</ele>
        <time>2013-04-01T08:13:06Z</time>
      </trkpt>
      <trkpt lat="44.82484" lon="6.95445">
        <ele>2153.01</ele>
        <time>2013-04-01T08:13:23Z</time>
      </trkpt>
      <trkpt lat="44.82484" lon="6.95451">
        <ele>2155.41</ele>
        <time>2013-04-01T08:13:42Z</time>
      </trkpt>
      <trkpt lat="44.82486" lon="6.95455">
        <ele>2156.37</ele>
        <time>2013-04-01T08:14:02Z</time>
      </trkpt>
      <trkpt lat="44.82487" lon="6.95466">
        <ele>2157.82</ele>
        <time>2013-04-01T08:14:17Z</time>
      </trkpt>
      <trkpt lat="44.82487" lon="6.95465">
        <ele>2159.26</ele>
        <time>2013-04-01T08:14:33Z</time>
      </trkpt>
      <trkpt lat="44.8249" lon="6.95469">
        <ele>2160.22</ele>
        <time>2013-04-01T08:14:45Z</time>
      </trkpt>
      <trkpt lat="44.82491" lon="6.95473">
        <ele>2160.7</ele>
        <time>2013-04-01T08:14:48Z</time>
      </trkpt>
      <trkpt lat="44.82487" lon="6.95485">
        <ele>2162.14</ele>
        <time>2013-04-01T08:15:04Z</time>
      </trkpt>
      <trkpt lat="44.82486" lon="6.95491">
        <ele>2164.06</ele>
        <time>2013-04-01T08:15:20Z</time>
      </trkpt>
      <trkpt lat="44.82485" lon="6.95496">
        <ele>2165.51</ele>
        <time>2013-04-01T08:15:41Z</time>
      </trkpt>
      <trkpt lat="44.82483" lon="6.95501">
        <ele>2167.91</ele>
        <time>2013-04-01T08:15:54Z</time>
      </trkpt>
      <trkpt lat="44.82481" lon="6.95511">
        <ele>2169.35</ele>
        <time>2013-04-01T08:16:18Z</time>
      </trkpt>
      <trkpt lat="44.82478" lon="6.9552">
        <ele>2171.27</ele>
        <time>2013-04-01T08:16:35Z</time>
      </trkpt>
      <trkpt lat="44.82478" lon="6.95526">
        <ele>2172.72</ele>
        <time>2013-04-01T08:16:52Z</time>
      </trkpt>
      <trkpt lat="44.8248" lon="6.95532">
        <ele>2174.64</ele>
        <time>2013-04-01T08:17:07Z</time>
      </trkpt>
      <trkpt lat="44.82481" lon="6.95537">
        <ele>2175.6</ele>
        <time>2013-04-01T08:17:27Z</time>
      </trkpt>
      <trkpt lat="44.82482" lon="6.95547">
        <ele>2177.04</ele>
        <time>2013-04-01T08:17:43Z</time>
      </trkpt>
      <trkpt lat="44.82481" lon="6.95556">
        <ele>2178.48</ele>
        <time>2013-04-01T08:18:00Z</time>
      </trkpt>
      <trkpt lat="44.82483" lon="6.95569">
        <ele>2180.41</ele>
        <time>2013-04-01T08:18:17Z</time>
      </trkpt>
      <trkpt lat="44.82483" lon="6.95579">
        <ele>2182.81</ele>
        <time>2013-04-01T08:18:34Z</time>
      </trkpt>
      <trkpt lat="44.82483" lon="6.9558">
        <ele>2183.29</ele>
        <time>2013-04-01T08:18:53Z</time>
      </trkpt>
      <trkpt lat="44.82483" lon="6.95584">
        <ele>2184.73</ele>
        <time>2013-04-01T08:19:07Z</time>
      </trkpt>
      <trkpt lat="44.82481" lon="6.95604">
        <ele>2186.66</ele>
        <time>2013-04-01T08:19:27Z</time>
      </trkpt>
      <trkpt lat="44.82483" lon="6.95613">
        <ele>2187.62</ele>
        <time>2013-04-01T08:19:38Z</time>
      </trkpt>
      <trkpt lat="44.82483" lon="6.95619">
        <ele>2189.54</ele>
        <time>2013-04-01T08:20:00Z</time>
      </trkpt>
      <trkpt lat="44.82481" lon="6.95621">
        <ele>2191.46</ele>
        <time>2013-04-01T08:20:15Z</time>
      </trkpt>
      <trkpt lat="44.8248" lon="6.95625">
        <ele>2191.46</ele>
        <time>2013-04-01T08:20:32Z</time>
      </trkpt>
      <trkpt lat="44.82478" lon="6.95636">
        <ele>2193.39</ele>
        <time>2013-04-01T08:20:50Z</time>
      </trkpt>
      <trkpt lat="44.82478" lon="6.95636">
        <ele>2193.39</ele>
        <time>2013-04-01T08:21:13Z</time>
      </trkpt>
      <trkpt lat="44.82478" lon="6.95636">
        <ele>2192.9</ele>
        <time>2013-04-01T08:21:36Z</time>
      </trkpt>
      <trkpt lat="44.82478" lon="6.95636">
        <ele>2192.9</ele>
        <time>2013-04-01T08:21:58Z</time>
      </trkpt>
      <trkpt lat="44.82479" lon="6.95642">
        <ele>2192.9</ele>
        <time>2013-04-01T08:22:17Z</time>
      </trkpt>
      <trkpt lat="44.82481" lon="6.95651">
        <ele>2195.79</ele>
        <time>2013-04-01T08:22:31Z</time>
      </trkpt>
      <trkpt lat="44.82488" lon="6.95658">
        <ele>2197.71</ele>
        <time>2013-04-01T08:22:45Z</time>
      </trkpt>
      <trkpt lat="44.82492" lon="6.95659">
        <ele>2199.15</ele>
        <time>2013-04-01T08:22:59Z</time>
      </trkpt>
      <trkpt lat="44.82495" lon="6.95658">
        <ele>2200.59</ele>
        <time>2013-04-01T08:23:15Z</time>
      </trkpt>
      <trkpt lat="44.82496" lon="6.9566">
        <ele>2201.08</ele>
        <time>2013-04-01T08:23:40Z</time>
      </trkpt>
      <trkpt lat="44.82496" lon="6.95667">
        <ele>2203</ele>
        <time>2013-04-01T08:23:54Z</time>
      </trkpt>
      <trkpt lat="44.82499" lon="6.9568">
        <ele>2204.92</ele>
        <time>2013-04-01T08:24:11Z</time>
      </trkpt>
      <trkpt lat="44.82498" lon="6.95683">
        <ele>2205.88</ele>
        <time>2013-04-01T08:24:26Z</time>
      </trkpt>
      <trkpt lat="44.82499" lon="6.95689">
        <ele>2207.81</ele>
        <time>2013-04-01T08:24:44Z</time>
      </trkpt>
      <trkpt lat="44.82498" lon="6.95698">
        <ele>2209.73</ele>
        <time>2013-04-01T08:25:00Z</time>
      </trkpt>
      <trkpt lat="44.82498" lon="6.95699">
        <ele>2210.21</ele>
        <time>2013-04-01T08:25:19Z</time>
      </trkpt>
      <trkpt lat="44.82498" lon="6.95711">
        <ele>2211.65</ele>
        <time>2013-04-01T08:25:35Z</time>
      </trkpt>
      <trkpt lat="44.82497" lon="6.95715">
        <ele>2212.61</ele>
        <time>2013-04-01T08:25:52Z</time>
      </trkpt>
      <trkpt lat="44.82494" lon="6.95723">
        <ele>2215.01</ele>
        <time>2013-04-01T08:26:07Z</time>
      </trkpt>
      <trkpt lat="44.82493" lon="6.95731">
        <ele>2216.46</ele>
        <time>2013-04-01T08:26:22Z</time>
      </trkpt>
      <trkpt lat="44.82492" lon="6.95739">
        <ele>2218.86</ele>
        <time>2013-04-01T08:26:39Z</time>
      </trkpt>
      <trkpt lat="44.82493" lon="6.95742">
        <ele>2220.3</ele>
        <time>2013-04-01T08:26:54Z</time>
      </trkpt>
      <trkpt lat="44.82492" lon="6.95748">
        <ele>2221.26</ele>
        <time>2013-04-01T08:27:19Z</time>
      </trkpt>
      <trkpt lat="44.82491" lon="6.95755">
        <ele>2223.67</ele>
        <time>2013-04-01T08:27:33Z</time>
      </trkpt>
      <trkpt lat="44.8249" lon="6.95755">
        <ele>2222.22</ele>
        <time>2013-04-01T08:27:48Z</time>
      </trkpt>
      <trkpt lat="44.8249" lon="6.95756">
        <ele>2222.22</ele>
        <time>2013-04-01T08:28:22Z</time>
      </trkpt>
      <trkpt lat="44.8249" lon="6.95756">
        <ele>2221.74</ele>
        <time>2013-04-01T08:28:58Z</time>
      </trkpt>
      <trkpt lat="44.8249" lon="6.95756">
        <ele>2221.74</ele>
        <time>2013-04-01T08:29:34Z</time>
      </trkpt>
      <trkpt lat="44.8249" lon="6.95755">
        <ele>2220.78</ele>
        <time>2013-04-01T08:30:12Z</time>
      </trkpt>
      <trkpt lat="44.8249" lon="6.95755">
        <ele>2220.78</ele>
        <time>2013-04-01T08:30:33Z</time>
      </trkpt>
      <trkpt lat="44.8249" lon="6.95755">
        <ele>2220.78</ele>
        <time>2013-04-01T08:31:00Z</time>
      </trkpt>
      <trkpt lat="44.82489" lon="6.95756">
        <ele>2222.22</ele>
        <time>2013-04-01T08:31:15Z</time>
      </trkpt>
      <trkpt lat="44.82489" lon="6.95756">
        <ele>2222.22</ele>
        <time>2013-04-01T08:31:31Z</time>
      </trkpt>
      <trkpt lat="44.82489" lon="6.95756">
        <ele>2220.78</ele>
        <time>2013-04-01T08:31:33Z</time>
      </trkpt>
      <trkpt lat="44.82489" lon="6.95756">
        <ele>2221.74</ele>
        <time>2013-04-01T08:31:35Z</time>
      </trkpt>
      <trkpt lat="44.82489" lon="6.95756">
        <ele>2220.78</ele>
        <time>2013-04-01T08:31:57Z</time>
      </trkpt>
      <trkpt lat="44.82489" lon="6.95756">
        <ele>2225.11</ele>
        <time>2013-04-01T08:31:58Z</time>
      </trkpt>
      <trkpt lat="44.82489" lon="6.95756">
        <ele>2221.26</ele>
        <time>2013-04-01T08:32:01Z</time>
      </trkpt>
      <trkpt lat="44.82489" lon="6.95756">
        <ele>2221.26</ele>
        <time>2013-04-01T08:32:29Z</time>
      </trkpt>
      <trkpt lat="44.82489" lon="6.95756">
        <ele>2223.19</ele>
        <time>2013-04-01T08:32:48Z</time>
      </trkpt>
      <trkpt lat="44.82489" lon="6.95756">
        <ele>2221.26</ele>
        <time>2013-04-01T08:32:51Z</time>
      </trkpt>
      <trkpt lat="44.82489" lon="6.95756">
        <ele>2220.3</ele>
        <time>2013-04-01T08:33:24Z</time>
      </trkpt>
      <trkpt lat="44.8249" lon="6.95757">
        <ele>2221.26</ele>
        <time>2013-04-01T08:33:53Z</time>
      </trkpt>
      <trkpt lat="44.8249" lon="6.95757">
        <ele>2221.74</ele>
        <time>2013-04-01T08:34:17Z</time>
      </trkpt>
      <trkpt lat="44.82489" lon="6.95757">
        <ele>2221.26</ele>
        <time>2013-04-01T08:34:40Z</time>
      </trkpt>
      <trkpt lat="44.82489" lon="6.95756">
        <ele>2221.74</ele>
        <time>2013-04-01T08:35:04Z</time>
      </trkpt>
      <trkpt lat="44.82489" lon="6.95756">
        <ele>2220.78</ele>
        <time>2013-04-01T08:35:23Z</time>
      </trkpt>
      <trkpt lat="44.82489" lon="6.95757">
        <ele>2221.26</ele>
        <time>2013-04-01T08:35:40Z</time>
      </trkpt>
      <trkpt lat="44.82491" lon="6.95757">
        <ele>2221.26</ele>
        <time>2013-04-01T08:36:01Z</time>
      </trkpt>
      <trkpt lat="44.82494" lon="6.95757">
        <ele>2223.19</ele>
        <time>2013-04-01T08:36:14Z</time>
      </trkpt>
      <trkpt lat="44.825" lon="6.95756">
        <ele>2224.63</ele>
        <time>2013-04-01T08:36:28Z</time>
      </trkpt>
      <trkpt lat="44.825" lon="6.9576">
        <ele>2226.07</ele>
        <time>2013-04-01T08:36:42Z</time>
      </trkpt>
      <trkpt lat="44.82501" lon="6.95767">
        <ele>2227.99</ele>
        <time>2013-04-01T08:37:05Z</time>
      </trkpt>
      <trkpt lat="44.82505" lon="6.95764">
        <ele>2229.92</ele>
        <time>2013-04-01T08:37:22Z</time>
      </trkpt>
      <trkpt lat="44.82507" lon="6.95762">
        <ele>2230.88</ele>
        <time>2013-04-01T08:37:39Z</time>
      </trkpt>
      <trkpt lat="44.82514" lon="6.95758">
        <ele>2232.8</ele>
        <time>2013-04-01T08:37:55Z</time>
      </trkpt>
      <trkpt lat="44.82517" lon="6.95757">
        <ele>2234.24</ele>
        <time>2013-04-01T08:38:12Z</time>
      </trkpt>
      <trkpt lat="44.82518" lon="6.95757">
        <ele>2233.76</ele>
        <time>2013-04-01T08:38:43Z</time>
      </trkpt>
      <trkpt lat="44.82519" lon="6.95761">
        <ele>2234.72</ele>
        <time>2013-04-01T08:39:04Z</time>
      </trkpt>
      <trkpt lat="44.82519" lon="6.95776">
        <ele>2238.09</ele>
        <time>2013-04-01T08:39:21Z</time>
      </trkpt>
      <trkpt lat="44.82517" lon="6.95786">
        <ele>2240.01</ele>
        <time>2013-04-01T08:39:36Z</time>
      </trkpt>
      <trkpt lat="44.82516" lon="6.95788">
        <ele>2240.97</ele>
        <time>2013-04-01T08:39:54Z</time>
      </trkpt>
      <trkpt lat="44.82515" lon="6.95798">
        <ele>2243.37</ele>
        <time>2013-04-01T08:40:10Z</time>
      </trkpt>
      <trkpt lat="44.82514" lon="6.95806">
        <ele>2245.3</ele>
        <time>2013-04-01T08:40:27Z</time>
      </trkpt>
      <trkpt lat="44.82516" lon="6.95812">
        <ele>2247.7</ele>
        <time>2013-04-01T08:40:44Z</time>
      </trkpt>
      <trkpt lat="44.82517" lon="6.95812">
        <ele>2248.66</ele>
        <time>2013-04-01T08:41:07Z</time>
      </trkpt>
      <trkpt lat="44.82518" lon="6.95811">
        <ele>2250.1</ele>
        <time>2013-04-01T08:41:26Z</time>
      </trkpt>
      <trkpt lat="44.82523" lon="6.95809">
        <ele>2251.06</ele>
        <time>2013-04-01T08:41:43Z</time>
      </trkpt>
      <trkpt lat="44.82523" lon="6.95809">
        <ele>2252.03</ele>
        <time>2013-04-01T08:42:01Z</time>
      </trkpt>
      <trkpt lat="44.8253" lon="6.9581">
        <ele>2253.47</ele>
        <time>2013-04-01T08:42:11Z</time>
      </trkpt>
      <trkpt lat="44.8253" lon="6.95813">
        <ele>2254.91</ele>
        <time>2013-04-01T08:42:13Z</time>
      </trkpt>
      <trkpt lat="44.82534" lon="6.95818">
        <ele>2256.35</ele>
        <time>2013-04-01T08:42:29Z</time>
      </trkpt>
      <trkpt lat="44.82536" lon="6.95815">
        <ele>2257.79</ele>
        <time>2013-04-01T08:42:50Z</time>
      </trkpt>
      <trkpt lat="44.82541" lon="6.95811">
        <ele>2259.72</ele>
        <time>2013-04-01T08:43:08Z</time>
      </trkpt>
      <trkpt lat="44.82543" lon="6.95813">
        <ele>2260.68</ele>
        <time>2013-04-01T08:43:23Z</time>
      </trkpt>
      <trkpt lat="44.82543" lon="6.9582">
        <ele>2262.12</ele>
        <time>2013-04-01T08:43:46Z</time>
      </trkpt>
      <trkpt lat="44.82542" lon="6.95832">
        <ele>2264.04</ele>
        <time>2013-04-01T08:44:00Z</time>
      </trkpt>
      <trkpt lat="44.82541" lon="6.95839">
        <ele>2266.93</ele>
        <time>2013-04-01T08:44:15Z</time>
      </trkpt>
      <trkpt lat="44.82544" lon="6.95837">
        <ele>2268.85</ele>
        <time>2013-04-01T08:44:33Z</time>
      </trkpt>
      <trkpt lat="44.82545" lon="6.95836">
        <ele>2268.85</ele>
        <time>2013-04-01T08:45:01Z</time>
      </trkpt>
      <trkpt lat="44.82553" lon="6.95828">
        <ele>2271.25</ele>
        <time>2013-04-01T08:45:17Z</time>
      </trkpt>
      <trkpt lat="44.82556" lon="6.95826">
        <ele>2272.69</ele>
        <time>2013-04-01T08:45:34Z</time>
      </trkpt>
      <trkpt lat="44.82564" lon="6.95823">
        <ele>2275.1</ele>
        <time>2013-04-01T08:45:50Z</time>
      </trkpt>
      <trkpt lat="44.82566" lon="6.95822">
        <ele>2275.58</ele>
        <time>2013-04-01T08:46:08Z</time>
      </trkpt>
      <trkpt lat="44.82573" lon="6.95816">
        <ele>2278.46</ele>
        <time>2013-04-01T08:46:24Z</time>
      </trkpt>
      <trkpt lat="44.82579" lon="6.95815">
        <ele>2279.9</ele>
        <time>2013-04-01T08:46:39Z</time>
      </trkpt>
      <trkpt lat="44.82584" lon="6.95817">
        <ele>2279.9</ele>
        <time>2013-04-01T08:46:57Z</time>
      </trkpt>
      <trkpt lat="44.82584" lon="6.95817">
        <ele>2281.35</ele>
        <time>2013-04-01T08:47:14Z</time>
      </trkpt>
      <trkpt lat="44.82584" lon="6.95817">
        <ele>2281.35</ele>
        <time>2013-04-01T08:47:37Z</time>
      </trkpt>
      <trkpt lat="44.82585" lon="6.95817">
        <ele>2281.83</ele>
        <time>2013-04-01T08:47:56Z</time>
      </trkpt>
      <trkpt lat="44.82588" lon="6.95822">
        <ele>2282.31</ele>
        <time>2013-04-01T08:48:04Z</time>
      </trkpt>
      <trkpt lat="44.82589" lon="6.95832">
        <ele>2285.19</ele>
        <time>2013-04-01T08:48:20Z</time>
      </trkpt>
      <trkpt lat="44.82599" lon="6.9583">
        <ele>2287.11</ele>
        <time>2013-04-01T08:48:37Z</time>
      </trkpt>
      <trkpt lat="44.82603" lon="6.9583">
        <ele>2287.59</ele>
        <time>2013-04-01T08:48:51Z</time>
      </trkpt>
      <trkpt lat="44.82604" lon="6.9583">
        <ele>2289.04</ele>
        <time>2013-04-01T08:49:15Z</time>
      </trkpt>
      <trkpt lat="44.82609" lon="6.95831">
        <ele>2289.52</ele>
        <time>2013-04-01T08:49:21Z</time>
      </trkpt>
      <trkpt lat="44.82616" lon="6.95834">
        <ele>2290.48</ele>
        <time>2013-04-01T08:49:36Z</time>
      </trkpt>
      <trkpt lat="44.8262" lon="6.95828">
        <ele>2292.4</ele>
        <time>2013-04-01T08:49:49Z</time>
      </trkpt>
      <trkpt lat="44.8262" lon="6.95828">
        <ele>2291.92</ele>
        <time>2013-04-01T08:50:14Z</time>
      </trkpt>
      <trkpt lat="44.8262" lon="6.95828">
        <ele>2291.92</ele>
        <time>2013-04-01T08:50:37Z</time>
      </trkpt>
      <trkpt lat="44.8262" lon="6.95828">
        <ele>2292.4</ele>
        <time>2013-04-01T08:51:01Z</time>
      </trkpt>
      <trkpt lat="44.82623" lon="6.95829">
        <ele>2292.88</ele>
        <time>2013-04-01T08:51:07Z</time>
      </trkpt>
      <trkpt lat="44.82629" lon="6.95839">
        <ele>2295.77</ele>
        <time>2013-04-01T08:51:25Z</time>
      </trkpt>
      <trkpt lat="44.82632" lon="6.95845">
        <ele>2297.69</ele>
        <time>2013-04-01T08:51:39Z</time>
      </trkpt>
      <trkpt lat="44.82632" lon="6.95845">
        <ele>2297.69</ele>
        <time>2013-04-01T08:51:58Z</time>
      </trkpt>
      <trkpt lat="44.8263" lon="6.95853">
        <ele>2299.13</ele>
        <time>2013-04-01T08:52:17Z</time>
      </trkpt>
      <trkpt lat="44.8263" lon="6.95858">
        <ele>2300.09</ele>
        <time>2013-04-01T08:52:31Z</time>
      </trkpt>
      <trkpt lat="44.8263" lon="6.95858">
        <ele>2300.57</ele>
        <time>2013-04-01T08:53:01Z</time>
      </trkpt>
      <trkpt lat="44.82632" lon="6.95858">
        <ele>2302.01</ele>
        <time>2013-04-01T08:53:15Z</time>
      </trkpt>
      <trkpt lat="44.82639" lon="6.95864">
        <ele>2303.94</ele>
        <time>2013-04-01T08:53:29Z</time>
      </trkpt>
      <trkpt lat="44.82637" lon="6.95875">
        <ele>2305.38</ele>
        <time>2013-04-01T08:53:46Z</time>
      </trkpt>
      <trkpt lat="44.82633" lon="6.95883">
        <ele>2307.78</ele>
        <time>2013-04-01T08:54:00Z</time>
      </trkpt>
      <trkpt lat="44.82632" lon="6.95886">
        <ele>2307.78</ele>
        <time>2013-04-01T08:54:17Z</time>
      </trkpt>
      <trkpt lat="44.82634" lon="6.95892">
        <ele>2309.22</ele>
        <time>2013-04-01T08:54:35Z</time>
      </trkpt>
      <trkpt lat="44.82637" lon="6.95897">
        <ele>2311.15</ele>
        <time>2013-04-01T08:54:50Z</time>
      </trkpt>
      <trkpt lat="44.82641" lon="6.95894">
        <ele>2313.55</ele>
        <time>2013-04-01T08:55:07Z</time>
      </trkpt>
      <trkpt lat="44.82642" lon="6.95893">
        <ele>2314.51</ele>
        <time>2013-04-01T08:55:24Z</time>
      </trkpt>
      <trkpt lat="44.82647" lon="6.95894">
        <ele>2315.47</ele>
        <time>2013-04-01T08:55:41Z</time>
      </trkpt>
      <trkpt lat="44.82651" lon="6.95898">
        <ele>2316.91</ele>
        <time>2013-04-01T08:55:51Z</time>
      </trkpt>
      <trkpt lat="44.82651" lon="6.95904">
        <ele>2318.36</ele>
        <time>2013-04-01T08:56:06Z</time>
      </trkpt>
      <trkpt lat="44.8265" lon="6.9591">
        <ele>2318.84</ele>
        <time>2013-04-01T08:56:23Z</time>
      </trkpt>
      <trkpt lat="44.82653" lon="6.95921">
        <ele>2320.76</ele>
        <time>2013-04-01T08:56:37Z</time>
      </trkpt>
      <trkpt lat="44.82653" lon="6.95927">
        <ele>2323.64</ele>
        <time>2013-04-01T08:56:52Z</time>
      </trkpt>
      <trkpt lat="44.82653" lon="6.95928">
        <ele>2325.09</ele>
        <time>2013-04-01T08:57:06Z</time>
      </trkpt>
      <trkpt lat="44.82653" lon="6.95928">
        <ele>2325.09</ele>
        <time>2013-04-01T08:57:32Z</time>
      </trkpt>
      <trkpt lat="44.82659" lon="6.95939">
        <ele>2326.05</ele>
        <time>2013-04-01T08:57:45Z</time>
      </trkpt>
      <trkpt lat="44.82658" lon="6.95947">
        <ele>2327.97</ele>
        <time>2013-04-01T08:57:58Z</time>
      </trkpt>
      <trkpt lat="44.82657" lon="6.95949">
        <ele>2328.45</ele>
        <time>2013-04-01T08:58:16Z</time>
      </trkpt>
      <trkpt lat="44.82655" lon="6.95952">
        <ele>2329.41</ele>
        <time>2013-04-01T08:58:44Z</time>
      </trkpt>
      <trkpt lat="44.8265" lon="6.95955">
        <ele>2330.85</ele>
        <time>2013-04-01T08:59:00Z</time>
      </trkpt>
      <trkpt lat="44.82649" lon="6.95955">
        <ele>2331.81</ele>
        <time>2013-04-01T08:59:09Z</time>
      </trkpt>
      <trkpt lat="44.82642" lon="6.95959">
        <ele>2334.7</ele>
        <time>2013-04-01T08:59:24Z</time>
      </trkpt>
      <trkpt lat="44.8264" lon="6.95961">
        <ele>2334.7</ele>
        <time>2013-04-01T08:59:40Z</time>
      </trkpt>
      <trkpt lat="44.82635" lon="6.95965">
        <ele>2336.62</ele>
        <time>2013-04-01T08:59:54Z</time>
      </trkpt>
      <trkpt lat="44.82631" lon="6.95971">
        <ele>2338.54</ele>
        <time>2013-04-01T09:00:10Z</time>
      </trkpt>
      <trkpt lat="44.82627" lon="6.95977">
        <ele>2339.51</ele>
        <time>2013-04-01T09:00:30Z</time>
      </trkpt>
      <trkpt lat="44.82625" lon="6.95979">
        <ele>2340.47</ele>
        <time>2013-04-01T09:00:47Z</time>
      </trkpt>
      <trkpt lat="44.8262" lon="6.95986">
        <ele>2343.35</ele>
        <time>2013-04-01T09:01:01Z</time>
      </trkpt>
      <trkpt lat="44.82621" lon="6.95987">
        <ele>2344.31</ele>
        <time>2013-04-01T09:01:16Z</time>
      </trkpt>
      <trkpt lat="44.82623" lon="6.95988">
        <ele>2344.79</ele>
        <time>2013-04-01T09:01:43Z</time>
      </trkpt>
      <trkpt lat="44.8263" lon="6.9599">
        <ele>2346.72</ele>
        <time>2013-04-01T09:01:56Z</time>
      </trkpt>
      <trkpt lat="44.82634" lon="6.95989">
        <ele>2347.68</ele>
        <time>2013-04-01T09:02:09Z</time>
      </trkpt>
      <trkpt lat="44.82638" lon="6.95991">
        <ele>2349.6</ele>
        <time>2013-04-01T09:02:21Z</time>
      </trkpt>
      <trkpt lat="44.82641" lon="6.95994">
        <ele>2351.04</ele>
        <time>2013-04-01T09:02:44Z</time>
      </trkpt>
      <trkpt lat="44.82647" lon="6.96">
        <ele>2352.48</ele>
        <time>2013-04-01T09:02:59Z</time>
      </trkpt>
      <trkpt lat="44.82649" lon="6.96004">
        <ele>2353.44</ele>
        <time>2013-04-01T09:03:15Z</time>
      </trkpt>
      <trkpt lat="44.82647" lon="6.96011">
        <ele>2355.37</ele>
        <time>2013-04-01T09:03:33Z</time>
      </trkpt>
      <trkpt lat="44.82644" lon="6.96014">
        <ele>2356.81</ele>
        <time>2013-04-01T09:03:47Z</time>
      </trkpt>
      <trkpt lat="44.8264" lon="6.9602">
        <ele>2358.73</ele>
        <time>2013-04-01T09:04:03Z</time>
      </trkpt>
      <trkpt lat="44.82639" lon="6.96022">
        <ele>2359.21</ele>
        <time>2013-04-01T09:04:20Z</time>
      </trkpt>
      <trkpt lat="44.82637" lon="6.96031">
        <ele>2361.14</ele>
        <time>2013-04-01T09:04:34Z</time>
      </trkpt>
      <trkpt lat="44.82637" lon="6.96031">
        <ele>2360.65</ele>
        <time>2013-04-01T09:04:56Z</time>
      </trkpt>
      <trkpt lat="44.82637" lon="6.96034">
        <ele>2361.62</ele>
        <time>2013-04-01T09:05:14Z</time>
      </trkpt>
      <trkpt lat="44.82641" lon="6.96041">
        <ele>2363.54</ele>
        <time>2013-04-01T09:05:27Z</time>
      </trkpt>
      <trkpt lat="44.82645" lon="6.96051">
        <ele>2364.98</ele>
        <time>2013-04-01T09:05:41Z</time>
      </trkpt>
      <trkpt lat="44.82646" lon="6.96055">
        <ele>2365.46</ele>
        <time>2013-04-01T09:05:59Z</time>
      </trkpt>
      <trkpt lat="44.82647" lon="6.96067">
        <ele>2368.35</ele>
        <time>2013-04-01T09:06:16Z</time>
      </trkpt>
      <trkpt lat="44.82646" lon="6.96074">
        <ele>2369.31</ele>
        <time>2013-04-01T09:06:30Z</time>
      </trkpt>
      <trkpt lat="44.82645" lon="6.96075">
        <ele>2370.75</ele>
        <time>2013-04-01T09:06:50Z</time>
      </trkpt>
      <trkpt lat="44.8265" lon="6.96079">
        <ele>2372.67</ele>
        <time>2013-04-01T09:07:05Z</time>
      </trkpt>
      <trkpt lat="44.82656" lon="6.96086">
        <ele>2374.11</ele>
        <time>2013-04-01T09:07:18Z</time>
      </trkpt>
      <trkpt lat="44.82658" lon="6.96088">
        <ele>2375.07</ele>
        <time>2013-04-01T09:07:38Z</time>
      </trkpt>
      <trkpt lat="44.82662" lon="6.96092">
        <ele>2377</ele>
        <time>2013-04-01T09:07:53Z</time>
      </trkpt>
      <trkpt lat="44.82665" lon="6.96097">
        <ele>2377.96</ele>
        <time>2013-04-01T09:08:06Z</time>
      </trkpt>
      <trkpt lat="44.82661" lon="6.96104">
        <ele>2379.88</ele>
        <time>2013-04-01T09:08:21Z</time>
      </trkpt>
      <trkpt lat="44.82659" lon="6.96107">
        <ele>2380.36</ele>
        <time>2013-04-01T09:08:36Z</time>
      </trkpt>
      <trkpt lat="44.82659" lon="6.96108">
        <ele>2381.32</ele>
        <time>2013-04-01T09:09:04Z</time>
      </trkpt>
      <trkpt lat="44.82654" lon="6.96118">
        <ele>2383.73</ele>
        <time>2013-04-01T09:09:19Z</time>
      </trkpt>
      <trkpt lat="44.82652" lon="6.96126">
        <ele>2383.73</ele>
        <time>2013-04-01T09:09:36Z</time>
      </trkpt>
      <trkpt lat="44.82647" lon="6.96133">
        <ele>2385.65</ele>
        <time>2013-04-01T09:09:51Z</time>
      </trkpt>
      <trkpt lat="44.82644" lon="6.96135">
        <ele>2387.09</ele>
        <time>2013-04-01T09:10:07Z</time>
      </trkpt>
      <trkpt lat="44.82641" lon="6.96138">
        <ele>2388.53</ele>
        <time>2013-04-01T09:10:21Z</time>
      </trkpt>
      <trkpt lat="44.82636" lon="6.96148">
        <ele>2390.94</ele>
        <time>2013-04-01T09:10:38Z</time>
      </trkpt>
      <trkpt lat="44.82636" lon="6.96148">
        <ele>2390.46</ele>
        <time>2013-04-01T09:11:02Z</time>
      </trkpt>
      <trkpt lat="44.82631" lon="6.96154">
        <ele>2391.42</ele>
        <time>2013-04-01T09:11:18Z</time>
      </trkpt>
      <trkpt lat="44.82623" lon="6.9616">
        <ele>2393.34</ele>
        <time>2013-04-01T09:11:32Z</time>
      </trkpt>
      <trkpt lat="44.82621" lon="6.96163">
        <ele>2394.78</ele>
        <time>2013-04-01T09:11:51Z</time>
      </trkpt>
      <trkpt lat="44.82614" lon="6.96166">
        <ele>2396.7</ele>
        <time>2013-04-01T09:12:05Z</time>
      </trkpt>
      <trkpt lat="44.82608" lon="6.96171">
        <ele>2398.15</ele>
        <time>2013-04-01T09:12:20Z</time>
      </trkpt>
      <trkpt lat="44.82607" lon="6.96172">
        <ele>2398.63</ele>
        <time>2013-04-01T09:12:37Z</time>
      </trkpt>
      <trkpt lat="44.82606" lon="6.96172">
        <ele>2398.63</ele>
        <time>2013-04-01T09:13:01Z</time>
      </trkpt>
      <trkpt lat="44.82602" lon="6.96183">
        <ele>2401.03</ele>
        <time>2013-04-01T09:13:15Z</time>
      </trkpt>
      <trkpt lat="44.826" lon="6.96192">
        <ele>2402.95</ele>
        <time>2013-04-01T09:13:31Z</time>
      </trkpt>
      <trkpt lat="44.826" lon="6.96192">
        <ele>2402.95</ele>
        <time>2013-04-01T09:13:52Z</time>
      </trkpt>
      <trkpt lat="44.82598" lon="6.962">
        <ele>2404.39</ele>
        <time>2013-04-01T09:14:15Z</time>
      </trkpt>
      <trkpt lat="44.82597" lon="6.96212">
        <ele>2406.32</ele>
        <time>2013-04-01T09:14:30Z</time>
      </trkpt>
      <trkpt lat="44.82596" lon="6.9622">
        <ele>2407.28</ele>
        <time>2013-04-01T09:14:45Z</time>
      </trkpt>
      <trkpt lat="44.82594" lon="6.96223">
        <ele>2407.76</ele>
        <time>2013-04-01T09:15:03Z</time>
      </trkpt>
      <trkpt lat="44.82591" lon="6.96229">
        <ele>2409.68</ele>
        <time>2013-04-01T09:15:19Z</time>
      </trkpt>
      <trkpt lat="44.82591" lon="6.96229">
        <ele>2409.2</ele>
        <time>2013-04-01T09:15:46Z</time>
      </trkpt>
      <trkpt lat="44.82591" lon="6.96229">
        <ele>2409.2</ele>
        <time>2013-04-01T09:16:13Z</time>
      </trkpt>
      <trkpt lat="44.82589" lon="6.96232">
        <ele>2409.68</ele>
        <time>2013-04-01T09:16:39Z</time>
      </trkpt>
      <trkpt lat="44.82589" lon="6.96243">
        <ele>2411.6</ele>
        <time>2013-04-01T09:16:53Z</time>
      </trkpt>
      <trkpt lat="44.82584" lon="6.96253">
        <ele>2413.53</ele>
        <time>2013-04-01T09:17:08Z</time>
      </trkpt>
      <trkpt lat="44.82583" lon="6.96258">
        <ele>2414.49</ele>
        <time>2013-04-01T09:17:26Z</time>
      </trkpt>
      <trkpt lat="44.8258" lon="6.96267">
        <ele>2416.41</ele>
        <time>2013-04-01T09:17:45Z</time>
      </trkpt>
      <trkpt lat="44.82578" lon="6.96272">
        <ele>2417.37</ele>
        <time>2013-04-01T09:18:00Z</time>
      </trkpt>
      <trkpt lat="44.82576" lon="6.96279">
        <ele>2419.78</ele>
        <time>2013-04-01T09:18:16Z</time>
      </trkpt>
      <trkpt lat="44.82575" lon="6.96285">
        <ele>2420.26</ele>
        <time>2013-04-01T09:18:32Z</time>
      </trkpt>
      <trkpt lat="44.82572" lon="6.96294">
        <ele>2422.66</ele>
        <time>2013-04-01T09:18:48Z</time>
      </trkpt>
      <trkpt lat="44.82571" lon="6.96298">
        <ele>2422.66</ele>
        <time>2013-04-01T09:19:06Z</time>
      </trkpt>
      <trkpt lat="44.82568" lon="6.96309">
        <ele>2425.54</ele>
        <time>2013-04-01T09:19:25Z</time>
      </trkpt>
      <trkpt lat="44.82567" lon="6.96312">
        <ele>2426.99</ele>
        <time>2013-04-01T09:19:40Z</time>
      </trkpt>
      <trkpt lat="44.82565" lon="6.96319">
        <ele>2427.47</ele>
        <time>2013-04-01T09:20:07Z</time>
      </trkpt>
      <trkpt lat="44.82561" lon="6.96329">
        <ele>2429.39</ele>
        <time>2013-04-01T09:20:21Z</time>
      </trkpt>
      <trkpt lat="44.82557" lon="6.96339">
        <ele>2431.31</ele>
        <time>2013-04-01T09:20:38Z</time>
      </trkpt>
      <trkpt lat="44.82556" lon="6.96343">
        <ele>2432.75</ele>
        <time>2013-04-01T09:21:03Z</time>
      </trkpt>
      <trkpt lat="44.82553" lon="6.96353">
        <ele>2434.2</ele>
        <time>2013-04-01T09:21:18Z</time>
      </trkpt>
      <trkpt lat="44.82552" lon="6.96356">
        <ele>2435.64</ele>
        <time>2013-04-01T09:21:35Z</time>
      </trkpt>
      <trkpt lat="44.8255" lon="6.96363">
        <ele>2438.04</ele>
        <time>2013-04-01T09:21:52Z</time>
      </trkpt>
      <trkpt lat="44.82548" lon="6.9637">
        <ele>2439.48</ele>
        <time>2013-04-01T09:22:08Z</time>
      </trkpt>
      <trkpt lat="44.82546" lon="6.96375">
        <ele>2441.41</ele>
        <time>2013-04-01T09:22:28Z</time>
      </trkpt>
      <trkpt lat="44.82545" lon="6.96378">
        <ele>2442.37</ele>
        <time>2013-04-01T09:22:49Z</time>
      </trkpt>
      <trkpt lat="44.82542" lon="6.96387">
        <ele>2444.77</ele>
        <time>2013-04-01T09:23:05Z</time>
      </trkpt>
      <trkpt lat="44.82539" lon="6.96397">
        <ele>2446.21</ele>
        <time>2013-04-01T09:23:20Z</time>
      </trkpt>
      <trkpt lat="44.82538" lon="6.96401">
        <ele>2447.65</ele>
        <time>2013-04-01T09:23:37Z</time>
      </trkpt>
      <trkpt lat="44.82537" lon="6.96407">
        <ele>2449.1</ele>
        <time>2013-04-01T09:23:53Z</time>
      </trkpt>
      <trkpt lat="44.82536" lon="6.96415">
        <ele>2450.54</ele>
        <time>2013-04-01T09:24:07Z</time>
      </trkpt>
      <trkpt lat="44.82534" lon="6.96418">
        <ele>2451.5</ele>
        <time>2013-04-01T09:24:28Z</time>
      </trkpt>
      <trkpt lat="44.82536" lon="6.96425">
        <ele>2452.94</ele>
        <time>2013-04-01T09:24:42Z</time>
      </trkpt>
      <trkpt lat="44.82539" lon="6.96429">
        <ele>2454.86</ele>
        <time>2013-04-01T09:24:59Z</time>
      </trkpt>
      <trkpt lat="44.8254" lon="6.96437">
        <ele>2455.82</ele>
        <time>2013-04-01T09:25:20Z</time>
      </trkpt>
      <trkpt lat="44.82539" lon="6.96444">
        <ele>2457.75</ele>
        <time>2013-04-01T09:25:35Z</time>
      </trkpt>
      <trkpt lat="44.82539" lon="6.96447">
        <ele>2457.75</ele>
        <time>2013-04-01T09:25:51Z</time>
      </trkpt>
      <trkpt lat="44.82538" lon="6.96457">
        <ele>2459.67</ele>
        <time>2013-04-01T09:26:06Z</time>
      </trkpt>
      <trkpt lat="44.82538" lon="6.96461">
        <ele>2461.11</ele>
        <time>2013-04-01T09:26:20Z</time>
      </trkpt>
      <trkpt lat="44.82541" lon="6.96463">
        <ele>2463.04</ele>
        <time>2013-04-01T09:26:46Z</time>
      </trkpt>
      <trkpt lat="44.82547" lon="6.96468">
        <ele>2464.48</ele>
        <time>2013-04-01T09:26:58Z</time>
      </trkpt>
      <trkpt lat="44.82548" lon="6.9647">
        <ele>2465.44</ele>
        <time>2013-04-01T09:27:13Z</time>
      </trkpt>
      <trkpt lat="44.82555" lon="6.96469">
        <ele>2467.36</ele>
        <time>2013-04-01T09:27:26Z</time>
      </trkpt>
      <trkpt lat="44.82559" lon="6.96468">
        <ele>2467.84</ele>
        <time>2013-04-01T09:27:44Z</time>
      </trkpt>
      <trkpt lat="44.82567" lon="6.9647">
        <ele>2469.76</ele>
        <time>2013-04-01T09:27:59Z</time>
      </trkpt>
      <trkpt lat="44.82571" lon="6.96473">
        <ele>2471.21</ele>
        <time>2013-04-01T09:28:13Z</time>
      </trkpt>
      <trkpt lat="44.82572" lon="6.96474">
        <ele>2471.69</ele>
        <time>2013-04-01T09:28:31Z</time>
      </trkpt>
      <trkpt lat="44.82575" lon="6.96481">
        <ele>2473.13</ele>
        <time>2013-04-01T09:28:50Z</time>
      </trkpt>
      <trkpt lat="44.82577" lon="6.96486">
        <ele>2473.61</ele>
        <time>2013-04-01T09:29:05Z</time>
      </trkpt>
      <trkpt lat="44.82578" lon="6.96495">
        <ele>2475.53</ele>
        <time>2013-04-01T09:29:18Z</time>
      </trkpt>
      <trkpt lat="44.82578" lon="6.96503">
        <ele>2476.97</ele>
        <time>2013-04-01T09:29:34Z</time>
      </trkpt>
      <trkpt lat="44.82578" lon="6.96508">
        <ele>2477.45</ele>
        <time>2013-04-01T09:29:55Z</time>
      </trkpt>
      <trkpt lat="44.82575" lon="6.96517">
        <ele>2479.38</ele>
        <time>2013-04-01T09:30:09Z</time>
      </trkpt>
      <trkpt lat="44.82574" lon="6.96521">
        <ele>2479.38</ele>
        <time>2013-04-01T09:30:24Z</time>
      </trkpt>
      <trkpt lat="44.82572" lon="6.96529">
        <ele>2480.82</ele>
        <time>2013-04-01T09:30:40Z</time>
      </trkpt>
      <trkpt lat="44.82571" lon="6.96539">
        <ele>2481.78</ele>
        <time>2013-04-01T09:30:54Z</time>
      </trkpt>
      <trkpt lat="44.8257" lon="6.96542">
        <ele>2482.26</ele>
        <time>2013-04-01T09:31:16Z</time>
      </trkpt>
      <trkpt lat="44.82567" lon="6.96554">
        <ele>2483.7</ele>
        <time>2013-04-01T09:31:32Z</time>
      </trkpt>
      <trkpt lat="44.82567" lon="6.96559">
        <ele>2484.18</ele>
        <time>2013-04-01T09:31:49Z</time>
      </trkpt>
      <trkpt lat="44.82567" lon="6.96561">
        <ele>2484.66</ele>
        <time>2013-04-01T09:32:08Z</time>
      </trkpt>
      <trkpt lat="44.82563" lon="6.96572">
        <ele>2486.59</ele>
        <time>2013-04-01T09:32:23Z</time>
      </trkpt>
      <trkpt lat="44.82563" lon="6.96583">
        <ele>2488.03</ele>
        <time>2013-04-01T09:32:37Z</time>
      </trkpt>
      <trkpt lat="44.82563" lon="6.96586">
        <ele>2488.03</ele>
        <time>2013-04-01T09:32:55Z</time>
      </trkpt>
      <trkpt lat="44.82562" lon="6.96592">
        <ele>2489.95</ele>
        <time>2013-04-01T09:33:11Z</time>
      </trkpt>
      <trkpt lat="44.82561" lon="6.966">
        <ele>2492.36</ele>
        <time>2013-04-01T09:33:27Z</time>
      </trkpt>
      <trkpt lat="44.8256" lon="6.96605">
        <ele>2492.84</ele>
        <time>2013-04-01T09:33:42Z</time>
      </trkpt>
      <trkpt lat="44.82562" lon="6.96609">
        <ele>2494.28</ele>
        <time>2013-04-01T09:34:05Z</time>
      </trkpt>
      <trkpt lat="44.82562" lon="6.96616">
        <ele>2496.2</ele>
        <time>2013-04-01T09:34:21Z</time>
      </trkpt>
      <trkpt lat="44.82562" lon="6.9662">
        <ele>2496.2</ele>
        <time>2013-04-01T09:34:42Z</time>
      </trkpt>
      <trkpt lat="44.82563" lon="6.96631">
        <ele>2497.64</ele>
        <time>2013-04-01T09:34:57Z</time>
      </trkpt>
      <trkpt lat="44.82564" lon="6.96632">
        <ele>2498.6</ele>
        <time>2013-04-01T09:35:13Z</time>
      </trkpt>
      <trkpt lat="44.82564" lon="6.96632">
        <ele>2498.6</ele>
        <time>2013-04-01T09:35:36Z</time>
      </trkpt>
      <trkpt lat="44.82564" lon="6.96634">
        <ele>2498.12</ele>
        <time>2013-04-01T09:36:02Z</time>
      </trkpt>
      <trkpt lat="44.82566" lon="6.96643">
        <ele>2499.57</ele>
        <time>2013-04-01T09:36:15Z</time>
      </trkpt>
      <trkpt lat="44.82563" lon="6.96646">
        <ele>2501.49</ele>
        <time>2013-04-01T09:36:31Z</time>
      </trkpt>
      <trkpt lat="44.8256" lon="6.96647">
        <ele>2502.45</ele>
        <time>2013-04-01T09:36:52Z</time>
      </trkpt>
      <trkpt lat="44.82558" lon="6.96647">
        <ele>2502.45</ele>
        <time>2013-04-01T09:37:10Z</time>
      </trkpt>
      <trkpt lat="44.82558" lon="6.96647">
        <ele>2502.45</ele>
        <time>2013-04-01T09:37:29Z</time>
      </trkpt>
      <trkpt lat="44.82558" lon="6.96647">
        <ele>2502.93</ele>
        <time>2013-04-01T09:37:55Z</time>
      </trkpt>
      <trkpt lat="44.82556" lon="6.96652">
        <ele>2503.41</ele>
        <time>2013-04-01T09:38:11Z</time>
      </trkpt>
      <trkpt lat="44.82552" lon="6.96654">
        <ele>2504.85</ele>
        <time>2013-04-01T09:38:29Z</time>
      </trkpt>
      <trkpt lat="44.82552" lon="6.96663">
        <ele>2506.77</ele>
        <time>2013-04-01T09:38:46Z</time>
      </trkpt>
      <trkpt lat="44.82553" lon="6.96671">
        <ele>2508.7</ele>
        <time>2013-04-01T09:39:01Z</time>
      </trkpt>
      <trkpt lat="44.82554" lon="6.96676">
        <ele>2510.14</ele>
        <time>2013-04-01T09:39:19Z</time>
      </trkpt>
      <trkpt lat="44.82554" lon="6.9668">
        <ele>2510.62</ele>
        <time>2013-04-01T09:39:36Z</time>
      </trkpt>
      <trkpt lat="44.82554" lon="6.96688">
        <ele>2512.06</ele>
        <time>2013-04-01T09:39:57Z</time>
      </trkpt>
      <trkpt lat="44.82554" lon="6.96694">
        <ele>2513.98</ele>
        <time>2013-04-01T09:40:11Z</time>
      </trkpt>
      <trkpt lat="44.82555" lon="6.96697">
        <ele>2514.47</ele>
        <time>2013-04-01T09:40:31Z</time>
      </trkpt>
      <trkpt lat="44.82555" lon="6.96697">
        <ele>2513.98</ele>
        <time>2013-04-01T09:40:55Z</time>
      </trkpt>
      <trkpt lat="44.82554" lon="6.96704">
        <ele>2514.47</ele>
        <time>2013-04-01T09:41:15Z</time>
      </trkpt>
      <trkpt lat="44.82552" lon="6.96717">
        <ele>2516.39</ele>
        <time>2013-04-01T09:41:29Z</time>
      </trkpt>
      <trkpt lat="44.82549" lon="6.96729">
        <ele>2517.83</ele>
        <time>2013-04-01T09:41:45Z</time>
      </trkpt>
      <trkpt lat="44.82547" lon="6.96733">
        <ele>2519.27</ele>
        <time>2013-04-01T09:42:07Z</time>
      </trkpt>
      <trkpt lat="44.82546" lon="6.96737">
        <ele>2519.75</ele>
        <time>2013-04-01T09:42:22Z</time>
      </trkpt>
      <trkpt lat="44.82542" lon="6.96746">
        <ele>2521.68</ele>
        <time>2013-04-01T09:42:36Z</time>
      </trkpt>
      <trkpt lat="44.82475" lon="6.97146">
        <ele>2657.22</ele>
        <time>2013-04-01T10:05:58Z</time>
      </trkpt>
      <trkpt lat="44.82476" lon="6.97147">
        <ele>2656.74</ele>
        <time>2013-04-01T10:05:59Z</time>
      </trkpt>
      <trkpt lat="44.8247" lon="6.9714">
        <ele>2653.38</ele>
        <time>2013-04-01T10:06:05Z</time>
      </trkpt>
      <trkpt lat="44.8247" lon="6.9714">
        <ele>2650.49</ele>
        <time>2013-04-01T10:06:09Z</time>
      </trkpt>
      <trkpt lat="44.8247" lon="6.97139">
        <ele>2648.09</ele>
        <time>2013-04-01T10:06:12Z</time>
      </trkpt>
      <trkpt lat="44.82469" lon="6.97139">
        <ele>2644.72</ele>
        <time>2013-04-01T10:06:15Z</time>
      </trkpt>
      <trkpt lat="44.82469" lon="6.9714">
        <ele>2645.21</ele>
        <time>2013-04-01T10:06:16Z</time>
      </trkpt>
      <trkpt lat="44.82468" lon="6.97139">
        <ele>2641.84</ele>
        <time>2013-04-01T10:06:21Z</time>
      </trkpt>
      <trkpt lat="44.82468" lon="6.97139">
        <ele>2640.88</ele>
        <time>2013-04-01T10:06:23Z</time>
      </trkpt>
      <trkpt lat="44.82468" lon="6.97138">
        <ele>2637.51</ele>
        <time>2013-04-01T10:06:30Z</time>
      </trkpt>
      <trkpt lat="44.82468" lon="6.97139">
        <ele>2636.55</ele>
        <time>2013-04-01T10:06:32Z</time>
      </trkpt>
      <trkpt lat="44.82469" lon="6.97139">
        <ele>2634.63</ele>
        <time>2013-04-01T10:06:37Z</time>
      </trkpt>
      <trkpt lat="44.8247" lon="6.9714">
        <ele>2633.19</ele>
        <time>2013-04-01T10:06:39Z</time>
      </trkpt>
      <trkpt lat="44.8247" lon="6.97141">
        <ele>2630.3</ele>
        <time>2013-04-01T10:06:45Z</time>
      </trkpt>
      <trkpt lat="44.8247" lon="6.97141">
        <ele>2633.67</ele>
        <time>2013-04-01T10:06:52Z</time>
      </trkpt>
      <trkpt lat="44.8247" lon="6.9714">
        <ele>2632.23</ele>
        <time>2013-04-01T10:06:53Z</time>
      </trkpt>
      <trkpt lat="44.8247" lon="6.9714">
        <ele>2627.42</ele>
        <time>2013-04-01T10:06:54Z</time>
      </trkpt>
      <trkpt lat="44.8247" lon="6.9714">
        <ele>2630.3</ele>
        <time>2013-04-01T10:06:55Z</time>
      </trkpt>
      <trkpt lat="44.8247" lon="6.9714">
        <ele>2628.86</ele>
        <time>2013-04-01T10:06:58Z</time>
      </trkpt>
      <trkpt lat="44.8247" lon="6.9714">
        <ele>2626.46</ele>
        <time>2013-04-01T10:07:03Z</time>
      </trkpt>
      <trkpt lat="44.82469" lon="6.97139">
        <ele>2622.61</ele>
        <time>2013-04-01T10:07:14Z</time>
      </trkpt>
      <trkpt lat="44.82469" lon="6.97139">
        <ele>2626.46</ele>
        <time>2013-04-01T10:07:15Z</time>
      </trkpt>
      <trkpt lat="44.82469" lon="6.9714">
        <ele>2620.69</ele>
        <time>2013-04-01T10:07:16Z</time>
      </trkpt>
      <trkpt lat="44.82469" lon="6.9714">
        <ele>2626.94</ele>
        <time>2013-04-01T10:07:17Z</time>
      </trkpt>
      <trkpt lat="44.82469" lon="6.9714">
        <ele>2625.5</ele>
        <time>2013-04-01T10:07:25Z</time>
      </trkpt>
      <trkpt lat="44.82472" lon="6.97143">
        <ele>2625.02</ele>
        <time>2013-04-01T10:07:41Z</time>
      </trkpt>
      <trkpt lat="44.82472" lon="6.97143">
        <ele>2625.02</ele>
        <time>2013-04-01T10:08:11Z</time>
      </trkpt>
      <trkpt lat="44.82471" lon="6.97142">
        <ele>2625.02</ele>
        <time>2013-04-01T10:08:54Z</time>
      </trkpt>
      <trkpt lat="44.8247" lon="6.97138">
        <ele>2624.54</ele>
        <time>2013-04-01T10:09:43Z</time>
      </trkpt>
      <trkpt lat="44.8247" lon="6.97137">
        <ele>2623.58</ele>
        <time>2013-04-01T10:10:23Z</time>
      </trkpt>
      <trkpt lat="44.8247" lon="6.97137">
        <ele>2623.58</ele>
        <time>2013-04-01T10:10:59Z</time>
      </trkpt>
      <trkpt lat="44.8247" lon="6.97137">
        <ele>2623.58</ele>
        <time>2013-04-01T10:11:21Z</time>
      </trkpt>
      <trkpt lat="44.8247" lon="6.97137">
        <ele>2624.06</ele>
        <time>2013-04-01T10:11:47Z</time>
      </trkpt>
      <trkpt lat="44.8247" lon="6.97137">
        <ele>2623.09</ele>
        <time>2013-04-01T10:12:08Z</time>
      </trkpt>
      <trkpt lat="44.8247" lon="6.97137">
        <ele>2623.09</ele>
        <time>2013-04-01T10:12:55Z</time>
      </trkpt>
      <trkpt lat="44.8247" lon="6.97137">
        <ele>2622.61</ele>
        <time>2013-04-01T10:13:47Z</time>
      </trkpt>
      <trkpt lat="44.8247" lon="6.97137">
        <ele>2623.09</ele>
        <time>2013-04-01T10:14:38Z</time>
      </trkpt>
      <trkpt lat="44.8247" lon="6.97137">
        <ele>2621.65</ele>
        <time>2013-04-01T10:15:28Z</time>
      </trkpt>
      <trkpt lat="44.8247" lon="6.97137">
        <ele>2622.61</ele>
        <time>2013-04-01T10:16:15Z</time>
      </trkpt>
      <trkpt lat="44.8247" lon="6.97137">
        <ele>2623.09</ele>
        <time>2013-04-01T10:16:58Z</time>
      </trkpt>
      <trkpt lat="44.8247" lon="6.97137">
        <ele>2622.13</ele>
        <time>2013-04-01T10:17:47Z</time>
      </trkpt>
      <trkpt lat="44.8247" lon="6.97137">
        <ele>2622.13</ele>
        <time>2013-04-01T10:18:38Z</time>
      </trkpt>
      <trkpt lat="44.8247" lon="6.97137">
        <ele>2622.61</ele>
        <time>2013-04-01T10:19:30Z</time>
      </trkpt>
      <trkpt lat="44.8247" lon="6.97137">
        <ele>2622.61</ele>
        <time>2013-04-01T10:20:17Z</time>
      </trkpt>
      <trkpt lat="44.8247" lon="6.97137">
        <ele>2622.13</ele>
        <time>2013-04-01T10:21:05Z</time>
      </trkpt>
      <trkpt lat="44.8247" lon="6.97137">
        <ele>2622.13</ele>
        <time>2013-04-01T10:21:50Z</time>
      </trkpt>
      <trkpt lat="44.8247" lon="6.97138">
        <ele>2621.17</ele>
        <time>2013-04-01T10:22:32Z</time>
      </trkpt>
      <trkpt lat="44.82471" lon="6.97138">
        <ele>2621.65</ele>
        <time>2013-04-01T10:23:14Z</time>
      </trkpt>
      <trkpt lat="44.8247" lon="6.97137">
        <ele>2621.17</ele>
        <time>2013-04-01T10:23:55Z</time>
      </trkpt>
      <trkpt lat="44.8247" lon="6.97137">
        <ele>2620.69</ele>
        <time>2013-04-01T10:24:32Z</time>
      </trkpt>
      <trkpt lat="44.82471" lon="6.97137">
        <ele>2621.17</ele>
        <time>2013-04-01T10:25:13Z</time>
      </trkpt>
      <trkpt lat="44.82471" lon="6.97137">
        <ele>2621.17</ele>
        <time>2013-04-01T10:25:59Z</time>
      </trkpt>
      <trkpt lat="44.82471" lon="6.97137">
        <ele>2621.65</ele>
        <time>2013-04-01T10:26:48Z</time>
      </trkpt>
      <trkpt lat="44.8247" lon="6.97138">
        <ele>2621.65</ele>
        <time>2013-04-01T10:27:10Z</time>
      </trkpt>
      <trkpt lat="44.8247" lon="6.97138">
        <ele>2621.65</ele>
        <time>2013-04-01T10:27:30Z</time>
      </trkpt>
      <trkpt lat="44.8247" lon="6.97138">
        <ele>2621.65</ele>
        <time>2013-04-01T10:28:07Z</time>
      </trkpt>
      <trkpt lat="44.8247" lon="6.97138">
        <ele>2621.17</ele>
        <time>2013-04-01T10:28:43Z</time>
      </trkpt>
      <trkpt lat="44.8247" lon="6.97138">
        <ele>2621.17</ele>
        <time>2013-04-01T10:29:05Z</time>
      </trkpt>
      <trkpt lat="44.8247" lon="6.97138">
        <ele>2621.17</ele>
        <time>2013-04-01T10:29:44Z</time>
      </trkpt>
      <trkpt lat="44.82471" lon="6.97138">
        <ele>2620.69</ele>
        <time>2013-04-01T10:30:00Z</time>
      </trkpt>
      <trkpt lat="44.8247" lon="6.97138">
        <ele>2621.17</ele>
        <time>2013-04-01T10:30:19Z</time>
      </trkpt>
      <trkpt lat="44.8247" lon="6.97138">
        <ele>2620.69</ele>
        <time>2013-04-01T10:31:03Z</time>
      </trkpt>
      <trkpt lat="44.8247" lon="6.97138">
        <ele>2620.69</ele>
        <time>2013-04-01T10:31:42Z</time>
      </trkpt>
      <trkpt lat="44.8247" lon="6.97138">
        <ele>2620.21</ele>
        <time>2013-04-01T10:32:07Z</time>
      </trkpt>
      <trkpt lat="44.8247" lon="6.97138">
        <ele>2620.21</ele>
        <time>2013-04-01T10:32:46Z</time>
      </trkpt>
      <trkpt lat="44.8247" lon="6.97138">
        <ele>2620.69</ele>
        <time>2013-04-01T10:33:29Z</time>
      </trkpt>
      <trkpt lat="44.8247" lon="6.97138">
        <ele>2620.69</ele>
        <time>2013-04-01T10:34:08Z</time>
      </trkpt>
      <trkpt lat="44.8247" lon="6.97138">
        <ele>2620.69</ele>
        <time>2013-04-01T10:34:42Z</time>
      </trkpt>
      <trkpt lat="44.82471" lon="6.97138">
        <ele>2620.21</ele>
        <time>2013-04-01T10:35:22Z</time>
      </trkpt>
      <trkpt lat="44.82471" lon="6.97138">
        <ele>2620.21</ele>
        <time>2013-04-01T10:35:55Z</time>
      </trkpt>
      <trkpt lat="44.8247" lon="6.97138">
        <ele>2620.21</ele>
        <time>2013-04-01T10:36:35Z</time>
      </trkpt>
      <trkpt lat="44.82471" lon="6.97138">
        <ele>2620.21</ele>
        <time>2013-04-01T10:37:16Z</time>
      </trkpt>
      <trkpt lat="44.82471" lon="6.97138">
        <ele>2620.69</ele>
        <time>2013-04-01T10:37:53Z</time>
      </trkpt>
      <trkpt lat="44.82471" lon="6.97138">
        <ele>2620.69</ele>
        <time>2013-04-01T10:38:29Z</time>
      </trkpt>
      <trkpt lat="44.82471" lon="6.97138">
        <ele>2621.17</ele>
        <time>2013-04-01T10:39:04Z</time>
      </trkpt>
      <trkpt lat="44.82471" lon="6.97138">
        <ele>2621.17</ele>
        <time>2013-04-01T10:39:37Z</time>
      </trkpt>
      <trkpt lat="44.82471" lon="6.97138">
        <ele>2621.17</ele>
        <time>2013-04-01T10:40:11Z</time>
      </trkpt>
      <trkpt lat="44.8247" lon="6.97138">
        <ele>2621.17</ele>
        <time>2013-04-01T10:40:47Z</time>
      </trkpt>
      <trkpt lat="44.8247" lon="6.97138">
        <ele>2621.65</ele>
        <time>2013-04-01T10:41:06Z</time>
      </trkpt>
      <trkpt lat="44.8247" lon="6.97138">
        <ele>2621.65</ele>
        <time>2013-04-01T10:41:33Z</time>
      </trkpt>
      <trkpt lat="44.8247" lon="6.97139">
        <ele>2621.17</ele>
        <time>2013-04-01T10:42:10Z</time>
      </trkpt>
      <trkpt lat="44.8247" lon="6.97139">
        <ele>2620.69</ele>
        <time>2013-04-01T10:42:43Z</time>
      </trkpt>
      <trkpt lat="44.8247" lon="6.97139">
        <ele>2622.13</ele>
        <time>2013-04-01T10:43:15Z</time>
      </trkpt>
      <trkpt lat="44.8247" lon="6.97139">
        <ele>2621.65</ele>
        <time>2013-04-01T10:43:49Z</time>
      </trkpt>
      <trkpt lat="44.8247" lon="6.97138">
        <ele>2621.17</ele>
        <time>2013-04-01T10:44:19Z</time>
      </trkpt>
      <trkpt lat="44.8247" lon="6.97138">
        <ele>2622.13</ele>
        <time>2013-04-01T10:44:55Z</time>
      </trkpt>
      <trkpt lat="44.8247" lon="6.97138">
        <ele>2621.17</ele>
        <time>2013-04-01T10:45:30Z</time>
      </trkpt>
      <trkpt lat="44.8247" lon="6.97138">
        <ele>2621.17</ele>
        <time>2013-04-01T10:46:05Z</time>
      </trkpt>
      <trkpt lat="44.8247" lon="6.97138">
        <ele>2621.17</ele>
        <time>2013-04-01T10:46:42Z</time>
      </trkpt>
      <trkpt lat="44.8247" lon="6.97138">
        <ele>2621.17</ele>
        <time>2013-04-01T10:47:18Z</time>
      </trkpt>
      <trkpt lat="44.8247" lon="6.97138">
        <ele>2620.69</ele>
        <time>2013-04-01T10:47:49Z</time>
      </trkpt>
      <trkpt lat="44.8247" lon="6.97138">
        <ele>2621.17</ele>
        <time>2013-04-01T10:48:22Z</time>
      </trkpt>
      <trkpt lat="44.8247" lon="6.97138">
        <ele>2620.69</ele>
        <time>2013-04-01T10:48:51Z</time>
      </trkpt>
      <trkpt lat="44.8247" lon="6.97138">
        <ele>2620.69</ele>
        <time>2013-04-01T10:49:17Z</time>
      </trkpt>
      <trkpt lat="44.8247" lon="6.97138">
        <ele>2621.65</ele>
        <time>2013-04-01T10:49:49Z</time>
      </trkpt>
      <trkpt lat="44.8247" lon="6.97137">
        <ele>2620.69</ele>
        <time>2013-04-01T10:50:24Z</time>
      </trkpt>
      <trkpt lat="44.82469" lon="6.97138">
        <ele>2620.69</ele>
        <time>2013-04-01T10:51:02Z</time>
      </trkpt>
      <trkpt lat="44.8247" lon="6.97137">
        <ele>2621.17</ele>
        <time>2013-04-01T10:51:37Z</time>
      </trkpt>
      <trkpt lat="44.8247" lon="6.97137">
        <ele>2621.17</ele>
        <time>2013-04-01T10:52:11Z</time>
      </trkpt>
      <trkpt lat="44.8247" lon="6.97137">
        <ele>2620.69</ele>
        <time>2013-04-01T10:52:46Z</time>
      </trkpt>
      <trkpt lat="44.8247" lon="6.97138">
        <ele>2621.17</ele>
        <time>2013-04-01T10:53:21Z</time>
      </trkpt>
      <trkpt lat="44.8247" lon="6.97138">
        <ele>2621.17</ele>
        <time>2013-04-01T10:53:58Z</time>
      </trkpt>
      <trkpt lat="44.8247" lon="6.97138">
        <ele>2621.17</ele>
        <time>2013-04-01T10:54:35Z</time>
      </trkpt>
      <trkpt lat="44.8247" lon="6.97138">
        <ele>2620.21</ele>
        <time>2013-04-01T10:55:07Z</time>
      </trkpt>
      <trkpt lat="44.8247" lon="6.97138">
        <ele>2620.69</ele>
        <time>2013-04-01T10:55:34Z</time>
      </trkpt>
      <trkpt lat="44.8247" lon="6.97138">
        <ele>2621.17</ele>
        <time>2013-04-01T10:56:00Z</time>
      </trkpt>
      <trkpt lat="44.82469" lon="6.97138">
        <ele>2621.65</ele>
        <time>2013-04-01T10:56:40Z</time>
      </trkpt>
      <trkpt lat="44.82469" lon="6.97138">
        <ele>2621.17</ele>
        <time>2013-04-01T10:56:55Z</time>
      </trkpt>
      <trkpt lat="44.82469" lon="6.97138">
        <ele>2620.69</ele>
        <time>2013-04-01T10:57:14Z</time>
      </trkpt>
      <trkpt lat="44.82469" lon="6.97138">
        <ele>2624.06</ele>
        <time>2013-04-01T10:57:18Z</time>
      </trkpt>
      <trkpt lat="44.82469" lon="6.97139">
        <ele>2616.37</ele>
        <time>2013-04-01T10:57:29Z</time>
      </trkpt>
      <trkpt lat="44.82469" lon="6.97139">
        <ele>2625.5</ele>
        <time>2013-04-01T10:57:30Z</time>
      </trkpt>
      <trkpt lat="44.82469" lon="6.97139">
        <ele>2624.54</ele>
        <time>2013-04-01T10:57:31Z</time>
      </trkpt>
      <trkpt lat="44.82469" lon="6.97139">
        <ele>2623.09</ele>
        <time>2013-04-01T10:57:33Z</time>
      </trkpt>
      <trkpt lat="44.82472" lon="6.97139">
        <ele>2623.09</ele>
        <time>2013-04-01T10:57:44Z</time>
      </trkpt>
      <trkpt lat="44.82475" lon="6.97139">
        <ele>2619.73</ele>
        <time>2013-04-01T10:57:52Z</time>
      </trkpt>
      <trkpt lat="44.82476" lon="6.97127">
        <ele>2617.81</ele>
        <time>2013-04-01T10:58:05Z</time>
      </trkpt>
      <trkpt lat="44.82476" lon="6.97123">
        <ele>2617.81</ele>
        <time>2013-04-01T10:58:08Z</time>
      </trkpt>
      <trkpt lat="44.82475" lon="6.97121">
        <ele>2616.37</ele>
        <time>2013-04-01T10:58:10Z</time>
      </trkpt>
      <trkpt lat="44.82474" lon="6.97108">
        <ele>2612.52</ele>
        <time>2013-04-01T10:58:23Z</time>
      </trkpt>
      <trkpt lat="44.8248" lon="6.97094">
        <ele>2610.12</ele>
        <time>2013-04-01T10:58:38Z</time>
      </trkpt>
      <trkpt lat="44.82483" lon="6.97083">
        <ele>2607.23</ele>
        <time>2013-04-01T10:58:49Z</time>
      </trkpt>
      <trkpt lat="44.82485" lon="6.97074">
        <ele>2604.83</ele>
        <time>2013-04-01T10:59:02Z</time>
      </trkpt>
      <trkpt lat="44.82485" lon="6.97073">
        <ele>2604.35</ele>
        <time>2013-04-01T10:59:03Z</time>
      </trkpt>
      <trkpt lat="44.8249" lon="6.97065">
        <ele>2601.46</ele>
        <time>2013-04-01T10:59:15Z</time>
      </trkpt>
      <trkpt lat="44.82493" lon="6.97056">
        <ele>2598.1</ele>
        <time>2013-04-01T10:59:27Z</time>
      </trkpt>
      <trkpt lat="44.82496" lon="6.97047">
        <ele>2595.7</ele>
        <time>2013-04-01T10:59:40Z</time>
      </trkpt>
      <trkpt lat="44.825" lon="6.9704">
        <ele>2593.29</ele>
        <time>2013-04-01T10:59:49Z</time>
      </trkpt>
      <trkpt lat="44.82501" lon="6.97036">
        <ele>2592.81</ele>
        <time>2013-04-01T10:59:52Z</time>
      </trkpt>
      <trkpt lat="44.82503" lon="6.97032">
        <ele>2591.37</ele>
        <time>2013-04-01T10:59:56Z</time>
      </trkpt>
      <trkpt lat="44.82505" lon="6.97027">
        <ele>2590.89</ele>
        <time>2013-04-01T11:00:00Z</time>
      </trkpt>
      <trkpt lat="44.82508" lon="6.97019">
        <ele>2588.49</ele>
        <time>2013-04-01T11:00:12Z</time>
      </trkpt>
      <trkpt lat="44.82509" lon="6.97016">
        <ele>2587.04</ele>
        <time>2013-04-01T11:00:17Z</time>
      </trkpt>
      <trkpt lat="44.8251" lon="6.97012">
        <ele>2586.56</ele>
        <time>2013-04-01T11:00:21Z</time>
      </trkpt>
      <trkpt lat="44.82517" lon="6.96997">
        <ele>2583.68</ele>
        <time>2013-04-01T11:00:34Z</time>
      </trkpt>
      <trkpt lat="44.82516" lon="6.96979">
        <ele>2582.24</ele>
        <time>2013-04-01T11:00:49Z</time>
      </trkpt>
      <trkpt lat="44.82516" lon="6.96967">
        <ele>2580.8</ele>
        <time>2013-04-01T11:00:59Z</time>
      </trkpt>
      <trkpt lat="44.82516" lon="6.96965">
        <ele>2582.24</ele>
        <time>2013-04-01T11:01:04Z</time>
      </trkpt>
      <trkpt lat="44.82515" lon="6.96957">
        <ele>2580.8</ele>
        <time>2013-04-01T11:01:16Z</time>
      </trkpt>
      <trkpt lat="44.82515" lon="6.96955">
        <ele>2580.32</ele>
        <time>2013-04-01T11:01:18Z</time>
      </trkpt>
      <trkpt lat="44.82515" lon="6.96935">
        <ele>2576.47</ele>
        <time>2013-04-01T11:01:34Z</time>
      </trkpt>
      <trkpt lat="44.82515" lon="6.9693">
        <ele>2576.47</ele>
        <time>2013-04-01T11:01:49Z</time>
      </trkpt>
      <trkpt lat="44.82515" lon="6.9693">
        <ele>2576.47</ele>
        <time>2013-04-01T11:02:09Z</time>
      </trkpt>
      <trkpt lat="44.82514" lon="6.96927">
        <ele>2575.51</ele>
        <time>2013-04-01T11:02:28Z</time>
      </trkpt>
      <trkpt lat="44.82513" lon="6.96917">
        <ele>2571.66</ele>
        <time>2013-04-01T11:02:36Z</time>
      </trkpt>
      <trkpt lat="44.82512" lon="6.96913">
        <ele>2571.18</ele>
        <time>2013-04-01T11:02:40Z</time>
      </trkpt>
      <trkpt lat="44.8251" lon="6.96902">
        <ele>2567.82</ele>
        <time>2013-04-01T11:02:51Z</time>
      </trkpt>
      <trkpt lat="44.8251" lon="6.96893">
        <ele>2564.45</ele>
        <time>2013-04-01T11:02:58Z</time>
      </trkpt>
      <trkpt lat="44.82509" lon="6.9688">
        <ele>2561.09</ele>
        <time>2013-04-01T11:03:09Z</time>
      </trkpt>
      <trkpt lat="44.82511" lon="6.96871">
        <ele>2558.69</ele>
        <time>2013-04-01T11:03:27Z</time>
      </trkpt>
      <trkpt lat="44.82512" lon="6.96868">
        <ele>2558.21</ele>
        <time>2013-04-01T11:03:29Z</time>
      </trkpt>
      <trkpt lat="44.82513" lon="6.96857">
        <ele>2554.84</ele>
        <time>2013-04-01T11:03:37Z</time>
      </trkpt>
      <trkpt lat="44.82517" lon="6.96847">
        <ele>2551.48</ele>
        <time>2013-04-01T11:03:47Z</time>
      </trkpt>
      <trkpt lat="44.82518" lon="6.96843">
        <ele>2550.03</ele>
        <time>2013-04-01T11:03:50Z</time>
      </trkpt>
      <trkpt lat="44.82521" lon="6.96836">
        <ele>2548.11</ele>
        <time>2013-04-01T11:03:57Z</time>
      </trkpt>
      <trkpt lat="44.82524" lon="6.96824">
        <ele>2545.71</ele>
        <time>2013-04-01T11:04:07Z</time>
      </trkpt>
      <trkpt lat="44.82526" lon="6.96818">
        <ele>2542.34</ele>
        <time>2013-04-01T11:04:12Z</time>
      </trkpt>
      <trkpt lat="44.82529" lon="6.96809">
        <ele>2539.46</ele>
        <time>2013-04-01T11:04:22Z</time>
      </trkpt>
      <trkpt lat="44.82529" lon="6.96809">
        <ele>2541.38</ele>
        <time>2013-04-01T11:04:25Z</time>
      </trkpt>
      <trkpt lat="44.82529" lon="6.96809">
        <ele>2538.98</ele>
        <time>2013-04-01T11:04:34Z</time>
      </trkpt>
      <trkpt lat="44.82529" lon="6.96807">
        <ele>2539.94</ele>
        <time>2013-04-01T11:04:36Z</time>
      </trkpt>
      <trkpt lat="44.8253" lon="6.96804">
        <ele>2538.98</ele>
        <time>2013-04-01T11:04:38Z</time>
      </trkpt>
      <trkpt lat="44.82531" lon="6.968">
        <ele>2536.58</ele>
        <time>2013-04-01T11:04:41Z</time>
      </trkpt>
      <trkpt lat="44.82533" lon="6.96791">
        <ele>2533.21</ele>
        <time>2013-04-01T11:04:49Z</time>
      </trkpt>
      <trkpt lat="44.82534" lon="6.96782">
        <ele>2529.85</ele>
        <time>2013-04-01T11:04:58Z</time>
      </trkpt>
      <trkpt lat="44.82534" lon="6.9678">
        <ele>2529.37</ele>
        <time>2013-04-01T11:05:00Z</time>
      </trkpt>
      <trkpt lat="44.82534" lon="6.96778">
        <ele>2529.37</ele>
        <time>2013-04-01T11:05:03Z</time>
      </trkpt>
      <trkpt lat="44.82538" lon="6.96761">
        <ele>2525.04</ele>
        <time>2013-04-01T11:05:17Z</time>
      </trkpt>
      <trkpt lat="44.8254" lon="6.96751">
        <ele>2522.64</ele>
        <time>2013-04-01T11:05:30Z</time>
      </trkpt>
      <trkpt lat="44.8254" lon="6.96751">
        <ele>2523.6</ele>
        <time>2013-04-01T11:05:54Z</time>
      </trkpt>
      <trkpt lat="44.82541" lon="6.96749">
        <ele>2522.16</ele>
        <time>2013-04-01T11:06:09Z</time>
      </trkpt>
      <trkpt lat="44.82541" lon="6.96744">
        <ele>2520.71</ele>
        <time>2013-04-01T11:06:12Z</time>
      </trkpt>
      <trkpt lat="44.82542" lon="6.96732">
        <ele>2517.83</ele>
        <time>2013-04-01T11:06:22Z</time>
      </trkpt>
      <trkpt lat="44.82543" lon="6.9673">
        <ele>2516.87</ele>
        <time>2013-04-01T11:06:24Z</time>
      </trkpt>
      <trkpt lat="44.82549" lon="6.96717">
        <ele>2516.39</ele>
        <time>2013-04-01T11:06:37Z</time>
      </trkpt>
      <trkpt lat="44.82553" lon="6.96708">
        <ele>2513.98</ele>
        <time>2013-04-01T11:06:46Z</time>
      </trkpt>
      <trkpt lat="44.82554" lon="6.96698">
        <ele>2511.58</ele>
        <time>2013-04-01T11:06:55Z</time>
      </trkpt>
      <trkpt lat="44.82554" lon="6.96698">
        <ele>2511.58</ele>
        <time>2013-04-01T11:06:56Z</time>
      </trkpt>
      <trkpt lat="44.82554" lon="6.96698">
        <ele>2514.95</ele>
        <time>2013-04-01T11:07:03Z</time>
      </trkpt>
      <trkpt lat="44.82554" lon="6.96698">
        <ele>2516.39</ele>
        <time>2013-04-01T11:07:05Z</time>
      </trkpt>
      <trkpt lat="44.82554" lon="6.96698">
        <ele>2513.02</ele>
        <time>2013-04-01T11:07:07Z</time>
      </trkpt>
      <trkpt lat="44.82554" lon="6.96698">
        <ele>2512.54</ele>
        <time>2013-04-01T11:07:35Z</time>
      </trkpt>
      <trkpt lat="44.82554" lon="6.96698">
        <ele>2513.02</ele>
        <time>2013-04-01T11:07:59Z</time>
      </trkpt>
      <trkpt lat="44.82555" lon="6.96697">
        <ele>2513.5</ele>
        <time>2013-04-01T11:08:08Z</time>
      </trkpt>
      <trkpt lat="44.82554" lon="6.96692">
        <ele>2512.06</ele>
        <time>2013-04-01T11:08:12Z</time>
      </trkpt>
      <trkpt lat="44.82554" lon="6.96681">
        <ele>2510.14</ele>
        <time>2013-04-01T11:08:18Z</time>
      </trkpt>
      <trkpt lat="44.82554" lon="6.96667">
        <ele>2506.77</ele>
        <time>2013-04-01T11:08:28Z</time>
      </trkpt>
      <trkpt lat="44.82555" lon="6.96663">
        <ele>2505.33</ele>
        <time>2013-04-01T11:08:31Z</time>
      </trkpt>
      <trkpt lat="44.82555" lon="6.96658">
        <ele>2504.37</ele>
        <time>2013-04-01T11:08:35Z</time>
      </trkpt>
      <trkpt lat="44.82555" lon="6.96656">
        <ele>2503.89</ele>
        <time>2013-04-01T11:08:37Z</time>
      </trkpt>
      <trkpt lat="44.82556" lon="6.96648">
        <ele>2500.53</ele>
        <time>2013-04-01T11:08:43Z</time>
      </trkpt>
      <trkpt lat="44.82556" lon="6.96638">
        <ele>2498.12</ele>
        <time>2013-04-01T11:08:50Z</time>
      </trkpt>
      <trkpt lat="44.82559" lon="6.96627">
        <ele>2494.76</ele>
        <time>2013-04-01T11:08:58Z</time>
      </trkpt>
      <trkpt lat="44.82563" lon="6.9662">
        <ele>2493.8</ele>
        <time>2013-04-01T11:09:11Z</time>
      </trkpt>
      <trkpt lat="44.82563" lon="6.9662">
        <ele>2493.32</ele>
        <time>2013-04-01T11:09:21Z</time>
      </trkpt>
      <trkpt lat="44.82563" lon="6.96607">
        <ele>2490.91</ele>
        <time>2013-04-01T11:09:32Z</time>
      </trkpt>
      <trkpt lat="44.82563" lon="6.96597">
        <ele>2489.47</ele>
        <time>2013-04-01T11:09:40Z</time>
      </trkpt>
      <trkpt lat="44.82563" lon="6.96595">
        <ele>2488.51</ele>
        <time>2013-04-01T11:09:42Z</time>
      </trkpt>
      <trkpt lat="44.82564" lon="6.9658">
        <ele>2484.66</ele>
        <time>2013-04-01T11:09:53Z</time>
      </trkpt>
      <trkpt lat="44.82564" lon="6.96576">
        <ele>2484.18</ele>
        <time>2013-04-01T11:09:56Z</time>
      </trkpt>
      <trkpt lat="44.82565" lon="6.96574">
        <ele>2483.7</ele>
        <time>2013-04-01T11:09:58Z</time>
      </trkpt>
      <trkpt lat="44.82567" lon="6.96562">
        <ele>2481.78</ele>
        <time>2013-04-01T11:10:07Z</time>
      </trkpt>
      <trkpt lat="44.82571" lon="6.96543">
        <ele>2479.38</ele>
        <time>2013-04-01T11:10:23Z</time>
      </trkpt>
      <trkpt lat="44.82573" lon="6.96527">
        <ele>2477.45</ele>
        <time>2013-04-01T11:10:35Z</time>
      </trkpt>
      <trkpt lat="44.82574" lon="6.96525">
        <ele>2476.97</ele>
        <time>2013-04-01T11:10:37Z</time>
      </trkpt>
      <trkpt lat="44.82573" lon="6.96516">
        <ele>2476.49</ele>
        <time>2013-04-01T11:10:44Z</time>
      </trkpt>
      <trkpt lat="44.82574" lon="6.96512">
        <ele>2475.53</ele>
        <time>2013-04-01T11:10:47Z</time>
      </trkpt>
      <trkpt lat="44.82576" lon="6.96494">
        <ele>2473.13</ele>
        <time>2013-04-01T11:11:01Z</time>
      </trkpt>
      <trkpt lat="44.82576" lon="6.9649">
        <ele>2472.65</ele>
        <time>2013-04-01T11:11:05Z</time>
      </trkpt>
      <trkpt lat="44.82574" lon="6.96474">
        <ele>2470.24</ele>
        <time>2013-04-01T11:11:19Z</time>
      </trkpt>
      <trkpt lat="44.82574" lon="6.96473">
        <ele>2470.73</ele>
        <time>2013-04-01T11:11:40Z</time>
      </trkpt>
      <trkpt lat="44.82574" lon="6.96473">
        <ele>2470.73</ele>
        <time>2013-04-01T11:12:08Z</time>
      </trkpt>
      <trkpt lat="44.82574" lon="6.96473">
        <ele>2469.76</ele>
        <time>2013-04-01T11:12:26Z</time>
      </trkpt>
      <trkpt lat="44.82574" lon="6.96473">
        <ele>2471.21</ele>
        <time>2013-04-01T11:12:49Z</time>
      </trkpt>
      <trkpt lat="44.82571" lon="6.96472">
        <ele>2471.21</ele>
        <time>2013-04-01T11:13:05Z</time>
      </trkpt>
      <trkpt lat="44.8257" lon="6.96471">
        <ele>2470.73</ele>
        <time>2013-04-01T11:13:06Z</time>
      </trkpt>
      <trkpt lat="44.8256" lon="6.96464">
        <ele>2466.88</ele>
        <time>2013-04-01T11:13:19Z</time>
      </trkpt>
      <trkpt lat="44.82554" lon="6.96459">
        <ele>2464</ele>
        <time>2013-04-01T11:13:27Z</time>
      </trkpt>
      <trkpt lat="44.8255" lon="6.96457">
        <ele>2462.55</ele>
        <time>2013-04-01T11:13:31Z</time>
      </trkpt>
      <trkpt lat="44.82546" lon="6.96452">
        <ele>2459.19</ele>
        <time>2013-04-01T11:13:37Z</time>
      </trkpt>
      <trkpt lat="44.82542" lon="6.9644">
        <ele>2455.82</ele>
        <time>2013-04-01T11:13:48Z</time>
      </trkpt>
      <trkpt lat="44.82541" lon="6.96438">
        <ele>2454.86</ele>
        <time>2013-04-01T11:13:50Z</time>
      </trkpt>
      <trkpt lat="44.82539" lon="6.96428">
        <ele>2451.5</ele>
        <time>2013-04-01T11:13:59Z</time>
      </trkpt>
      <trkpt lat="44.82539" lon="6.96411">
        <ele>2447.65</ele>
        <time>2013-04-01T11:14:14Z</time>
      </trkpt>
      <trkpt lat="44.82541" lon="6.96396">
        <ele>2444.77</ele>
        <time>2013-04-01T11:14:29Z</time>
      </trkpt>
      <trkpt lat="44.82543" lon="6.96392">
        <ele>2443.81</ele>
        <time>2013-04-01T11:14:34Z</time>
      </trkpt>
      <trkpt lat="44.82545" lon="6.96384">
        <ele>2441.89</ele>
        <time>2013-04-01T11:14:42Z</time>
      </trkpt>
      <trkpt lat="44.82546" lon="6.96377">
        <ele>2440.92</ele>
        <time>2013-04-01T11:14:50Z</time>
      </trkpt>
      <trkpt lat="44.82546" lon="6.96376">
        <ele>2440.44</ele>
        <time>2013-04-01T11:14:51Z</time>
      </trkpt>
      <trkpt lat="44.82547" lon="6.96373">
        <ele>2439</ele>
        <time>2013-04-01T11:14:55Z</time>
      </trkpt>
      <trkpt lat="44.8255" lon="6.96364">
        <ele>2435.64</ele>
        <time>2013-04-01T11:15:04Z</time>
      </trkpt>
      <trkpt lat="44.82552" lon="6.96356">
        <ele>2434.68</ele>
        <time>2013-04-01T11:15:19Z</time>
      </trkpt>
      <trkpt lat="44.82555" lon="6.96347">
        <ele>2431.31</ele>
        <time>2013-04-01T11:15:32Z</time>
      </trkpt>
      <trkpt lat="44.82558" lon="6.96337">
        <ele>2429.87</ele>
        <time>2013-04-01T11:15:47Z</time>
      </trkpt>
      <trkpt lat="44.8256" lon="6.96335">
        <ele>2428.91</ele>
        <time>2013-04-01T11:16:01Z</time>
      </trkpt>
      <trkpt lat="44.82563" lon="6.96323">
        <ele>2426.5</ele>
        <time>2013-04-01T11:16:15Z</time>
      </trkpt>
      <trkpt lat="44.82567" lon="6.96312">
        <ele>2424.58</ele>
        <time>2013-04-01T11:16:30Z</time>
      </trkpt>
      <trkpt lat="44.8257" lon="6.96303">
        <ele>2421.7</ele>
        <time>2013-04-01T11:16:42Z</time>
      </trkpt>
      <trkpt lat="44.82575" lon="6.96289">
        <ele>2419.78</ele>
        <time>2013-04-01T11:16:59Z</time>
      </trkpt>
      <trkpt lat="44.82575" lon="6.96289">
        <ele>2419.78</ele>
        <time>2013-04-01T11:17:17Z</time>
      </trkpt>
      <trkpt lat="44.82577" lon="6.96281">
        <ele>2417.85</ele>
        <time>2013-04-01T11:17:32Z</time>
      </trkpt>
      <trkpt lat="44.82579" lon="6.96266">
        <ele>2414.97</ele>
        <time>2013-04-01T11:17:47Z</time>
      </trkpt>
      <trkpt lat="44.8258" lon="6.96265">
        <ele>2414.49</ele>
        <time>2013-04-01T11:17:48Z</time>
      </trkpt>
      <trkpt lat="44.82584" lon="6.96253">
        <ele>2411.12</ele>
        <time>2013-04-01T11:18:02Z</time>
      </trkpt>
      <trkpt lat="44.82588" lon="6.96243">
        <ele>2410.64</ele>
        <time>2013-04-01T11:18:16Z</time>
      </trkpt>
      <trkpt lat="44.82588" lon="6.96241">
        <ele>2410.16</ele>
        <time>2013-04-01T11:18:18Z</time>
      </trkpt>
      <trkpt lat="44.8259" lon="6.96238">
        <ele>2409.68</ele>
        <time>2013-04-01T11:18:31Z</time>
      </trkpt>
      <trkpt lat="44.82591" lon="6.9623">
        <ele>2407.76</ele>
        <time>2013-04-01T11:18:54Z</time>
      </trkpt>
      <trkpt lat="44.82595" lon="6.96215">
        <ele>2404.39</ele>
        <time>2013-04-01T11:19:08Z</time>
      </trkpt>
      <trkpt lat="44.82598" lon="6.962">
        <ele>2401.99</ele>
        <time>2013-04-01T11:19:23Z</time>
      </trkpt>
      <trkpt lat="44.82601" lon="6.96189">
        <ele>2399.59</ele>
        <time>2013-04-01T11:19:36Z</time>
      </trkpt>
      <trkpt lat="44.82607" lon="6.96179">
        <ele>2397.67</ele>
        <time>2013-04-01T11:19:49Z</time>
      </trkpt>
      <trkpt lat="44.82612" lon="6.96173">
        <ele>2395.74</ele>
        <time>2013-04-01T11:19:56Z</time>
      </trkpt>
      <trkpt lat="44.8262" lon="6.96163">
        <ele>2393.34</ele>
        <time>2013-04-01T11:20:10Z</time>
      </trkpt>
      <trkpt lat="44.82628" lon="6.96154">
        <ele>2389.97</ele>
        <time>2013-04-01T11:20:23Z</time>
      </trkpt>
      <trkpt lat="44.8263" lon="6.96152">
        <ele>2389.97</ele>
        <time>2013-04-01T11:20:40Z</time>
      </trkpt>
      <trkpt lat="44.82637" lon="6.96141">
        <ele>2387.57</ele>
        <time>2013-04-01T11:20:55Z</time>
      </trkpt>
      <trkpt lat="44.82641" lon="6.96135">
        <ele>2385.17</ele>
        <time>2013-04-01T11:21:04Z</time>
      </trkpt>
      <trkpt lat="44.82646" lon="6.96127">
        <ele>2382.76</ele>
        <time>2013-04-01T11:21:14Z</time>
      </trkpt>
      <trkpt lat="44.82651" lon="6.96123">
        <ele>2381.8</ele>
        <time>2013-04-01T11:21:29Z</time>
      </trkpt>
      <trkpt lat="44.82656" lon="6.96112">
        <ele>2380.84</ele>
        <time>2013-04-01T11:21:41Z</time>
      </trkpt>
      <trkpt lat="44.8266" lon="6.96103">
        <ele>2378.44</ele>
        <time>2013-04-01T11:21:54Z</time>
      </trkpt>
      <trkpt lat="44.82661" lon="6.961">
        <ele>2377.48</ele>
        <time>2013-04-01T11:21:58Z</time>
      </trkpt>
      <trkpt lat="44.82664" lon="6.96098">
        <ele>2377.48</ele>
        <time>2013-04-01T11:22:13Z</time>
      </trkpt>
      <trkpt lat="44.82664" lon="6.96095">
        <ele>2376.04</ele>
        <time>2013-04-01T11:22:18Z</time>
      </trkpt>
      <trkpt lat="44.82662" lon="6.96089">
        <ele>2373.63</ele>
        <time>2013-04-01T11:22:24Z</time>
      </trkpt>
      <trkpt lat="44.8266" lon="6.96084">
        <ele>2372.67</ele>
        <time>2013-04-01T11:22:29Z</time>
      </trkpt>
      <trkpt lat="44.82659" lon="6.96083">
        <ele>2372.19</ele>
        <time>2013-04-01T11:22:31Z</time>
      </trkpt>
      <trkpt lat="44.82657" lon="6.96076">
        <ele>2368.83</ele>
        <time>2013-04-01T11:22:43Z</time>
      </trkpt>
      <trkpt lat="44.82652" lon="6.96065">
        <ele>2366.9</ele>
        <time>2013-04-01T11:22:54Z</time>
      </trkpt>
      <trkpt lat="44.82648" lon="6.96054">
        <ele>2364.98</ele>
        <time>2013-04-01T11:23:07Z</time>
      </trkpt>
      <trkpt lat="44.82643" lon="6.96043">
        <ele>2364.02</ele>
        <time>2013-04-01T11:23:20Z</time>
      </trkpt>
      <trkpt lat="44.82638" lon="6.96033">
        <ele>2361.14</ele>
        <time>2013-04-01T11:23:35Z</time>
      </trkpt>
      <trkpt lat="44.82639" lon="6.96025">
        <ele>2359.69</ele>
        <time>2013-04-01T11:23:50Z</time>
      </trkpt>
      <trkpt lat="44.8264" lon="6.96015">
        <ele>2356.81</ele>
        <time>2013-04-01T11:24:03Z</time>
      </trkpt>
      <trkpt lat="44.82641" lon="6.96004">
        <ele>2353.93</ele>
        <time>2013-04-01T11:24:17Z</time>
      </trkpt>
      <trkpt lat="44.8264" lon="6.96">
        <ele>2351.52</ele>
        <time>2013-04-01T11:24:23Z</time>
      </trkpt>
      <trkpt lat="44.82641" lon="6.95995">
        <ele>2349.6</ele>
        <time>2013-04-01T11:24:37Z</time>
      </trkpt>
      <trkpt lat="44.82638" lon="6.95988">
        <ele>2346.72</ele>
        <time>2013-04-01T11:24:52Z</time>
      </trkpt>
      <trkpt lat="44.82636" lon="6.9598">
        <ele>2344.31</ele>
        <time>2013-04-01T11:25:06Z</time>
      </trkpt>
      <trkpt lat="44.82636" lon="6.95974">
        <ele>2339.51</ele>
        <time>2013-04-01T11:25:14Z</time>
      </trkpt>
      <trkpt lat="44.82636" lon="6.95973">
        <ele>2340.47</ele>
        <time>2013-04-01T11:25:15Z</time>
      </trkpt>
      <trkpt lat="44.82635" lon="6.95968">
        <ele>2338.06</ele>
        <time>2013-04-01T11:25:23Z</time>
      </trkpt>
      <trkpt lat="44.82635" lon="6.95961">
        <ele>2335.18</ele>
        <time>2013-04-01T11:25:38Z</time>
      </trkpt>
      <trkpt lat="44.82635" lon="6.95961">
        <ele>2335.66</ele>
        <time>2013-04-01T11:26:00Z</time>
      </trkpt>
      <trkpt lat="44.82638" lon="6.95958">
        <ele>2334.7</ele>
        <time>2013-04-01T11:26:17Z</time>
      </trkpt>
      <trkpt lat="44.82642" lon="6.95954">
        <ele>2332.3</ele>
        <time>2013-04-01T11:26:29Z</time>
      </trkpt>
      <trkpt lat="44.82649" lon="6.95948">
        <ele>2331.33</ele>
        <time>2013-04-01T11:26:43Z</time>
      </trkpt>
      <trkpt lat="44.82652" lon="6.95947">
        <ele>2328.93</ele>
        <time>2013-04-01T11:26:58Z</time>
      </trkpt>
      <trkpt lat="44.82655" lon="6.95946">
        <ele>2327.97</ele>
        <time>2013-04-01T11:27:11Z</time>
      </trkpt>
      <trkpt lat="44.82656" lon="6.95939">
        <ele>2326.05</ele>
        <time>2013-04-01T11:27:25Z</time>
      </trkpt>
      <trkpt lat="44.82653" lon="6.9593">
        <ele>2324.61</ele>
        <time>2013-04-01T11:27:40Z</time>
      </trkpt>
      <trkpt lat="44.8265" lon="6.95923">
        <ele>2323.16</ele>
        <time>2013-04-01T11:27:53Z</time>
      </trkpt>
      <trkpt lat="44.82649" lon="6.95913">
        <ele>2319.32</ele>
        <time>2013-04-01T11:28:06Z</time>
      </trkpt>
      <trkpt lat="44.82647" lon="6.95903">
        <ele>2318.36</ele>
        <time>2013-04-01T11:28:20Z</time>
      </trkpt>
      <trkpt lat="44.82647" lon="6.95897">
        <ele>2315.47</ele>
        <time>2013-04-01T11:28:35Z</time>
      </trkpt>
      <trkpt lat="44.82641" lon="6.95899">
        <ele>2313.55</ele>
        <time>2013-04-01T11:28:55Z</time>
      </trkpt>
      <trkpt lat="44.82634" lon="6.95891">
        <ele>2310.19</ele>
        <time>2013-04-01T11:29:09Z</time>
      </trkpt>
      <trkpt lat="44.82633" lon="6.95889">
        <ele>2309.7</ele>
        <time>2013-04-01T11:29:11Z</time>
      </trkpt>
      <trkpt lat="44.82632" lon="6.9588">
        <ele>2307.78</ele>
        <time>2013-04-01T11:29:24Z</time>
      </trkpt>
      <trkpt lat="44.82633" lon="6.95877">
        <ele>2307.78</ele>
        <time>2013-04-01T11:29:39Z</time>
      </trkpt>
      <trkpt lat="44.82632" lon="6.95873">
        <ele>2305.86</ele>
        <time>2013-04-01T11:30:05Z</time>
      </trkpt>
      <trkpt lat="44.82632" lon="6.95873">
        <ele>2305.86</ele>
        <time>2013-04-01T11:30:06Z</time>
      </trkpt>
      <trkpt lat="44.82632" lon="6.9587">
        <ele>2303.94</ele>
        <time>2013-04-01T11:30:14Z</time>
      </trkpt>
      <trkpt lat="44.82633" lon="6.95862">
        <ele>2302.01</ele>
        <time>2013-04-01T11:30:23Z</time>
      </trkpt>
      <trkpt lat="44.82633" lon="6.95861">
        <ele>2302.01</ele>
        <time>2013-04-01T11:30:26Z</time>
      </trkpt>
      <trkpt lat="44.82631" lon="6.95851">
        <ele>2298.65</ele>
        <time>2013-04-01T11:30:39Z</time>
      </trkpt>
      <trkpt lat="44.82629" lon="6.95842">
        <ele>2296.73</ele>
        <time>2013-04-01T11:30:52Z</time>
      </trkpt>
      <trkpt lat="44.82623" lon="6.95838">
        <ele>2293.84</ele>
        <time>2013-04-01T11:31:05Z</time>
      </trkpt>
      <trkpt lat="44.82619" lon="6.95836">
        <ele>2292.4</ele>
        <time>2013-04-01T11:31:19Z</time>
      </trkpt>
      <trkpt lat="44.82614" lon="6.95838">
        <ele>2290.96</ele>
        <time>2013-04-01T11:31:33Z</time>
      </trkpt>
      <trkpt lat="44.82604" lon="6.95833">
        <ele>2290</ele>
        <time>2013-04-01T11:31:47Z</time>
      </trkpt>
      <trkpt lat="44.82598" lon="6.95835">
        <ele>2288.08</ele>
        <time>2013-04-01T11:31:58Z</time>
      </trkpt>
      <trkpt lat="44.82592" lon="6.95829">
        <ele>2285.67</ele>
        <time>2013-04-01T11:32:12Z</time>
      </trkpt>
      <trkpt lat="44.8259" lon="6.95824">
        <ele>2283.27</ele>
        <time>2013-04-01T11:32:25Z</time>
      </trkpt>
      <trkpt lat="44.82581" lon="6.95823">
        <ele>2280.87</ele>
        <time>2013-04-01T11:32:38Z</time>
      </trkpt>
      <trkpt lat="44.82581" lon="6.95822">
        <ele>2280.38</ele>
        <time>2013-04-01T11:32:53Z</time>
      </trkpt>
      <trkpt lat="44.82581" lon="6.95822">
        <ele>2280.87</ele>
        <time>2013-04-01T11:33:17Z</time>
      </trkpt>
      <trkpt lat="44.82581" lon="6.95822">
        <ele>2280.38</ele>
        <time>2013-04-01T11:33:40Z</time>
      </trkpt>
      <trkpt lat="44.82581" lon="6.95821">
        <ele>2279.42</ele>
        <time>2013-04-01T11:33:59Z</time>
      </trkpt>
      <trkpt lat="44.82581" lon="6.95821">
        <ele>2280.38</ele>
        <time>2013-04-01T11:34:21Z</time>
      </trkpt>
      <trkpt lat="44.82579" lon="6.95821">
        <ele>2280.87</ele>
        <time>2013-04-01T11:34:45Z</time>
      </trkpt>
      <trkpt lat="44.82579" lon="6.95821">
        <ele>2280.38</ele>
        <time>2013-04-01T11:35:04Z</time>
      </trkpt>
      <trkpt lat="44.82579" lon="6.9582">
        <ele>2279.9</ele>
        <time>2013-04-01T11:35:28Z</time>
      </trkpt>
      <trkpt lat="44.82579" lon="6.9582">
        <ele>2281.83</ele>
        <time>2013-04-01T11:35:56Z</time>
      </trkpt>
      <trkpt lat="44.82579" lon="6.9582">
        <ele>2281.35</ele>
        <time>2013-04-01T11:36:18Z</time>
      </trkpt>
      <trkpt lat="44.82579" lon="6.95821">
        <ele>2280.87</ele>
        <time>2013-04-01T11:36:41Z</time>
      </trkpt>
      <trkpt lat="44.82573" lon="6.95824">
        <ele>2279.9</ele>
        <time>2013-04-01T11:36:53Z</time>
      </trkpt>
      <trkpt lat="44.82567" lon="6.95832">
        <ele>2276.54</ele>
        <time>2013-04-01T11:37:07Z</time>
      </trkpt>
      <trkpt lat="44.8256" lon="6.95834">
        <ele>2274.62</ele>
        <time>2013-04-01T11:37:20Z</time>
      </trkpt>
      <trkpt lat="44.82553" lon="6.95838">
        <ele>2272.21</ele>
        <time>2013-04-01T11:37:34Z</time>
      </trkpt>
      <trkpt lat="44.82547" lon="6.9584">
        <ele>2270.29</ele>
        <time>2013-04-01T11:37:49Z</time>
      </trkpt>
      <trkpt lat="44.82541" lon="6.95842">
        <ele>2268.85</ele>
        <time>2013-04-01T11:38:01Z</time>
      </trkpt>
      <trkpt lat="44.82539" lon="6.95834">
        <ele>2267.41</ele>
        <time>2013-04-01T11:38:12Z</time>
      </trkpt>
      <trkpt lat="44.82541" lon="6.95825">
        <ele>2265</ele>
        <time>2013-04-01T11:38:26Z</time>
      </trkpt>
      <trkpt lat="44.82542" lon="6.95816">
        <ele>2262.6</ele>
        <time>2013-04-01T11:38:39Z</time>
      </trkpt>
      <trkpt lat="44.82542" lon="6.95812">
        <ele>2261.64</ele>
        <time>2013-04-01T11:38:51Z</time>
      </trkpt>
      <trkpt lat="44.82539" lon="6.95819">
        <ele>2259.72</ele>
        <time>2013-04-01T11:39:03Z</time>
      </trkpt>
      <trkpt lat="44.82532" lon="6.95822">
        <ele>2257.31</ele>
        <time>2013-04-01T11:39:18Z</time>
      </trkpt>
      <trkpt lat="44.8253" lon="6.95813">
        <ele>2254.43</ele>
        <time>2013-04-01T11:39:32Z</time>
      </trkpt>
      <trkpt lat="44.82524" lon="6.9581">
        <ele>2252.51</ele>
        <time>2013-04-01T11:39:46Z</time>
      </trkpt>
      <trkpt lat="44.82521" lon="6.95813">
        <ele>2250.58</ele>
        <time>2013-04-01T11:40:04Z</time>
      </trkpt>
      <trkpt lat="44.82513" lon="6.9581">
        <ele>2247.22</ele>
        <time>2013-04-01T11:40:19Z</time>
      </trkpt>
      <trkpt lat="44.82513" lon="6.95799">
        <ele>2245.78</ele>
        <time>2013-04-01T11:40:31Z</time>
      </trkpt>
      <trkpt lat="44.82514" lon="6.95788">
        <ele>2243.37</ele>
        <time>2013-04-01T11:40:43Z</time>
      </trkpt>
      <trkpt lat="44.82516" lon="6.95775">
        <ele>2240.49</ele>
        <time>2013-04-01T11:40:58Z</time>
      </trkpt>
      <trkpt lat="44.82517" lon="6.9577">
        <ele>2239.05</ele>
        <time>2013-04-01T11:41:10Z</time>
      </trkpt>
      <trkpt lat="44.82519" lon="6.95761">
        <ele>2236.16</ele>
        <time>2013-04-01T11:41:23Z</time>
      </trkpt>
      <trkpt lat="44.82514" lon="6.95765">
        <ele>2234.24</ele>
        <time>2013-04-01T11:41:37Z</time>
      </trkpt>
      <trkpt lat="44.82508" lon="6.95771">
        <ele>2231.84</ele>
        <time>2013-04-01T11:41:52Z</time>
      </trkpt>
      <trkpt lat="44.82502" lon="6.95771">
        <ele>2228.95</ele>
        <time>2013-04-01T11:42:06Z</time>
      </trkpt>
      <trkpt lat="44.82495" lon="6.95761">
        <ele>2225.11</ele>
        <time>2013-04-01T11:42:18Z</time>
      </trkpt>
      <trkpt lat="44.82489" lon="6.95754">
        <ele>2221.74</ele>
        <time>2013-04-01T11:42:30Z</time>
      </trkpt>
      <trkpt lat="44.82491" lon="6.95741">
        <ele>2219.34</ele>
        <time>2013-04-01T11:42:44Z</time>
      </trkpt>
      <trkpt lat="44.82491" lon="6.95734">
        <ele>2217.42</ele>
        <time>2013-04-01T11:42:53Z</time>
      </trkpt>
      <trkpt lat="44.82494" lon="6.9572">
        <ele>2215.01</ele>
        <time>2013-04-01T11:43:07Z</time>
      </trkpt>
      <trkpt lat="44.82496" lon="6.95708">
        <ele>2211.65</ele>
        <time>2013-04-01T11:43:21Z</time>
      </trkpt>
      <trkpt lat="44.82496" lon="6.95707">
        <ele>2211.65</ele>
        <time>2013-04-01T11:43:22Z</time>
      </trkpt>
      <trkpt lat="44.82497" lon="6.95694">
        <ele>2208.29</ele>
        <time>2013-04-01T11:43:36Z</time>
      </trkpt>
      <trkpt lat="44.82497" lon="6.95687">
        <ele>2206.36</ele>
        <time>2013-04-01T11:43:44Z</time>
      </trkpt>
      <trkpt lat="44.82497" lon="6.95679">
        <ele>2204.44</ele>
        <time>2013-04-01T11:43:52Z</time>
      </trkpt>
      <trkpt lat="44.82495" lon="6.95669">
        <ele>2201.08</ele>
        <time>2013-04-01T11:44:07Z</time>
      </trkpt>
      <trkpt lat="44.82489" lon="6.95663">
        <ele>2197.71</ele>
        <time>2013-04-01T11:44:20Z</time>
      </trkpt>
      <trkpt lat="44.82489" lon="6.95662">
        <ele>2197.71</ele>
        <time>2013-04-01T11:44:21Z</time>
      </trkpt>
      <trkpt lat="44.82485" lon="6.95655">
        <ele>2195.79</ele>
        <time>2013-04-01T11:44:29Z</time>
      </trkpt>
      <trkpt lat="44.82484" lon="6.95651">
        <ele>2195.31</ele>
        <time>2013-04-01T11:44:33Z</time>
      </trkpt>
      <trkpt lat="44.8248" lon="6.95638">
        <ele>2192.42</ele>
        <time>2013-04-01T11:44:47Z</time>
      </trkpt>
      <trkpt lat="44.82476" lon="6.95629">
        <ele>2191.46</ele>
        <time>2013-04-01T11:44:56Z</time>
      </trkpt>
      <trkpt lat="44.82476" lon="6.95626">
        <ele>2190.5</ele>
        <time>2013-04-01T11:44:58Z</time>
      </trkpt>
      <trkpt lat="44.82475" lon="6.95623">
        <ele>2189.06</ele>
        <time>2013-04-01T11:45:12Z</time>
      </trkpt>
      <trkpt lat="44.82476" lon="6.95621">
        <ele>2188.1</ele>
        <time>2013-04-01T11:45:24Z</time>
      </trkpt>
      <trkpt lat="44.82478" lon="6.95603">
        <ele>2186.18</ele>
        <time>2013-04-01T11:45:40Z</time>
      </trkpt>
      <trkpt lat="44.82478" lon="6.9559">
        <ele>2184.25</ele>
        <time>2013-04-01T11:45:55Z</time>
      </trkpt>
      <trkpt lat="44.82475" lon="6.95576">
        <ele>2182.33</ele>
        <time>2013-04-01T11:46:08Z</time>
      </trkpt>
      <trkpt lat="44.82477" lon="6.95561">
        <ele>2179.45</ele>
        <time>2013-04-01T11:46:24Z</time>
      </trkpt>
      <trkpt lat="44.82477" lon="6.95559">
        <ele>2178.48</ele>
        <time>2013-04-01T11:46:26Z</time>
      </trkpt>
      <trkpt lat="44.82478" lon="6.95543">
        <ele>2176.08</ele>
        <time>2013-04-01T11:46:41Z</time>
      </trkpt>
      <trkpt lat="44.82482" lon="6.95532">
        <ele>2173.68</ele>
        <time>2013-04-01T11:46:55Z</time>
      </trkpt>
      <trkpt lat="44.82478" lon="6.95521">
        <ele>2170.31</ele>
        <time>2013-04-01T11:47:10Z</time>
      </trkpt>
      <trkpt lat="44.82478" lon="6.95511">
        <ele>2169.35</ele>
        <time>2013-04-01T11:47:24Z</time>
      </trkpt>
      <trkpt lat="44.8248" lon="6.95509">
        <ele>2167.91</ele>
        <time>2013-04-01T11:47:49Z</time>
      </trkpt>
      <trkpt lat="44.82479" lon="6.95492">
        <ele>2164.55</ele>
        <time>2013-04-01T11:48:03Z</time>
      </trkpt>
      <trkpt lat="44.8248" lon="6.95489">
        <ele>2164.06</ele>
        <time>2013-04-01T11:48:06Z</time>
      </trkpt>
      <trkpt lat="44.82482" lon="6.95475">
        <ele>2161.66</ele>
        <time>2013-04-01T11:48:22Z</time>
      </trkpt>
      <trkpt lat="44.82482" lon="6.95465">
        <ele>2158.78</ele>
        <time>2013-04-01T11:48:36Z</time>
      </trkpt>
      <trkpt lat="44.8248" lon="6.95457">
        <ele>2155.41</ele>
        <time>2013-04-01T11:48:50Z</time>
      </trkpt>
      <trkpt lat="44.8248" lon="6.95445">
        <ele>2152.53</ele>
        <time>2013-04-01T11:49:03Z</time>
      </trkpt>
      <trkpt lat="44.8248" lon="6.95445">
        <ele>2152.53</ele>
        <time>2013-04-01T11:49:18Z</time>
      </trkpt>
      <trkpt lat="44.8248" lon="6.95443">
        <ele>2151.09</ele>
        <time>2013-04-01T11:49:24Z</time>
      </trkpt>
      <trkpt lat="44.8248" lon="6.95432">
        <ele>2150.13</ele>
        <time>2013-04-01T11:49:30Z</time>
      </trkpt>
      <trkpt lat="44.82481" lon="6.95417">
        <ele>2147.72</ele>
        <time>2013-04-01T11:49:45Z</time>
      </trkpt>
      <trkpt lat="44.8248" lon="6.95415">
        <ele>2147.72</ele>
        <time>2013-04-01T11:50:00Z</time>
      </trkpt>
      <trkpt lat="44.82479" lon="6.95401">
        <ele>2144.84</ele>
        <time>2013-04-01T11:50:14Z</time>
      </trkpt>
      <trkpt lat="44.8248" lon="6.95386">
        <ele>2142.92</ele>
        <time>2013-04-01T11:50:30Z</time>
      </trkpt>
      <trkpt lat="44.82476" lon="6.95374">
        <ele>2140.03</ele>
        <time>2013-04-01T11:50:42Z</time>
      </trkpt>
      <trkpt lat="44.8248" lon="6.9536">
        <ele>2136.67</ele>
        <time>2013-04-01T11:50:55Z</time>
      </trkpt>
      <trkpt lat="44.82483" lon="6.95352">
        <ele>2132.82</ele>
        <time>2013-04-01T11:51:06Z</time>
      </trkpt>
      <trkpt lat="44.82484" lon="6.95352">
        <ele>2134.74</ele>
        <time>2013-04-01T11:51:21Z</time>
      </trkpt>
      <trkpt lat="44.82484" lon="6.95352">
        <ele>2134.26</ele>
        <time>2013-04-01T11:51:43Z</time>
      </trkpt>
      <trkpt lat="44.82484" lon="6.95353">
        <ele>2134.26</ele>
        <time>2013-04-01T11:52:10Z</time>
      </trkpt>
      <trkpt lat="44.82483" lon="6.95349">
        <ele>2132.34</ele>
        <time>2013-04-01T11:52:23Z</time>
      </trkpt>
      <trkpt lat="44.82478" lon="6.95338">
        <ele>2130.42</ele>
        <time>2013-04-01T11:52:35Z</time>
      </trkpt>
      <trkpt lat="44.82477" lon="6.95335">
        <ele>2128.98</ele>
        <time>2013-04-01T11:52:38Z</time>
      </trkpt>
      <trkpt lat="44.82475" lon="6.95332">
        <ele>2125.61</ele>
        <time>2013-04-01T11:52:49Z</time>
      </trkpt>
      <trkpt lat="44.82476" lon="6.95328">
        <ele>2123.69</ele>
        <time>2013-04-01T11:52:56Z</time>
      </trkpt>
      <trkpt lat="44.82475" lon="6.95323">
        <ele>2122.73</ele>
        <time>2013-04-01T11:53:12Z</time>
      </trkpt>
      <trkpt lat="44.82475" lon="6.95323">
        <ele>2122.73</ele>
        <time>2013-04-01T11:53:35Z</time>
      </trkpt>
      <trkpt lat="44.82475" lon="6.95323">
        <ele>2122.73</ele>
        <time>2013-04-01T11:53:58Z</time>
      </trkpt>
      <trkpt lat="44.82475" lon="6.95323">
        <ele>2122.73</ele>
        <time>2013-04-01T11:54:21Z</time>
      </trkpt>
      <trkpt lat="44.82475" lon="6.95323">
        <ele>2122.73</ele>
        <time>2013-04-01T11:54:55Z</time>
      </trkpt>
      <trkpt lat="44.82475" lon="6.95323">
        <ele>2123.21</ele>
        <time>2013-04-01T11:55:20Z</time>
      </trkpt>
      <trkpt lat="44.82475" lon="6.95323">
        <ele>2123.21</ele>
        <time>2013-04-01T11:55:46Z</time>
      </trkpt>
      <trkpt lat="44.82475" lon="6.95323">
        <ele>2123.21</ele>
        <time>2013-04-01T11:56:13Z</time>
      </trkpt>
      <trkpt lat="44.82475" lon="6.95318">
        <ele>2121.77</ele>
        <time>2013-04-01T11:56:31Z</time>
      </trkpt>
      <trkpt lat="44.82474" lon="6.9531">
        <ele>2118.88</ele>
        <time>2013-04-01T11:56:41Z</time>
      </trkpt>
      <trkpt lat="44.82473" lon="6.95303">
        <ele>2116.96</ele>
        <time>2013-04-01T11:56:56Z</time>
      </trkpt>
      <trkpt lat="44.8247" lon="6.95302">
        <ele>2115.52</ele>
        <time>2013-04-01T11:57:11Z</time>
      </trkpt>
      <trkpt lat="44.82464" lon="6.95294">
        <ele>2113.6</ele>
        <time>2013-04-01T11:57:27Z</time>
      </trkpt>
      <trkpt lat="44.82459" lon="6.95284">
        <ele>2110.71</ele>
        <time>2013-04-01T11:57:41Z</time>
      </trkpt>
      <trkpt lat="44.82457" lon="6.95282">
        <ele>2110.23</ele>
        <time>2013-04-01T11:57:44Z</time>
      </trkpt>
      <trkpt lat="44.82454" lon="6.95268">
        <ele>2107.35</ele>
        <time>2013-04-01T11:57:58Z</time>
      </trkpt>
      <trkpt lat="44.82455" lon="6.9526">
        <ele>2104.46</ele>
        <time>2013-04-01T11:58:11Z</time>
      </trkpt>
      <trkpt lat="44.82465" lon="6.95251">
        <ele>2103.02</ele>
        <time>2013-04-01T11:58:25Z</time>
      </trkpt>
      <trkpt lat="44.8247" lon="6.95247">
        <ele>2102.54</ele>
        <time>2013-04-01T11:58:31Z</time>
      </trkpt>
      <trkpt lat="44.82477" lon="6.95246">
        <ele>2101.58</ele>
        <time>2013-04-01T11:58:48Z</time>
      </trkpt>
      <trkpt lat="44.82481" lon="6.9524">
        <ele>2099.18</ele>
        <time>2013-04-01T11:59:02Z</time>
      </trkpt>
      <trkpt lat="44.82482" lon="6.95236">
        <ele>2097.73</ele>
        <time>2013-04-01T11:59:15Z</time>
      </trkpt>
      <trkpt lat="44.82483" lon="6.95233">
        <ele>2096.77</ele>
        <time>2013-04-01T11:59:29Z</time>
      </trkpt>
      <trkpt lat="44.82483" lon="6.95232">
        <ele>2094.85</ele>
        <time>2013-04-01T11:59:35Z</time>
      </trkpt>
      <trkpt lat="44.82483" lon="6.95225">
        <ele>2092.93</ele>
        <time>2013-04-01T11:59:49Z</time>
      </trkpt>
      <trkpt lat="44.82484" lon="6.95219">
        <ele>2089.56</ele>
        <time>2013-04-01T12:00:01Z</time>
      </trkpt>
      <trkpt lat="44.82486" lon="6.95211">
        <ele>2087.16</ele>
        <time>2013-04-01T12:00:15Z</time>
      </trkpt>
      <trkpt lat="44.82486" lon="6.95205">
        <ele>2085.72</ele>
        <time>2013-04-01T12:00:28Z</time>
      </trkpt>
      <trkpt lat="44.82496" lon="6.95195">
        <ele>2082.83</ele>
        <time>2013-04-01T12:00:44Z</time>
      </trkpt>
      <trkpt lat="44.82502" lon="6.95188">
        <ele>2080.43</ele>
        <time>2013-04-01T12:00:57Z</time>
      </trkpt>
      <trkpt lat="44.82509" lon="6.95184">
        <ele>2078.51</ele>
        <time>2013-04-01T12:01:10Z</time>
      </trkpt>
      <trkpt lat="44.82514" lon="6.95178">
        <ele>2075.14</ele>
        <time>2013-04-01T12:01:24Z</time>
      </trkpt>
      <trkpt lat="44.82517" lon="6.95174">
        <ele>2073.7</ele>
        <time>2013-04-01T12:01:38Z</time>
      </trkpt>
      <trkpt lat="44.8252" lon="6.95167">
        <ele>2072.74</ele>
        <time>2013-04-01T12:01:51Z</time>
      </trkpt>
      <trkpt lat="44.82524" lon="6.95164">
        <ele>2071.78</ele>
        <time>2013-04-01T12:02:04Z</time>
      </trkpt>
      <trkpt lat="44.82536" lon="6.95165">
        <ele>2071.3</ele>
        <time>2013-04-01T12:02:20Z</time>
      </trkpt>
      <trkpt lat="44.82536" lon="6.95164">
        <ele>2070.82</ele>
        <time>2013-04-01T12:02:22Z</time>
      </trkpt>
      <trkpt lat="44.82539" lon="6.9516">
        <ele>2068.89</ele>
        <time>2013-04-01T12:02:34Z</time>
      </trkpt>
      <trkpt lat="44.82544" lon="6.95158">
        <ele>2067.93</ele>
        <time>2013-04-01T12:02:48Z</time>
      </trkpt>
      <trkpt lat="44.8255" lon="6.95154">
        <ele>2066.97</ele>
        <time>2013-04-01T12:03:02Z</time>
      </trkpt>
      <trkpt lat="44.82555" lon="6.95152">
        <ele>2065.53</ele>
        <time>2013-04-01T12:03:16Z</time>
      </trkpt>
      <trkpt lat="44.82558" lon="6.95149">
        <ele>2063.61</ele>
        <time>2013-04-01T12:03:33Z</time>
      </trkpt>
      <trkpt lat="44.82558" lon="6.95145">
        <ele>2061.68</ele>
        <time>2013-04-01T12:03:39Z</time>
      </trkpt>
      <trkpt lat="44.82562" lon="6.9514">
        <ele>2059.28</ele>
        <time>2013-04-01T12:03:52Z</time>
      </trkpt>
      <trkpt lat="44.82562" lon="6.95139">
        <ele>2059.28</ele>
        <time>2013-04-01T12:04:05Z</time>
      </trkpt>
      <trkpt lat="44.82561" lon="6.95131">
        <ele>2056.4</ele>
        <time>2013-04-01T12:04:23Z</time>
      </trkpt>
      <trkpt lat="44.82558" lon="6.95124">
        <ele>2052.07</ele>
        <time>2013-04-01T12:04:34Z</time>
      </trkpt>
      <trkpt lat="44.82557" lon="6.95117">
        <ele>2050.15</ele>
        <time>2013-04-01T12:04:46Z</time>
      </trkpt>
      <trkpt lat="44.82554" lon="6.95108">
        <ele>2047.26</ele>
        <time>2013-04-01T12:05:01Z</time>
      </trkpt>
      <trkpt lat="44.8255" lon="6.95098">
        <ele>2044.38</ele>
        <time>2013-04-01T12:05:14Z</time>
      </trkpt>
      <trkpt lat="44.82542" lon="6.95093">
        <ele>2043.9</ele>
        <time>2013-04-01T12:05:28Z</time>
      </trkpt>
      <trkpt lat="44.82541" lon="6.95092">
        <ele>2043.9</ele>
        <time>2013-04-01T12:05:43Z</time>
      </trkpt>
      <trkpt lat="44.82535" lon="6.9509">
        <ele>2042.46</ele>
        <time>2013-04-01T12:05:59Z</time>
      </trkpt>
      <trkpt lat="44.82534" lon="6.95091">
        <ele>2042.46</ele>
        <time>2013-04-01T12:06:01Z</time>
      </trkpt>
      <trkpt lat="44.82527" lon="6.95087">
        <ele>2040.54</ele>
        <time>2013-04-01T12:06:15Z</time>
      </trkpt>
      <trkpt lat="44.82523" lon="6.9508">
        <ele>2038.61</ele>
        <time>2013-04-01T12:06:29Z</time>
      </trkpt>
      <trkpt lat="44.82515" lon="6.95077">
        <ele>2036.21</ele>
        <time>2013-04-01T12:06:44Z</time>
      </trkpt>
      <trkpt lat="44.82509" lon="6.95074">
        <ele>2035.25</ele>
        <time>2013-04-01T12:06:55Z</time>
      </trkpt>
      <trkpt lat="44.82505" lon="6.95066">
        <ele>2031.88</ele>
        <time>2013-04-01T12:07:08Z</time>
      </trkpt>
      <trkpt lat="44.825" lon="6.9506">
        <ele>2030.44</ele>
        <time>2013-04-01T12:07:21Z</time>
      </trkpt>
      <trkpt lat="44.82497" lon="6.95059">
        <ele>2029.48</ele>
        <time>2013-04-01T12:07:34Z</time>
      </trkpt>
      <trkpt lat="44.82495" lon="6.95059">
        <ele>2028.52</ele>
        <time>2013-04-01T12:07:37Z</time>
      </trkpt>
      <trkpt lat="44.82486" lon="6.95053">
        <ele>2025.64</ele>
        <time>2013-04-01T12:07:52Z</time>
      </trkpt>
      <trkpt lat="44.8248" lon="6.95037">
        <ele>2022.75</ele>
        <time>2013-04-01T12:08:07Z</time>
      </trkpt>
      <trkpt lat="44.82479" lon="6.95035">
        <ele>2023.23</ele>
        <time>2013-04-01T12:08:09Z</time>
      </trkpt>
      <trkpt lat="44.82476" lon="6.95028">
        <ele>2021.79</ele>
        <time>2013-04-01T12:08:23Z</time>
      </trkpt>
      <trkpt lat="44.82475" lon="6.9502">
        <ele>2021.31</ele>
        <time>2013-04-01T12:08:30Z</time>
      </trkpt>
      <trkpt lat="44.82474" lon="6.95013">
        <ele>2020.35</ele>
        <time>2013-04-01T12:08:42Z</time>
      </trkpt>
      <trkpt lat="44.82474" lon="6.95006">
        <ele>2019.87</ele>
        <time>2013-04-01T12:08:49Z</time>
      </trkpt>
      <trkpt lat="44.82475" lon="6.94991">
        <ele>2017.94</ele>
        <time>2013-04-01T12:09:04Z</time>
      </trkpt>
      <trkpt lat="44.82478" lon="6.94978">
        <ele>2015.06</ele>
        <time>2013-04-01T12:09:19Z</time>
      </trkpt>
      <trkpt lat="44.8248" lon="6.94966">
        <ele>2013.14</ele>
        <time>2013-04-01T12:09:33Z</time>
      </trkpt>
      <trkpt lat="44.8248" lon="6.94955">
        <ele>2010.73</ele>
        <time>2013-04-01T12:09:46Z</time>
      </trkpt>
      <trkpt lat="44.82482" lon="6.94941">
        <ele>2008.81</ele>
        <time>2013-04-01T12:10:02Z</time>
      </trkpt>
      <trkpt lat="44.82481" lon="6.94928">
        <ele>2006.89</ele>
        <time>2013-04-01T12:10:18Z</time>
      </trkpt>
      <trkpt lat="44.82482" lon="6.94918">
        <ele>2004.49</ele>
        <time>2013-04-01T12:10:28Z</time>
      </trkpt>
      <trkpt lat="44.82483" lon="6.94915">
        <ele>2003.52</ele>
        <time>2013-04-01T12:10:42Z</time>
      </trkpt>
      <trkpt lat="44.82484" lon="6.94908">
        <ele>2001.6</ele>
        <time>2013-04-01T12:11:03Z</time>
      </trkpt>
      <trkpt lat="44.82488" lon="6.94896">
        <ele>1999.68</ele>
        <time>2013-04-01T12:11:16Z</time>
      </trkpt>
      <trkpt lat="44.82489" lon="6.94893">
        <ele>1998.24</ele>
        <time>2013-04-01T12:11:19Z</time>
      </trkpt>
      <trkpt lat="44.82494" lon="6.94882">
        <ele>1995.35</ele>
        <time>2013-04-01T12:11:35Z</time>
      </trkpt>
      <trkpt lat="44.82499" lon="6.9487">
        <ele>1993.43</ele>
        <time>2013-04-01T12:11:50Z</time>
      </trkpt>
      <trkpt lat="44.825" lon="6.94861">
        <ele>1991.51</ele>
        <time>2013-04-01T12:12:03Z</time>
      </trkpt>
      <trkpt lat="44.82501" lon="6.94851">
        <ele>1988.62</ele>
        <time>2013-04-01T12:12:15Z</time>
      </trkpt>
      <trkpt lat="44.825" lon="6.94839">
        <ele>1986.22</ele>
        <time>2013-04-01T12:12:29Z</time>
      </trkpt>
      <trkpt lat="44.82499" lon="6.94835">
        <ele>1986.22</ele>
        <time>2013-04-01T12:12:41Z</time>
      </trkpt>
      <trkpt lat="44.82499" lon="6.94833">
        <ele>1985.74</ele>
        <time>2013-04-01T12:13:05Z</time>
      </trkpt>
      <trkpt lat="44.825" lon="6.94822">
        <ele>1983.82</ele>
        <time>2013-04-01T12:13:18Z</time>
      </trkpt>
      <trkpt lat="44.82502" lon="6.94811">
        <ele>1981.41</ele>
        <time>2013-04-01T12:13:31Z</time>
      </trkpt>
      <trkpt lat="44.82504" lon="6.94802">
        <ele>1979.01</ele>
        <time>2013-04-01T12:13:45Z</time>
      </trkpt>
      <trkpt lat="44.82506" lon="6.94792">
        <ele>1976.13</ele>
        <time>2013-04-01T12:13:59Z</time>
      </trkpt>
      <trkpt lat="44.82505" lon="6.94782">
        <ele>1973.72</ele>
        <time>2013-04-01T12:14:12Z</time>
      </trkpt>
      <trkpt lat="44.82504" lon="6.94772">
        <ele>1970.84</ele>
        <time>2013-04-01T12:14:26Z</time>
      </trkpt>
      <trkpt lat="44.82504" lon="6.9476">
        <ele>1968.44</ele>
        <time>2013-04-01T12:14:39Z</time>
      </trkpt>
      <trkpt lat="44.82504" lon="6.94751">
        <ele>1966.03</ele>
        <time>2013-04-01T12:14:52Z</time>
      </trkpt>
      <trkpt lat="44.82506" lon="6.94748">
        <ele>1963.63</ele>
        <time>2013-04-01T12:15:01Z</time>
      </trkpt>
      <trkpt lat="44.82507" lon="6.94742">
        <ele>1962.19</ele>
        <time>2013-04-01T12:15:12Z</time>
      </trkpt>
      <trkpt lat="44.82509" lon="6.94737">
        <ele>1960.75</ele>
        <time>2013-04-01T12:15:17Z</time>
      </trkpt>
      <trkpt lat="44.82509" lon="6.94728">
        <ele>1959.3</ele>
        <time>2013-04-01T12:15:29Z</time>
      </trkpt>
      <trkpt lat="44.8251" lon="6.94725">
        <ele>1958.82</ele>
        <time>2013-04-01T12:15:44Z</time>
      </trkpt>
      <trkpt lat="44.82511" lon="6.94718">
        <ele>1956.9</ele>
        <time>2013-04-01T12:15:58Z</time>
      </trkpt>
      <trkpt lat="44.82513" lon="6.94706">
        <ele>1953.06</ele>
        <time>2013-04-01T12:16:11Z</time>
      </trkpt>
      <trkpt lat="44.82516" lon="6.94695">
        <ele>1951.61</ele>
        <time>2013-04-01T12:16:25Z</time>
      </trkpt>
      <trkpt lat="44.82514" lon="6.94683">
        <ele>1948.73</ele>
        <time>2013-04-01T12:16:39Z</time>
      </trkpt>
      <trkpt lat="44.82512" lon="6.94673">
        <ele>1946.33</ele>
        <time>2013-04-01T12:16:53Z</time>
      </trkpt>
      <trkpt lat="44.82513" lon="6.94663">
        <ele>1945.85</ele>
        <time>2013-04-01T12:17:14Z</time>
      </trkpt>
      <trkpt lat="44.8251" lon="6.94659">
        <ele>1943.92</ele>
        <time>2013-04-01T12:17:28Z</time>
      </trkpt>
      <trkpt lat="44.82505" lon="6.94665">
        <ele>1941.52</ele>
        <time>2013-04-01T12:17:41Z</time>
      </trkpt>
      <trkpt lat="44.82499" lon="6.94669">
        <ele>1939.6</ele>
        <time>2013-04-01T12:17:53Z</time>
      </trkpt>
      <trkpt lat="44.82491" lon="6.94673">
        <ele>1936.71</ele>
        <time>2013-04-01T12:18:07Z</time>
      </trkpt>
      <trkpt lat="44.82486" lon="6.94673">
        <ele>1934.31</ele>
        <time>2013-04-01T12:18:21Z</time>
      </trkpt>
      <trkpt lat="44.82478" lon="6.94666">
        <ele>1931.43</ele>
        <time>2013-04-01T12:18:34Z</time>
      </trkpt>
      <trkpt lat="44.82472" lon="6.9466">
        <ele>1928.54</ele>
        <time>2013-04-01T12:18:46Z</time>
      </trkpt>
      <trkpt lat="44.82467" lon="6.94656">
        <ele>1926.62</ele>
        <time>2013-04-01T12:18:59Z</time>
      </trkpt>
      <trkpt lat="44.82462" lon="6.94655">
        <ele>1924.7</ele>
        <time>2013-04-01T12:19:07Z</time>
      </trkpt>
      <trkpt lat="44.82457" lon="6.94646">
        <ele>1921.33</ele>
        <time>2013-04-01T12:19:18Z</time>
      </trkpt>
      <trkpt lat="44.82454" lon="6.94644">
        <ele>1919.41</ele>
        <time>2013-04-01T12:19:22Z</time>
      </trkpt>
      <trkpt lat="44.82454" lon="6.94644">
        <ele>1919.41</ele>
        <time>2013-04-01T12:19:23Z</time>
      </trkpt>
      <trkpt lat="44.82448" lon="6.94639">
        <ele>1916.53</ele>
        <time>2013-04-01T12:19:35Z</time>
      </trkpt>
      <trkpt lat="44.82445" lon="6.94633">
        <ele>1913.16</ele>
        <time>2013-04-01T12:19:45Z</time>
      </trkpt>
      <trkpt lat="44.82442" lon="6.94627">
        <ele>1910.76</ele>
        <time>2013-04-01T12:20:00Z</time>
      </trkpt>
      <trkpt lat="44.82436" lon="6.94618">
        <ele>1908.35</ele>
        <time>2013-04-01T12:20:11Z</time>
      </trkpt>
      <trkpt lat="44.82431" lon="6.94608">
        <ele>1905.95</ele>
        <time>2013-04-01T12:20:24Z</time>
      </trkpt>
      <trkpt lat="44.82428" lon="6.94597">
        <ele>1902.11</ele>
        <time>2013-04-01T12:20:36Z</time>
      </trkpt>
      <trkpt lat="44.82425" lon="6.94592">
        <ele>1900.18</ele>
        <time>2013-04-01T12:20:50Z</time>
      </trkpt>
      <trkpt lat="44.82424" lon="6.94587">
        <ele>1899.22</ele>
        <time>2013-04-01T12:20:53Z</time>
      </trkpt>
      <trkpt lat="44.82422" lon="6.94583">
        <ele>1897.78</ele>
        <time>2013-04-01T12:20:58Z</time>
      </trkpt>
      <trkpt lat="44.82418" lon="6.94573">
        <ele>1894.42</ele>
        <time>2013-04-01T12:21:08Z</time>
      </trkpt>
      <trkpt lat="44.82416" lon="6.94571">
        <ele>1894.42</ele>
        <time>2013-04-01T12:21:12Z</time>
      </trkpt>
      <trkpt lat="44.8241" lon="6.94566">
        <ele>1890.57</ele>
        <time>2013-04-01T12:21:23Z</time>
      </trkpt>
      <trkpt lat="44.82407" lon="6.94565">
        <ele>1888.17</ele>
        <time>2013-04-01T12:21:30Z</time>
      </trkpt>
      <trkpt lat="44.82398" lon="6.94559">
        <ele>1885.28</ele>
        <time>2013-04-01T12:21:43Z</time>
      </trkpt>
      <trkpt lat="44.8239" lon="6.94554">
        <ele>1881.44</ele>
        <time>2013-04-01T12:21:56Z</time>
      </trkpt>
      <trkpt lat="44.82382" lon="6.94552">
        <ele>1879.51</ele>
        <time>2013-04-01T12:22:08Z</time>
      </trkpt>
      <trkpt lat="44.82377" lon="6.94547">
        <ele>1876.15</ele>
        <time>2013-04-01T12:22:18Z</time>
      </trkpt>
      <trkpt lat="44.82371" lon="6.94544">
        <ele>1873.75</ele>
        <time>2013-04-01T12:22:31Z</time>
      </trkpt>
      <trkpt lat="44.82369" lon="6.94545">
        <ele>1872.3</ele>
        <time>2013-04-01T12:22:43Z</time>
      </trkpt>
      <trkpt lat="44.82364" lon="6.9454">
        <ele>1869.42</ele>
        <time>2013-04-01T12:22:56Z</time>
      </trkpt>
      <trkpt lat="44.82364" lon="6.94539">
        <ele>1869.42</ele>
        <time>2013-04-01T12:22:57Z</time>
      </trkpt>
      <trkpt lat="44.82354" lon="6.94536">
        <ele>1867.02</ele>
        <time>2013-04-01T12:23:11Z</time>
      </trkpt>
      <trkpt lat="44.82349" lon="6.94527">
        <ele>1863.65</ele>
        <time>2013-04-01T12:23:23Z</time>
      </trkpt>
      <trkpt lat="44.82349" lon="6.94521">
        <ele>1860.77</ele>
        <time>2013-04-01T12:23:36Z</time>
      </trkpt>
      <trkpt lat="44.82346" lon="6.94514">
        <ele>1857.89</ele>
        <time>2013-04-01T12:23:48Z</time>
      </trkpt>
      <trkpt lat="44.82343" lon="6.9451">
        <ele>1855.48</ele>
        <time>2013-04-01T12:23:59Z</time>
      </trkpt>
      <trkpt lat="44.82344" lon="6.94505">
        <ele>1854.04</ele>
        <time>2013-04-01T12:24:11Z</time>
      </trkpt>
      <trkpt lat="44.82345" lon="6.94502">
        <ele>1853.56</ele>
        <time>2013-04-01T12:24:22Z</time>
      </trkpt>
      <trkpt lat="44.82345" lon="6.94502">
        <ele>1853.56</ele>
        <time>2013-04-01T12:24:40Z</time>
      </trkpt>
      <trkpt lat="44.82345" lon="6.94502">
        <ele>1853.56</ele>
        <time>2013-04-01T12:25:01Z</time>
      </trkpt>
      <trkpt lat="44.82339" lon="6.945">
        <ele>1851.64</ele>
        <time>2013-04-01T12:25:17Z</time>
      </trkpt>
      <trkpt lat="44.82332" lon="6.94502">
        <ele>1850.19</ele>
        <time>2013-04-01T12:25:27Z</time>
      </trkpt>
      <trkpt lat="44.82328" lon="6.94501">
        <ele>1848.75</ele>
        <time>2013-04-01T12:25:31Z</time>
      </trkpt>
      <trkpt lat="44.82325" lon="6.945">
        <ele>1847.79</ele>
        <time>2013-04-01T12:25:45Z</time>
      </trkpt>
      <trkpt lat="44.82321" lon="6.94501">
        <ele>1847.31</ele>
        <time>2013-04-01T12:25:51Z</time>
      </trkpt>
      <trkpt lat="44.8231" lon="6.94502">
        <ele>1845.39</ele>
        <time>2013-04-01T12:26:07Z</time>
      </trkpt>
      <trkpt lat="44.82299" lon="6.94501">
        <ele>1842.98</ele>
        <time>2013-04-01T12:26:23Z</time>
      </trkpt>
      <trkpt lat="44.82289" lon="6.94499">
        <ele>1841.06</ele>
        <time>2013-04-01T12:26:39Z</time>
      </trkpt>
      <trkpt lat="44.82281" lon="6.94505">
        <ele>1839.14</ele>
        <time>2013-04-01T12:26:53Z</time>
      </trkpt>
      <trkpt lat="44.82274" lon="6.94504">
        <ele>1836.26</ele>
        <time>2013-04-01T12:27:04Z</time>
      </trkpt>
      <trkpt lat="44.82265" lon="6.94498">
        <ele>1833.37</ele>
        <time>2013-04-01T12:27:19Z</time>
      </trkpt>
      <trkpt lat="44.82263" lon="6.94496">
        <ele>1831.93</ele>
        <time>2013-04-01T12:27:37Z</time>
      </trkpt>
      <trkpt lat="44.8226" lon="6.94493">
        <ele>1830.97</ele>
        <time>2013-04-01T12:28:01Z</time>
      </trkpt>
      <trkpt lat="44.82251" lon="6.94493">
        <ele>1828.08</ele>
        <time>2013-04-01T12:28:15Z</time>
      </trkpt>
      <trkpt lat="44.82242" lon="6.94492">
        <ele>1825.2</ele>
        <time>2013-04-01T12:28:30Z</time>
      </trkpt>
      <trkpt lat="44.82241" lon="6.94483">
        <ele>1822.8</ele>
        <time>2013-04-01T12:28:43Z</time>
      </trkpt>
      <trkpt lat="44.8224" lon="6.94479">
        <ele>1821.35</ele>
        <time>2013-04-01T12:28:56Z</time>
      </trkpt>
      <trkpt lat="44.82233" lon="6.94483">
        <ele>1818.95</ele>
        <time>2013-04-01T12:29:08Z</time>
      </trkpt>
      <trkpt lat="44.82226" lon="6.94478">
        <ele>1816.07</ele>
        <time>2013-04-01T12:29:21Z</time>
      </trkpt>
      <trkpt lat="44.82224" lon="6.94473">
        <ele>1814.63</ele>
        <time>2013-04-01T12:29:27Z</time>
      </trkpt>
      <trkpt lat="44.82224" lon="6.94464">
        <ele>1813.66</ele>
        <time>2013-04-01T12:29:40Z</time>
      </trkpt>
      <trkpt lat="44.82221" lon="6.9446">
        <ele>1810.78</ele>
        <time>2013-04-01T12:29:53Z</time>
      </trkpt>
      <trkpt lat="44.82214" lon="6.94455">
        <ele>1807.42</ele>
        <time>2013-04-01T12:30:06Z</time>
      </trkpt>
      <trkpt lat="44.82207" lon="6.94447">
        <ele>1804.05</ele>
        <time>2013-04-01T12:30:22Z</time>
      </trkpt>
      <trkpt lat="44.822" lon="6.94442">
        <ele>1802.13</ele>
        <time>2013-04-01T12:30:36Z</time>
      </trkpt>
      <trkpt lat="44.82193" lon="6.94441">
        <ele>1798.76</ele>
        <time>2013-04-01T12:30:49Z</time>
      </trkpt>
      <trkpt lat="44.82187" lon="6.94439">
        <ele>1796.84</ele>
        <time>2013-04-01T12:31:01Z</time>
      </trkpt>
      <trkpt lat="44.82182" lon="6.94438">
        <ele>1794.44</ele>
        <time>2013-04-01T12:31:16Z</time>
      </trkpt>
      <trkpt lat="44.82175" lon="6.94441">
        <ele>1792.52</ele>
        <time>2013-04-01T12:31:28Z</time>
      </trkpt>
      <trkpt lat="44.82169" lon="6.94435">
        <ele>1789.63</ele>
        <time>2013-04-01T12:31:40Z</time>
      </trkpt>
      <trkpt lat="44.82169" lon="6.94424">
        <ele>1787.71</ele>
        <time>2013-04-01T12:31:54Z</time>
      </trkpt>
      <trkpt lat="44.82168" lon="6.94417">
        <ele>1785.79</ele>
        <time>2013-04-01T12:32:08Z</time>
      </trkpt>
      <trkpt lat="44.82164" lon="6.9441">
        <ele>1782.9</ele>
        <time>2013-04-01T12:32:21Z</time>
      </trkpt>
      <trkpt lat="44.82163" lon="6.94413">
        <ele>1781.94</ele>
        <time>2013-04-01T12:32:38Z</time>
      </trkpt>
      <trkpt lat="44.82158" lon="6.94408">
        <ele>1780.02</ele>
        <time>2013-04-01T12:32:50Z</time>
      </trkpt>
      <trkpt lat="44.82153" lon="6.94399">
        <ele>1777.13</ele>
        <time>2013-04-01T12:33:05Z</time>
      </trkpt>
      <trkpt lat="44.82152" lon="6.94407">
        <ele>1776.17</ele>
        <time>2013-04-01T12:33:20Z</time>
      </trkpt>
      <trkpt lat="44.82152" lon="6.94407">
        <ele>1776.17</ele>
        <time>2013-04-01T12:33:41Z</time>
      </trkpt>
      <trkpt lat="44.82151" lon="6.94406">
        <ele>1776.17</ele>
        <time>2013-04-01T12:33:59Z</time>
      </trkpt>
      <trkpt lat="44.82146" lon="6.94414">
        <ele>1775.69</ele>
        <time>2013-04-01T12:34:13Z</time>
      </trkpt>
      <trkpt lat="44.82144" lon="6.94419">
        <ele>1775.69</ele>
        <time>2013-04-01T12:34:19Z</time>
      </trkpt>
      <trkpt lat="44.82135" lon="6.94428">
        <ele>1773.29</ele>
        <time>2013-04-01T12:34:34Z</time>
      </trkpt>
      <trkpt lat="44.82127" lon="6.94431">
        <ele>1769.92</ele>
        <time>2013-04-01T12:34:45Z</time>
      </trkpt>
      <trkpt lat="44.82127" lon="6.94431">
        <ele>1770.41</ele>
        <time>2013-04-01T12:34:46Z</time>
      </trkpt>
      <trkpt lat="44.82122" lon="6.94432">
        <ele>1770.41</ele>
        <time>2013-04-01T12:34:50Z</time>
      </trkpt>
      <trkpt lat="44.82113" lon="6.94433">
        <ele>1771.37</ele>
        <time>2013-04-01T12:35:04Z</time>
      </trkpt>
      <trkpt lat="44.82104" lon="6.94437">
        <ele>1769.92</ele>
        <time>2013-04-01T12:35:17Z</time>
      </trkpt>
      <trkpt lat="44.8209" lon="6.94443">
        <ele>1771.85</ele>
        <time>2013-04-01T12:35:33Z</time>
      </trkpt>
      <trkpt lat="44.82078" lon="6.94439">
        <ele>1771.37</ele>
        <time>2013-04-01T12:35:48Z</time>
      </trkpt>
      <trkpt lat="44.82069" lon="6.94439">
        <ele>1770.41</ele>
        <time>2013-04-01T12:36:02Z</time>
      </trkpt>
      <trkpt lat="44.82057" lon="6.94445">
        <ele>1769.44</ele>
        <time>2013-04-01T12:36:17Z</time>
      </trkpt>
      <trkpt lat="44.82043" lon="6.94452">
        <ele>1768</ele>
        <time>2013-04-01T12:36:32Z</time>
      </trkpt>
      <trkpt lat="44.82033" lon="6.94455">
        <ele>1765.6</ele>
        <time>2013-04-01T12:36:43Z</time>
      </trkpt>
      <trkpt lat="44.82024" lon="6.94457">
        <ele>1767.04</ele>
        <time>2013-04-01T12:36:58Z</time>
      </trkpt>
      <trkpt lat="44.82021" lon="6.94456">
        <ele>1766.56</ele>
        <time>2013-04-01T12:37:01Z</time>
      </trkpt>
      <trkpt lat="44.82007" lon="6.94441">
        <ele>1765.6</ele>
        <time>2013-04-01T12:37:18Z</time>
      </trkpt>
      <trkpt lat="44.82" lon="6.94432">
        <ele>1765.6</ele>
        <time>2013-04-01T12:37:28Z</time>
      </trkpt>
      <trkpt lat="44.81988" lon="6.9442">
        <ele>1763.68</ele>
        <time>2013-04-01T12:37:45Z</time>
      </trkpt>
      <trkpt lat="44.81978" lon="6.94413">
        <ele>1763.68</ele>
        <time>2013-04-01T12:38:00Z</time>
      </trkpt>
      <trkpt lat="44.81968" lon="6.94417">
        <ele>1764.16</ele>
        <time>2013-04-01T12:38:16Z</time>
      </trkpt>
      <trkpt lat="44.81968" lon="6.94417">
        <ele>1763.68</ele>
        <time>2013-04-01T12:38:32Z</time>
      </trkpt>
      <trkpt lat="44.81968" lon="6.94414">
        <ele>1763.68</ele>
        <time>2013-04-01T12:38:45Z</time>
      </trkpt>
      <trkpt lat="44.81968" lon="6.94415">
        <ele>1764.16</ele>
        <time>2013-04-01T12:39:02Z</time>
      </trkpt>
      <trkpt lat="44.81968" lon="6.94413">
        <ele>1762.71</ele>
        <time>2013-04-01T12:39:17Z</time>
      </trkpt>
      <trkpt lat="44.81968" lon="6.94413">
        <ele>1763.2</ele>
        <time>2013-04-01T12:39:40Z</time>
      </trkpt>
      <trkpt lat="44.81968" lon="6.94413">
        <ele>1762.71</ele>
        <time>2013-04-01T12:40:03Z</time>
      </trkpt>
      <trkpt lat="44.81966" lon="6.94412">
        <ele>1762.71</ele>
        <time>2013-04-01T12:40:28Z</time>
      </trkpt>
      <trkpt lat="44.81966" lon="6.94412">
        <ele>1762.71</ele>
        <time>2013-04-01T12:40:57Z</time>
      </trkpt>
      <trkpt lat="44.81967" lon="6.94411">
        <ele>1762.23</ele>
        <time>2013-04-01T12:41:23Z</time>
      </trkpt>
      <trkpt lat="44.81966" lon="6.94411">
        <ele>1763.2</ele>
        <time>2013-04-01T12:41:45Z</time>
      </trkpt>
      <trkpt lat="44.81966" lon="6.94411">
        <ele>1762.71</ele>
        <time>2013-04-01T12:42:03Z</time>
      </trkpt>
      <trkpt lat="44.81966" lon="6.94411">
        <ele>1763.68</ele>
        <time>2013-04-01T12:42:20Z</time>
      </trkpt>
      <trkpt lat="44.81965" lon="6.94412">
        <ele>1763.68</ele>
        <time>2013-04-01T12:42:39Z</time>
      </trkpt>
      <trkpt lat="44.81965" lon="6.94412">
        <ele>1763.2</ele>
        <time>2013-04-01T12:43:07Z</time>
      </trkpt>
      <trkpt lat="44.81965" lon="6.94412">
        <ele>1763.2</ele>
        <time>2013-04-01T12:43:40Z</time>
      </trkpt>
      <trkpt lat="44.81965" lon="6.94412">
        <ele>1761.75</ele>
        <time>2013-04-01T12:43:43Z</time>
      </trkpt>
      <trkpt lat="44.81965" lon="6.94412">
        <ele>1762.71</ele>
        <time>2013-04-01T12:44:13Z</time>
      </trkpt>
      <trkpt lat="44.81965" lon="6.94412">
        <ele>1762.71</ele>
        <time>2013-04-01T12:44:46Z</time>
      </trkpt>
      <trkpt lat="44.81965" lon="6.94412">
        <ele>1763.2</ele>
        <time>2013-04-01T12:45:15Z</time>
      </trkpt>
      <trkpt lat="44.81965" lon="6.94412">
        <ele>1763.68</ele>
        <time>2013-04-01T12:45:47Z</time>
      </trkpt>
      <trkpt lat="44.81965" lon="6.94411">
        <ele>1762.71</ele>
        <time>2013-04-01T12:46:22Z</time>
      </trkpt>
      <trkpt lat="44.81965" lon="6.94411">
        <ele>1762.71</ele>
        <time>2013-04-01T12:46:44Z</time>
      </trkpt>
      <trkpt lat="44.81965" lon="6.94411">
        <ele>1762.71</ele>
        <time>2013-04-01T12:47:12Z</time>
      </trkpt>
      <trkpt lat="44.81965" lon="6.94411">
        <ele>1763.2</ele>
        <time>2013-04-01T12:47:36Z</time>
      </trkpt>
      <trkpt lat="44.81965" lon="6.94411">
        <ele>1763.2</ele>
        <time>2013-04-01T12:47:58Z</time>
      </trkpt>
      <trkpt lat="44.81964" lon="6.94412">
        <ele>1760.79</ele>
        <time>2013-04-01T12:48:01Z</time>
      </trkpt>
      <trkpt lat="44.81962" lon="6.94412">
        <ele>1755.5</ele>
        <time>2013-04-01T12:48:07Z</time>
      </trkpt>
      <trkpt lat="44.81962" lon="6.94412">
        <ele>1765.6</ele>
        <time>2013-04-01T12:48:08Z</time>
      </trkpt>
      <trkpt lat="44.81962" lon="6.94412">
        <ele>1762.23</ele>
        <time>2013-04-01T12:48:10Z</time>
      </trkpt>
      <trkpt lat="44.81962" lon="6.94412">
        <ele>1763.2</ele>
        <time>2013-04-01T12:48:31Z</time>
      </trkpt>
      <trkpt lat="44.81962" lon="6.94412">
        <ele>1763.2</ele>
        <time>2013-04-01T12:48:54Z</time>
      </trkpt>
      <trkpt lat="44.81964" lon="6.94411">
        <ele>1763.68</ele>
        <time>2013-04-01T12:49:11Z</time>
      </trkpt>
      <trkpt lat="44.81965" lon="6.94409">
        <ele>1763.2</ele>
        <time>2013-04-01T12:49:27Z</time>
      </trkpt>
      <trkpt lat="44.81969" lon="6.94406">
        <ele>1763.68</ele>
        <time>2013-04-01T12:49:50Z</time>
      </trkpt>
    </trkseg>
  </trk>
</gpx>